Provisional Data: Chiques Creek near Route 283


Please select a monitoring station.
Please select start date.
Please select start date.

Toggle Unit: C/F Toggle Unit: C/F
Sample Time Temperature (C) Temperature (F) Specific Conductivity (mS/cm) pH   Turbidity (NTU+) DO (mg/L)
1/12/2021 12:00:00 AM 4.18 39.524 0.483 7.97 3.61 13.06
1/12/2021 12:15:00 AM 4.15 39.47 0.483 7.97 3.59 13.07
1/12/2021 12:30:00 AM 4.11 39.398 0.483 7.97 3.56 13.08
1/12/2021 12:45:00 AM 4.08 39.344 0.483 7.96 3.46 13.08
1/12/2021 1:00:00 AM 4.04 39.272 0.482 7.96 3.51 13.09
1/12/2021 1:15:00 AM 4 39.2 0.482 7.96 3.49 13.09
1/12/2021 1:30:00 AM 3.97 39.146 0.482 7.96 3.59 13.09
1/12/2021 1:45:00 AM 3.93 39.074 0.482 7.96 3.63 13.1
1/12/2021 2:00:00 AM 3.9 39.02 0.482 7.96 3.45 13.11
1/12/2021 2:15:00 AM 3.86 38.948 0.482 7.96 3.57 13.11
1/12/2021 2:30:00 AM 3.82 38.876 0.482 7.96 3.53 13.12
1/12/2021 2:45:00 AM 3.78 38.804 0.483 7.96 3.59 13.13
1/12/2021 3:00:00 AM 3.76 38.768 0.483 7.96 3.5 13.14
1/12/2021 3:15:00 AM 3.72 38.696 0.483 7.96 3.6 13.15
1/12/2021 3:30:00 AM 3.69 38.642 0.484 7.96 3.63 13.15
1/12/2021 3:45:00 AM 3.66 38.588 0.484 7.96 3.59 13.16
1/12/2021 4:00:00 AM 3.62 38.516 0.484 7.96 3.63 13.17
1/12/2021 4:15:00 AM 3.59 38.462 0.484 7.96 3.76 13.18
1/12/2021 4:30:00 AM 3.56 38.408 0.484 7.96 3.75 13.19
1/12/2021 4:45:00 AM 3.54 38.372 0.484 7.96 3.79 13.19
1/12/2021 5:00:00 AM 3.51 38.318 0.484 7.96 3.7 13.21
1/12/2021 5:15:00 AM 3.48 38.264 0.483 7.96 3.73 13.21
1/12/2021 5:30:00 AM 3.45 38.21 0.483 7.96 3.88 13.22
1/12/2021 5:45:00 AM 3.43 38.174 0.483 7.96 3.67 13.23
1/12/2021 6:00:00 AM 3.4 38.12 0.483 7.96 3.69 13.24
1/12/2021 6:15:00 AM 3.38 38.084 0.483 7.96 3.63 13.25
1/12/2021 6:30:00 AM 3.34 38.012 0.483 7.96 3.73 13.25
1/12/2021 6:45:00 AM 3.32 37.976 0.483 7.96 3.83 13.26
1/12/2021 7:00:00 AM 3.3 37.94 0.484 7.96 3.87 13.27
1/12/2021 7:15:00 AM 3.27 37.886 0.484 7.96 3.85 13.27
1/12/2021 7:30:00 AM 3.25 37.85 0.485 7.96 3.82 13.29
1/12/2021 7:45:00 AM 3.23 37.814 0.486 7.96 3.65 13.3
1/12/2021 8:00:00 AM 3.21 37.778 0.487 7.96 3.71 13.31
1/12/2021 8:15:00 AM 3.2 37.76 0.488 7.96 3.75 13.33
1/12/2021 8:30:00 AM 3.2 37.76 0.489 7.96 3.86 13.34
1/12/2021 8:45:00 AM 3.2 37.76 0.489 7.96 3.75 13.35
1/12/2021 9:00:00 AM 3.21 37.778 0.49 7.96 3.67 13.37
1/12/2021 9:15:00 AM 3.21 37.778 0.49 7.97 3.64 13.39
1/12/2021 9:30:00 AM 3.22 37.796 0.49 7.97 3.51 13.39
1/12/2021 9:45:00 AM 3.23 37.814 0.491 7.97 3.55 13.41
1/12/2021 10:00:00 AM 3.26 37.868 0.491 7.97 3.54 13.41
1/12/2021 10:15:00 AM 3.27 37.886 0.491 7.97 3.45 13.42
1/12/2021 10:30:00 AM 3.29 37.922 0.491 7.97 3.49 13.43
1/12/2021 10:45:00 AM 3.31 37.958 0.491 7.98 3.44 13.43
1/12/2021 11:00:00 AM 3.34 38.012 0.491 7.98 3.36 13.43
1/12/2021 11:15:00 AM 3.35 38.03 0.492 7.98 3.43 13.43
1/12/2021 11:30:00 AM 3.38 38.084 0.492 7.98 3.28 13.44
1/12/2021 11:45:00 AM 3.4 38.12 0.492 7.98 3.39 13.44
1/12/2021 12:00:00 PM 3.43 38.174 0.493 7.98 3.35 13.44
1/12/2021 12:15:00 PM 3.46 38.228 0.493 7.98 3.27 13.43
1/12/2021 12:30:00 PM 3.5 38.3 0.494 7.98 3.21 13.43
1/12/2021 12:45:00 PM 3.54 38.372 0.494 7.98 3.27 13.43
1/12/2021 1:00:00 PM 3.58 38.444 0.494 7.99 3.2 13.42
1/12/2021 1:15:00 PM 3.64 38.552 0.495 7.99 3.2 13.41
1/12/2021 1:30:00 PM 3.69 38.642 0.495 7.99 3.37 13.4
1/12/2021 1:45:00 PM 3.76 38.768 0.495 7.99 3.32 13.39
1/12/2021 2:00:00 PM 3.81 38.858 0.495 7.99 3.17 13.38
1/12/2021 2:15:00 PM 3.88 38.984 0.495 7.99 3.14 13.38
1/12/2021 2:30:00 PM 3.94 39.092 0.495 8 3.23 13.37
1/12/2021 2:45:00 PM 3.98 39.164 0.494 8 3.14 13.37
1/12/2021 3:00:00 PM 4.04 39.272 0.494 8 3.14 13.35
1/12/2021 3:15:00 PM 4.08 39.344 0.495 8 3.24 13.35
1/12/2021 3:30:00 PM 4.11 39.398 0.495 8 3.17 13.35
1/12/2021 3:45:00 PM 4.15 39.47 0.495 8.01 3.32 13.34
1/12/2021 4:00:00 PM 4.18 39.524 0.495 8.01 3.22 13.32
1/12/2021 4:15:00 PM 4.21 39.578 0.495 8.01 3.28 13.3
1/12/2021 4:30:00 PM 4.24 39.632 0.495 8.01 3.23 13.3
1/12/2021 4:45:00 PM 4.26 39.668 0.496 8.01 3.34 13.28
1/12/2021 5:00:00 PM 4.29 39.722 0.496 8.01 3.24 13.26
1/12/2021 5:15:00 PM 4.3 39.74 0.495 8.01 3.23 13.25
1/12/2021 5:30:00 PM 4.33 39.794 0.495 8.01 3.25 13.23
1/12/2021 5:45:00 PM 4.35 39.83 0.495 8.01 3.3 13.23
1/12/2021 6:00:00 PM 4.37 39.866 0.495 8.01 3.39 13.22
1/12/2021 6:15:00 PM 4.39 39.902 0.495 8.01 3.17 13.21
1/12/2021 6:30:00 PM 4.41 39.938 0.494 8.01 3.15 13.2
1/12/2021 6:45:00 PM 4.43 39.974 0.494 8.01 3.18 13.19
1/12/2021 7:00:00 PM 4.45 40.01 0.494 8.01 3.12 13.18
1/12/2021 7:15:00 PM 4.46 40.028 0.494 8.01 3.13 13.17
1/12/2021 7:30:00 PM 4.47 40.046 0.493 8.01 3.22 13.16
1/12/2021 7:45:00 PM 4.47 40.046 0.493 8.01 3.18 13.15
1/12/2021 8:00:00 PM 4.48 40.064 0.492 8.01 3.19 13.14
1/12/2021 8:15:00 PM 4.48 40.064 0.492 8.01 3.18 13.13
1/12/2021 8:30:00 PM 4.48 40.064 0.492 8.01 3.24 13.12
1/12/2021 8:45:00 PM 4.49 40.082 0.492 8.01 3.31 13.11
1/12/2021 9:00:00 PM 4.49 40.082 0.492 8.01 3.26 13.09
1/12/2021 9:15:00 PM 4.49 40.082 0.492 8 3.25 13.07
1/12/2021 9:30:00 PM 4.48 40.064 0.492 8 3.47 13.06
1/12/2021 9:45:00 PM 4.47 40.046 0.492 8 3.44 13.05
1/12/2021 10:00:00 PM 4.46 40.028 0.491 8 3.44 13.04
1/12/2021 10:15:00 PM 4.43 39.974 0.491 8 3.4 13.04
1/12/2021 10:30:00 PM 4.41 39.938 0.49 8 3.48 13.03
1/12/2021 10:45:00 PM 4.4 39.92 0.49 7.99 3.33 13.03
1/12/2021 11:00:00 PM 4.37 39.866 0.489 7.99 3.49 13.02
1/12/2021 11:15:00 PM 4.34 39.812 0.489 7.99 3.47 13.02
1/12/2021 11:30:00 PM 4.31 39.758 0.488 7.99 3.49 13.02
1/12/2021 11:45:00 PM 4.29 39.722 0.488 7.98 3.43 13.02
1/13/2021 12:00:00 AM 4.26 39.668 0.488 7.98 3.61 13.01
1/13/2021 12:15:00 AM 4.25 39.65 0.488 7.98 3.54 13.02
1/13/2021 12:30:00 AM 4.24 39.632 0.488 7.98 3.69 13.01
1/13/2021 12:45:00 AM 4.21 39.578 0.488 7.98 3.63 13.02
1/13/2021 1:00:00 AM 4.19 39.542 0.487 7.98 3.64 13.02
1/13/2021 1:15:00 AM 4.16 39.488 0.487 7.97 3.66 13.02
1/13/2021 1:30:00 AM 4.14 39.452 0.488 7.97 3.79 13.02
1/13/2021 1:45:00 AM 4.12 39.416 0.488 7.97 3.77 13.01
1/13/2021 2:00:00 AM 4.1 39.38 0.488 7.97 3.67 13.02
1/13/2021 2:15:00 AM 4.07 39.326 0.488 7.97 3.64 13.02
1/13/2021 2:30:00 AM 4.05 39.29 0.487 7.97 3.8 13.03
1/13/2021 2:45:00 AM 4.02 39.236 0.487 7.97 3.87 13.03
1/13/2021 3:00:00 AM 3.99 39.182 0.487 7.96 3.74 13.04
1/13/2021 3:15:00 AM 3.97 39.146 0.487 7.96 3.84 13.03
1/13/2021 3:30:00 AM 3.95 39.11 0.487 7.96 3.93 13.03
1/13/2021 3:45:00 AM 3.92 39.056 0.487 7.96 3.87 13.04
1/13/2021 4:00:00 AM 3.89 39.002 0.487 7.96 3.84 13.05
1/13/2021 4:15:00 AM 3.87 38.966 0.487 7.96 3.93 13.06
1/13/2021 4:30:00 AM 3.84 38.912 0.487 7.96 3.86 13.06
1/13/2021 4:45:00 AM 3.82 38.876 0.488 7.96 3.87 13.06
1/13/2021 5:00:00 AM 3.81 38.858 0.488 7.96 4.04 13.07
1/13/2021 5:15:00 AM 3.8 38.84 0.489 7.96 4.57 13.06
1/13/2021 5:30:00 AM 3.78 38.804 0.49 7.96 4.17 13.06
1/13/2021 5:45:00 AM 3.77 38.786 0.491 7.96 4.08 13.07
1/13/2021 6:00:00 AM 3.76 38.768 0.491 7.96 4.17 13.07
1/13/2021 6:15:00 AM 3.75 38.75 0.492 7.96 4.1 13.07
1/13/2021 6:30:00 AM 3.74 38.732 0.493 7.96 4.09 13.07
1/13/2021 6:45:00 AM 3.73 38.714 0.493 7.96 4.24 13.07
1/13/2021 7:00:00 AM 3.73 38.714 0.494 7.96 4.36 13.07
1/13/2021 7:15:00 AM 3.73 38.714 0.494 7.96 4.27 13.07
1/13/2021 7:30:00 AM 3.72 38.696 0.495 7.96 4.13 13.07
1/13/2021 7:45:00 AM 3.71 38.678 0.496 7.96 4.3 13.08
1/13/2021 8:00:00 AM 3.71 38.678 0.497 7.96 4.29 13.08
1/13/2021 8:15:00 AM 3.71 38.678 0.497 7.96 4.28 13.1
1/13/2021 8:30:00 AM 3.72 38.696 0.498 7.97 4.24 13.1
1/13/2021 8:45:00 AM 3.73 38.714 0.499 7.97 4.08 13.11
1/13/2021 9:00:00 AM 3.75 38.75 0.5 7.97 4.03 13.13
1/13/2021 9:15:00 AM 3.76 38.768 0.5 7.97 4.2 13.13
1/13/2021 9:30:00 AM 3.77 38.786 0.501 7.97 3.95 13.14
1/13/2021 9:45:00 AM 3.79 38.822 0.501 7.97 4.02 13.15
1/13/2021 10:00:00 AM 3.81 38.858 0.501 7.97 4.08 13.15
1/13/2021 10:15:00 AM 3.84 38.912 0.501 7.98 3.92 13.15
1/13/2021 10:30:00 AM 3.86 38.948 0.501 7.98 4.03 13.16
1/13/2021 10:45:00 AM 3.9 39.02 0.501 7.98 3.93 13.17
1/13/2021 11:00:00 AM 3.92 39.056 0.501 7.98 3.98 13.16
1/13/2021 11:15:00 AM 3.96 39.128 0.5 7.98 3.96 13.17
1/13/2021 11:30:00 AM 4 39.2 0.5 7.98 3.89 13.18
1/13/2021 11:45:00 AM 4.02 39.236 0.5 7.98 3.94 13.16
1/13/2021 12:00:00 PM 4.05 39.29 0.499 7.98 3.95 13.15
1/13/2021 12:15:00 PM 4.09 39.362 0.498 7.98 3.87 13.17
1/13/2021 12:30:00 PM 4.15 39.47 0.498 7.98 3.92 13.16
1/13/2021 12:45:00 PM 4.19 39.542 0.498 7.99 3.86 13.16
1/13/2021 1:00:00 PM 4.25 39.65 0.498 7.99 3.78 13.15
1/13/2021 1:15:00 PM 4.29 39.722 0.498 7.99 3.8 13.14
1/13/2021 1:30:00 PM 4.34 39.812 0.498 7.99 3.73 13.13
1/13/2021 1:45:00 PM 4.38 39.884 0.497 7.99 3.75 13.13
1/13/2021 2:00:00 PM 4.42 39.956 0.497 7.99 3.74 13.12
1/13/2021 2:15:00 PM 4.46 40.028 0.497 7.99 3.68 13.11
1/13/2021 2:30:00 PM 4.52 40.136 0.497 8 3.56 13.11
1/13/2021 2:45:00 PM 4.58 40.244 0.497 8 3.84 13.11
1/13/2021 3:00:00 PM 4.63 40.334 0.496 8 3.88 13.1
1/13/2021 3:15:00 PM 4.69 40.442 0.496 8.01 3.64 13.09
1/13/2021 3:30:00 PM 4.74 40.532 0.495 8.01 3.61 13.07
1/13/2021 3:45:00 PM 4.79 40.622 0.495 8.01 3.61 13.07
1/13/2021 4:00:00 PM 4.81 40.658 0.494 8.01 3.67 13.05
1/13/2021 4:15:00 PM 4.84 40.712 0.494 8.01 3.53 13.04
1/13/2021 4:30:00 PM 4.87 40.766 0.494 8.01 3.48 13.03
1/13/2021 4:45:00 PM 4.89 40.802 0.493 8.02 3.51 13.01
1/13/2021 5:00:00 PM 4.9 40.82 0.493 8.02 3.49 13
1/13/2021 5:15:00 PM 4.91 40.838 0.493 8.02 3.67 12.99
1/13/2021 5:30:00 PM 4.92 40.856 0.493 8.02 3.72 12.98
1/13/2021 5:45:00 PM 4.93 40.874 0.493 8.02 3.68 12.98
1/13/2021 6:00:00 PM 4.95 40.91 0.493 8.02 3.6 12.97
1/13/2021 6:15:00 PM 4.96 40.928 0.493 8.02 3.66 12.96
1/13/2021 6:30:00 PM 4.98 40.964 0.493 8.02 3.51 12.95
1/13/2021 6:45:00 PM 5 41 0.492 8.02 3.77 12.94
1/13/2021 7:00:00 PM 5.01 41.018 0.492 8.02 3.68 12.93
1/13/2021 7:15:00 PM 5.03 41.054 0.492 8.02 3.64 12.91
1/13/2021 7:30:00 PM 5.05 41.09 0.491 8.02 3.59 12.89
1/13/2021 7:45:00 PM 5.06 41.108 0.491 8.02 3.69 12.89
1/13/2021 8:00:00 PM 5.07 41.126 0.49 8.02 3.67 12.88
1/13/2021 8:15:00 PM 5.07 41.126 0.49 8.02 3.81 12.87
1/13/2021 8:30:00 PM 5.08 41.144 0.49 8.02 3.75 12.85
1/13/2021 8:45:00 PM 5.08 41.144 0.489 8.02 3.83 12.84
1/13/2021 9:00:00 PM 5.08 41.144 0.489 8.02 3.87 12.83
1/13/2021 9:15:00 PM 5.07 41.126 0.489 8.01 3.82 12.81
1/13/2021 9:30:00 PM 5.06 41.108 0.489 8.01 3.95 12.8
1/13/2021 9:45:00 PM 5.05 41.09 0.489 8.01 3.85 12.79
1/13/2021 10:00:00 PM 5.03 41.054 0.489 8.01 3.89 12.78
1/13/2021 10:15:00 PM 5.01 41.018 0.489 8 3.99 12.77
1/13/2021 10:30:00 PM 4.99 40.982 0.489 8 3.89 12.76
1/13/2021 10:45:00 PM 4.97 40.946 0.489 8 3.88 12.76
1/13/2021 11:00:00 PM 4.94 40.892 0.489 8 4.11 12.74
1/13/2021 11:15:00 PM 4.93 40.874 0.489 7.99 4.08 12.74
1/13/2021 11:30:00 PM 4.91 40.838 0.489 7.99 4.03 12.73
1/13/2021 11:45:00 PM 4.88 40.784 0.489 7.99 4.08 12.73
1/14/2021 12:00:00 AM 4.84 40.712 0.488 7.99 4.23 12.73
1/14/2021 12:15:00 AM 4.81 40.658 0.487 7.98 4.19 12.73
1/14/2021 12:30:00 AM 4.78 40.604 0.487 7.98 4.35 12.73
1/14/2021 12:45:00 AM 4.75 40.55 0.486 7.98 4.17 12.73
1/14/2021 1:00:00 AM 4.72 40.496 0.486 7.98 4.17 12.72
1/14/2021 1:15:00 AM 4.69 40.442 0.485 7.97 4.15 12.73
1/14/2021 1:30:00 AM 4.66 40.388 0.485 7.97 4.15 12.73
1/14/2021 1:45:00 AM 4.64 40.352 0.485 7.97 4.25 12.73
1/14/2021 2:00:00 AM 4.61 40.298 0.484 7.97 4.22 12.73
1/14/2021 2:15:00 AM 4.58 40.244 0.484 7.97 4.19 12.73
1/14/2021 2:30:00 AM 4.56 40.208 0.484 7.97 4.23 12.74
1/14/2021 2:45:00 AM 4.54 40.172 0.484 7.97 4.32 12.74
1/14/2021 3:00:00 AM 4.51 40.118 0.484 7.97 4.35 12.74
1/14/2021 3:15:00 AM 4.49 40.082 0.484 7.97 4.25 12.74
1/14/2021 3:30:00 AM 4.47 40.046 0.484 7.97 4.37 12.74
1/14/2021 3:45:00 AM 4.44 39.992 0.484 7.96 4.44 12.75
1/14/2021 4:00:00 AM 4.42 39.956 0.484 7.96 4.38 12.75
1/14/2021 4:15:00 AM 4.4 39.92 0.484 7.96 4.38 12.75
1/14/2021 4:30:00 AM 4.37 39.866 0.484 7.96 4.46 12.76
1/14/2021 4:45:00 AM 4.35 39.83 0.484 7.96 4.61 12.77
1/14/2021 5:00:00 AM 4.34 39.812 0.484 7.96 4.58 12.77
1/14/2021 5:15:00 AM 4.32 39.776 0.484 7.96 4.42 12.77
1/14/2021 5:30:00 AM 4.31 39.758 0.484 7.96 4.44 12.78
1/14/2021 5:45:00 AM 4.3 39.74 0.484 7.96 4.36 12.78
1/14/2021 6:00:00 AM 4.28 39.704 0.484 7.96 4.56 12.78
1/14/2021 6:15:00 AM 4.27 39.686 0.485 7.96 4.38 12.79
1/14/2021 6:30:00 AM 4.26 39.668 0.485 7.96 4.51 12.8
1/14/2021 6:45:00 AM 4.25 39.65 0.485 7.96 4.58 12.8
1/14/2021 7:00:00 AM 4.24 39.632 0.485 7.96 4.47 12.81
1/14/2021 7:15:00 AM 4.23 39.614 0.485 7.96 4.59 12.81
1/14/2021 7:30:00 AM 4.23 39.614 0.485 7.96 4.64 12.8
1/14/2021 7:45:00 AM 4.23 39.614 0.485 7.96 4.56 12.81
1/14/2021 8:00:00 AM 4.23 39.614 0.486 7.96 4.53 12.83
1/14/2021 8:15:00 AM 4.24 39.632 0.486 7.96 4.47 12.83
1/14/2021 8:30:00 AM 4.24 39.632 0.486 7.96 4.4 12.84
1/14/2021 8:45:00 AM 4.25 39.65 0.487 7.96 4.46 12.86
1/14/2021 9:00:00 AM 4.27 39.686 0.488 7.96 4.56 12.86
1/14/2021 9:15:00 AM 4.28 39.704 0.488 7.96 4.4 12.87
1/14/2021 9:30:00 AM 4.3 39.74 0.489 7.96 4.29 12.88
1/14/2021 9:45:00 AM 4.31 39.758 0.49 7.97 4.45 12.89
1/14/2021 10:00:00 AM 4.34 39.812 0.491 7.97 4.26 12.89
1/14/2021 10:15:00 AM 4.38 39.884 0.492 7.97 4.41 12.9
1/14/2021 10:30:00 AM 4.41 39.938 0.493 7.97 4.23 12.91
1/14/2021 10:45:00 AM 4.43 39.974 0.494 7.97 4.11 12.89
1/14/2021 11:00:00 AM 4.44 39.992 0.495 7.97 4.2 12.89
1/14/2021 11:15:00 AM 4.47 40.046 0.496 7.97 4.05 12.89
1/14/2021 11:30:00 AM 4.49 40.082 0.497 7.97 4.29 12.89
1/14/2021 11:45:00 AM 4.53 40.154 0.497 7.98 4.1 12.9
1/14/2021 12:00:00 PM 4.59 40.262 0.498 7.98 3.89 12.91
1/14/2021 12:15:00 PM 4.65 40.37 0.499 7.98 4 12.9
1/14/2021 12:30:00 PM 4.7 40.46 0.499 7.98 3.97 12.89
1/14/2021 12:45:00 PM 4.73 40.514 0.5 7.98 3.87 12.87
1/14/2021 1:00:00 PM 4.78 40.604 0.5 7.98 3.94 12.87
1/14/2021 1:15:00 PM 4.83 40.694 0.5 7.99 4.12 12.85
1/14/2021 1:30:00 PM 4.86 40.748 0.501 7.98 3.85 12.84
1/14/2021 1:45:00 PM 4.91 40.838 0.501 7.99 3.78 12.84
1/14/2021 2:00:00 PM 4.95 40.91 0.501 7.99 3.93 12.83
1/14/2021 2:15:00 PM 5.01 41.018 0.502 7.99 4.01 12.85
1/14/2021 2:30:00 PM 5.08 41.144 0.502 8 4.17 12.86
1/14/2021 2:45:00 PM 5.13 41.234 0.502 8 3.93 12.86
1/14/2021 3:00:00 PM 5.15 41.27 0.502 8 3.93 12.81
1/14/2021 3:15:00 PM 5.18 41.324 0.502 8 3.99 12.82
1/14/2021 3:30:00 PM 5.21 41.378 0.502 8 4.09 12.81
1/14/2021 3:45:00 PM 5.25 41.45 0.501 8.01 3.85 12.82
1/14/2021 4:00:00 PM 5.31 41.558 0.501 8.01 4.08 12.81
1/14/2021 4:15:00 PM 5.33 41.594 0.5 8.01 3.94 12.8
1/14/2021 4:30:00 PM 5.36 41.648 0.5 8.01 4.01 12.78
1/14/2021 4:45:00 PM 5.4 41.72 0.499 8.01 3.85 12.76
1/14/2021 5:00:00 PM 5.44 41.792 0.498 8.01 3.99 12.75
1/14/2021 5:15:00 PM 5.47 41.846 0.497 8.01 4.03 12.75
1/14/2021 5:30:00 PM 5.5 41.9 0.497 8.01 3.95 12.74
1/14/2021 5:45:00 PM 5.52 41.936 0.496 8.01 4.13 12.72
1/14/2021 6:00:00 PM 5.54 41.972 0.495 8.01 4.2 12.72
1/14/2021 6:15:00 PM 5.58 42.044 0.495 8.01 4.2 12.71
1/14/2021 6:30:00 PM 5.6 42.08 0.495 8.01 4.08 12.69
1/14/2021 6:45:00 PM 5.62 42.116 0.494 8.01 4.02 12.67
1/14/2021 7:00:00 PM 5.64 42.152 0.494 8.02 4.27 12.67
1/14/2021 7:15:00 PM 5.65 42.17 0.494 8.01 4.12 12.67
1/14/2021 7:30:00 PM 5.66 42.188 0.494 8.01 4.27 12.65
1/14/2021 7:45:00 PM 5.67 42.206 0.494 8.01 4.3 12.64
1/14/2021 8:00:00 PM 5.67 42.206 0.494 8.01 4.39 12.63
1/14/2021 8:15:00 PM 5.67 42.206 0.494 8.01 4.25 12.62
1/14/2021 8:30:00 PM 5.67 42.206 0.494 8.01 4.32 12.61
1/14/2021 8:45:00 PM 5.66 42.188 0.493 8.01 4.34 12.6
1/14/2021 9:00:00 PM 5.66 42.188 0.493 8.01 4.56 12.59
1/14/2021 9:15:00 PM 5.65 42.17 0.493 8 4.63 12.58
1/14/2021 9:30:00 PM 5.63 42.134 0.492 8 4.32 12.58
1/14/2021 9:45:00 PM 5.61 42.098 0.491 8 4.54 12.56
1/14/2021 10:00:00 PM 5.59 42.062 0.491 8 4.45 12.55
1/14/2021 10:15:00 PM 5.56 42.008 0.49 8 4.36 12.55
1/14/2021 10:30:00 PM 5.54 41.972 0.49 8 4.66 12.54
1/14/2021 10:45:00 PM 5.52 41.936 0.49 7.99 4.54 12.54
1/14/2021 11:00:00 PM 5.5 41.9 0.489 7.99 4.63 12.53
1/14/2021 11:15:00 PM 5.47 41.846 0.489 7.99 4.54 12.53
1/14/2021 11:30:00 PM 5.45 41.81 0.489 7.98 4.58 12.52
1/14/2021 11:45:00 PM 5.43 41.774 0.489 7.98 4.73 12.52
1/15/2021 12:00:00 AM 5.41 41.738 0.488 7.98 4.85 12.52
1/15/2021 12:15:00 AM 5.38 41.684 0.488 7.98 4.75 12.51
1/15/2021 12:30:00 AM 5.36 41.648 0.488 7.98 4.4 12.51
1/15/2021 12:45:00 AM 5.32 41.576 0.487 7.97 4.7 12.51
1/15/2021 1:00:00 AM 5.29 41.522 0.487 7.97 4.61 12.52
1/15/2021 1:15:00 AM 5.26 41.468 0.487 7.97 4.6 12.52
1/15/2021 1:30:00 AM 5.22 41.396 0.486 7.97 4.57 12.52
1/15/2021 1:45:00 AM 5.19 41.342 0.486 7.97 4.71 12.52
1/15/2021 2:00:00 AM 5.16 41.288 0.486 7.97 4.69 12.53
1/15/2021 2:15:00 AM 5.12 41.216 0.486 7.97 4.81 12.53
1/15/2021 2:30:00 AM 5.09 41.162 0.486 7.97 4.72 12.54
1/15/2021 2:45:00 AM 5.06 41.108 0.487 7.96 4.66 12.55
1/15/2021 3:00:00 AM 5.04 41.072 0.487 7.96 4.79 12.55
1/15/2021 3:15:00 AM 5.01 41.018 0.487 7.96 4.67 12.55
1/15/2021 3:30:00 AM 4.98 40.964 0.487 7.96 4.71 12.55
1/15/2021 3:45:00 AM 4.97 40.946 0.488 7.96 4.62 12.56
1/15/2021 4:00:00 AM 4.95 40.91 0.488 7.96 4.78 12.56
1/15/2021 4:15:00 AM 4.92 40.856 0.488 7.96 4.79 12.57
1/15/2021 4:30:00 AM 4.91 40.838 0.488 7.96 4.84 12.57
1/15/2021 4:45:00 AM 4.9 40.82 0.488 7.96 4.79 12.58
1/15/2021 5:00:00 AM 4.88 40.784 0.487 7.96 4.92 12.58
1/15/2021 5:15:00 AM 4.87 40.766 0.487 7.96 4.88 12.58
1/15/2021 5:30:00 AM 4.85 40.73 0.487 7.96 5.1 12.59
1/15/2021 5:45:00 AM 4.83 40.694 0.487 7.96 4.92 12.59
1/15/2021 6:00:00 AM 4.81 40.658 0.487 7.96 4.89 12.59
1/15/2021 6:15:00 AM 4.8 40.64 0.486 7.96 5.07 12.6
1/15/2021 6:30:00 AM 4.78 40.604 0.487 7.96 4.93 12.61
1/15/2021 6:45:00 AM 4.76 40.568 0.487 7.96 4.8 12.61
1/15/2021 7:00:00 AM 4.75 40.55 0.487 7.96 4.81 12.62
1/15/2021 7:15:00 AM 4.73 40.514 0.488 7.96 4.51 12.63
1/15/2021 7:30:00 AM 4.72 40.496 0.488 7.96 4.71 12.63
1/15/2021 7:45:00 AM 4.72 40.496 0.489 7.96 4.7 12.63
1/15/2021 8:00:00 AM 4.71 40.478 0.489 7.97 4.71 12.64
1/15/2021 8:15:00 AM 4.71 40.478 0.49 7.97 4.64 12.66
1/15/2021 8:30:00 AM 4.71 40.478 0.49 7.97 4.8 12.68
1/15/2021 8:45:00 AM 4.71 40.478 0.491 7.97 4.82 12.69
1/15/2021 9:00:00 AM 4.72 40.496 0.492 7.97 4.56 12.71
1/15/2021 9:15:00 AM 4.74 40.532 0.492 7.97 4.82 12.73
1/15/2021 9:30:00 AM 4.76 40.568 0.493 7.97 4.59 12.74
1/15/2021 9:45:00 AM 4.77 40.586 0.493 7.97 4.5 12.74
1/15/2021 10:00:00 AM 4.78 40.604 0.494 7.98 4.57 12.73
1/15/2021 10:15:00 AM 4.79 40.622 0.494 7.97 4.49 12.74
1/15/2021 10:30:00 AM 4.82 40.676 0.495 7.98 4.38 12.75
1/15/2021 10:45:00 AM 4.83 40.694 0.495 7.98 4.68 12.73
1/15/2021 11:00:00 AM 4.85 40.73 0.496 7.98 4.34 12.73
1/15/2021 11:15:00 AM 4.87 40.766 0.496 7.98 4.32 12.72
1/15/2021 11:30:00 AM 4.9 40.82 0.496 7.98 4.25 12.73
1/15/2021 11:45:00 AM 4.93 40.874 0.497 7.98 4.38 12.75
1/15/2021 12:00:00 PM 4.97 40.946 0.497 7.98 4.27 12.74
1/15/2021 12:15:00 PM 4.99 40.982 0.497 7.99 4.14 12.73
1/15/2021 12:30:00 PM 5.01 41.018 0.497 7.99 4.51 12.71
1/15/2021 12:45:00 PM 5.04 41.072 0.497 7.99 4.29 12.72
1/15/2021 1:00:00 PM 5.07 41.126 0.497 7.99 4.4 12.72
1/15/2021 1:15:00 PM 5.1 41.18 0.497 7.99 4.27 12.73
1/15/2021 1:30:00 PM 5.13 41.234 0.496 7.99 4.38 12.72
1/15/2021 1:45:00 PM 5.17 41.306 0.496 7.99 4.2 12.72
1/15/2021 2:00:00 PM 5.21 41.378 0.496 8 4.17 12.73
1/15/2021 2:15:00 PM 5.24 41.432 0.495 8 4.14 12.73
1/15/2021 2:30:00 PM 5.27 41.486 0.495 8 4.19 12.73
1/15/2021 2:45:00 PM 5.29 41.522 0.495 8 4 12.7
1/15/2021 3:00:00 PM 5.31 41.558 0.494 8 4.02 12.68
1/15/2021 3:15:00 PM 5.35 41.63 0.494 8.01 3.98 12.69
1/15/2021 3:30:00 PM 5.38 41.684 0.494 8.01 3.97 12.69
1/15/2021 3:45:00 PM 5.41 41.738 0.494 8.01 3.97 12.69
1/15/2021 4:00:00 PM 5.44 41.792 0.494 8.01 3.98 12.67
1/15/2021 4:15:00 PM 5.46 41.828 0.494 8.01 3.9 12.67
1/15/2021 4:30:00 PM 5.49 41.882 0.494 8.02 3.8 12.67
1/15/2021 4:45:00 PM 5.52 41.936 0.494 8.02 3.95 12.65
1/15/2021 5:00:00 PM 5.55 41.99 0.494 8.02 3.95 12.64
1/15/2021 5:15:00 PM 5.59 42.062 0.494 8.02 4.03 12.62
1/15/2021 5:30:00 PM 5.62 42.116 0.494 8.02 4.14 12.62
1/15/2021 5:45:00 PM 5.67 42.206 0.494 8.02 4.05 12.6
1/15/2021 6:00:00 PM 5.7 42.26 0.494 8.02 3.98 12.6
1/15/2021 6:15:00 PM 5.74 42.332 0.494 8.02 4 12.58
1/15/2021 6:30:00 PM 5.78 42.404 0.494 8.02 3.9 12.57
1/15/2021 6:45:00 PM 5.81 42.458 0.494 8.02 4.1 12.56
1/15/2021 7:00:00 PM 5.84 42.512 0.494 8.02 4.2 12.55
1/15/2021 7:15:00 PM 5.87 42.566 0.494 8.02 4.03 12.54
1/15/2021 7:30:00 PM 5.9 42.62 0.494 8.02 4.1 12.53
1/15/2021 7:45:00 PM 5.94 42.692 0.494 8.02 4.51 12.51
1/15/2021 8:00:00 PM 5.96 42.728 0.494 8.02 4.16 12.49
1/15/2021 8:15:00 PM 5.99 42.782 0.494 8.02 4.26 12.48
1/15/2021 8:30:00 PM 6.01 42.818 0.494 8.02 4.23 12.46
1/15/2021 8:45:00 PM 6.03 42.854 0.493 8.02 4.2 12.45
1/15/2021 9:00:00 PM 6.04 42.872 0.493 8.02 4.24 12.43
1/15/2021 9:15:00 PM 6.06 42.908 0.492 8.02 4.24 12.41
1/15/2021 9:30:00 PM 6.07 42.926 0.492 8.02 4.25 12.39
1/15/2021 9:45:00 PM 6.08 42.944 0.491 8.01 4.29 12.37
1/15/2021 10:00:00 PM 6.09 42.962 0.491 8.01 4.51 12.37
1/15/2021 10:15:00 PM 6.1 42.98 0.491 8.01 4.45 12.35
1/15/2021 10:30:00 PM 6.11 42.998 0.49 8 4.41 12.33
1/15/2021 10:45:00 PM 6.12 43.016 0.49 8 4.41 12.3
1/15/2021 11:00:00 PM 6.13 43.034 0.49 8 4.45 12.29
1/15/2021 11:15:00 PM 6.14 43.052 0.49 7.99 4.29 12.27
1/15/2021 11:30:00 PM 6.15 43.07 0.49 7.99 4.42 12.25
1/15/2021 11:45:00 PM 6.16 43.088 0.489 7.99 4.29 12.24
1/16/2021 12:00:00 AM 6.18 43.124 0.489 7.99 4.36 12.21
1/16/2021 12:15:00 AM 6.19 43.142 0.489 7.98 4.33 12.2
1/16/2021 12:30:00 AM 6.21 43.178 0.488 7.98 4.18 12.18
1/16/2021 12:45:00 AM 6.22 43.196 0.488 7.98 4.29 12.16
1/16/2021 1:00:00 AM 6.23 43.214 0.487 7.97 4.44 12.15
1/16/2021 1:15:00 AM 6.25 43.25 0.486 7.97 4.36 12.14
1/16/2021 1:30:00 AM 6.26 43.268 0.485 7.97 4.49 12.13
1/16/2021 1:45:00 AM 6.27 43.286 0.483 7.96 4.51 12.12
1/16/2021 2:00:00 AM 6.29 43.322 0.482 7.96 4.61 12.11
1/16/2021 2:15:00 AM 6.29 43.322 0.481 7.96 4.6 12.09
1/16/2021 2:30:00 AM 6.3 43.34 0.479 7.95 4.73 12.09
1/16/2021 2:45:00 AM 6.32 43.376 0.478 7.95 4.87 12.08
1/16/2021 3:00:00 AM 6.33 43.394 0.477 7.95 5.09 12.07
1/16/2021 3:15:00 AM 6.35 43.43 0.477 7.95 5.02 12.07
1/16/2021 3:30:00 AM 6.36 43.448 0.478 7.95 5.21 12.06
1/16/2021 3:45:00 AM 6.37 43.466 0.478 7.95 5.34 12.06
1/16/2021 4:00:00 AM 6.38 43.484 0.477 7.94 5.34 12.05
1/16/2021 4:15:00 AM 6.38 43.484 0.475 7.94 5.54 12.05
1/16/2021 4:30:00 AM 6.37 43.466 0.473 7.94 5.75 12.05
1/16/2021 4:45:00 AM 6.37 43.466 0.471 7.93 5.79 12.05
1/16/2021 5:00:00 AM 6.36 43.448 0.469 7.93 6.31 12.05
1/16/2021 5:15:00 AM 6.35 43.43 0.467 7.93 6.19 12.06
1/16/2021 5:30:00 AM 6.33 43.394 0.466 7.93 6.37 12.07
1/16/2021 5:45:00 AM 6.31 43.358 0.464 7.92 6.39 12.08
1/16/2021 6:00:00 AM 6.3 43.34 0.463 7.92 6.81 12.09
1/16/2021 6:15:00 AM 6.28 43.304 0.462 7.92 7 12.1
1/16/2021 6:30:00 AM 6.25 43.25 0.461 7.92 7.62 12.11
1/16/2021 6:45:00 AM 6.22 43.196 0.461 7.92 7.33 12.13
1/16/2021 7:00:00 AM 6.18 43.124 0.461 7.92 7.68 12.15
1/16/2021 7:15:00 AM 6.14 43.052 0.461 7.92 8.04 12.17
1/16/2021 7:30:00 AM 6.11 42.998 0.462 7.92 8.24 12.19
1/16/2021 7:45:00 AM 6.07 42.926 0.461 7.92 8.09 12.22
1/16/2021 8:00:00 AM 6.03 42.854 0.46 7.92 8.78 12.23
1/16/2021 8:15:00 AM 5.98 42.764 0.459 7.92 8.58 12.26
1/16/2021 8:30:00 AM 5.95 42.71 0.458 7.92 9.35 12.28
1/16/2021 8:45:00 AM 5.92 42.656 0.456 7.92 9.59 12.29
1/16/2021 9:00:00 AM 5.89 42.602 0.454 7.92 10.25 12.3
1/16/2021 9:15:00 AM 5.86 42.548 0.45 7.92 10.8 12.31
1/16/2021 9:30:00 AM 5.84 42.512 0.445 7.91 11.26 12.32
1/16/2021 9:45:00 AM 5.83 42.494 0.439 7.91 11.76 12.33
1/16/2021 10:00:00 AM 5.81 42.458 0.432 7.9 11.78 12.32
1/16/2021 10:15:00 AM 5.79 42.422 0.424 7.89 12.19 12.33
1/16/2021 10:30:00 AM 5.8 42.44 0.417 7.89 12.62 12.34
1/16/2021 10:45:00 AM 5.81 42.458 0.41 7.88 13.43 12.34
1/16/2021 11:00:00 AM 5.81 42.458 0.404 7.88 14.2 12.34
1/16/2021 11:15:00 AM 5.83 42.494 0.398 7.88 14.73 12.36
1/16/2021 11:30:00 AM 5.85 42.53 0.393 7.88 14.97 12.36
1/16/2021 11:45:00 AM 5.85 42.53 0.39 7.88 14.62 12.36
1/16/2021 12:00:00 PM 5.87 42.566 0.387 7.88 15.55 12.38
1/16/2021 12:15:00 PM 5.88 42.584 0.385 7.89 15.54 12.38
1/16/2021 12:30:00 PM 5.89 42.602 0.381 7.89 16.11 12.4
1/16/2021 12:45:00 PM 5.9 42.62 0.378 7.89 16.14 12.41
1/16/2021 1:00:00 PM 5.9 42.62 0.375 7.9 20.98 12.42
1/16/2021 1:15:00 PM 5.9 42.62 0.373 7.9 16.31 12.42
1/16/2021 1:30:00 PM 5.93 42.674 0.37 7.9 15.98 12.44
1/16/2021 1:45:00 PM 5.96 42.728 0.368 7.9 17.15 12.44
1/16/2021 2:00:00 PM 5.98 42.764 0.364 7.9 17.69 12.44
1/16/2021 2:15:00 PM 5.97 42.746 0.362 7.9 18.03 12.43
1/16/2021 2:30:00 PM 5.97 42.746 0.359 7.9 18.91 12.44
1/16/2021 2:45:00 PM 5.99 42.782 0.357 7.9 18.13 12.45
1/16/2021 3:00:00 PM 5.98 42.764 0.355 7.9 19.31 12.45
1/16/2021 3:15:00 PM 5.97 42.746 0.353 7.9 20.42 12.44
1/16/2021 3:30:00 PM 5.96 42.728 0.351 7.89 19.68 12.44
1/16/2021 3:45:00 PM 5.96 42.728 0.35 7.89 20.79 12.43
1/16/2021 4:00:00 PM 5.96 42.728 0.349 7.89 21.2 12.43
1/16/2021 4:15:00 PM 5.95 42.71 0.349 7.89 20.73 12.43
1/16/2021 4:30:00 PM 5.95 42.71 0.349 7.89 22.92 12.42
1/16/2021 4:45:00 PM 5.95 42.71 0.349 7.88 22.5 12.41
1/16/2021 5:00:00 PM 5.94 42.692 0.349 7.88 23.4 12.4
1/16/2021 5:15:00 PM 5.93 42.674 0.35 7.88 23.71 12.39
1/16/2021 5:30:00 PM 5.92 42.656 0.35 7.88 23.28 12.4
1/16/2021 5:45:00 PM 5.91 42.638 0.35 7.88 23.79 12.39
1/16/2021 6:00:00 PM 5.9 42.62 0.351 7.88 22.98 12.38
1/16/2021 6:15:00 PM 5.9 42.62 0.352 7.88 22.58 12.37
1/16/2021 6:30:00 PM 5.88 42.584 0.352 7.88 22.84 12.37
1/16/2021 6:45:00 PM 5.88 42.584 0.353 7.88 24.26 12.35
1/16/2021 7:00:00 PM 5.87 42.566 0.354 7.88 23.62 12.34
1/16/2021 7:15:00 PM 5.86 42.548 0.355 7.88 23.34 12.35
1/16/2021 7:30:00 PM 5.84 42.512 0.357 7.88 23.18 12.34
1/16/2021 7:45:00 PM 5.82 42.476 0.358 7.88 23.1 12.33
1/16/2021 8:00:00 PM 5.79 42.422 0.359 7.88 23.33 12.32
1/16/2021 8:15:00 PM 5.77 42.386 0.361 7.88 20.37 12.32
1/16/2021 8:30:00 PM 5.75 42.35 0.362 7.88 21.61 12.32
1/16/2021 8:45:00 PM 5.72 42.296 0.363 7.88 21.26 12.32
1/16/2021 9:00:00 PM 5.7 42.26 0.364 7.87 24.04 12.31
1/16/2021 9:15:00 PM 5.67 42.206 0.365 7.87 21.05 12.32
1/16/2021 9:30:00 PM 5.64 42.152 0.366 7.87 34.74 12.32
1/16/2021 9:45:00 PM 5.62 42.116 0.366 7.87 20.14 12.31
1/16/2021 10:00:00 PM 5.6 42.08 0.367 7.87 21.35 12.32
1/16/2021 10:15:00 PM 5.57 42.026 0.367 7.87 18.81 12.31
1/16/2021 10:30:00 PM 5.54 41.972 0.368 7.87 18.6 12.31
1/16/2021 10:45:00 PM 5.51 41.918 0.369 7.87 19.75 12.32
1/16/2021 11:00:00 PM 5.48 41.864 0.369 7.87 20.09 12.33
1/16/2021 11:15:00 PM 5.45 41.81 0.371 7.87 18.79 12.33
1/16/2021 11:30:00 PM 5.43 41.774 0.373 7.87 19.99 12.33
1/16/2021 11:45:00 PM 5.41 41.738 0.375 7.87 18.88 12.33
1/17/2021 12:00:00 AM 5.39 41.702 0.378 7.87 17.99 12.32
1/17/2021 12:15:00 AM 5.36 41.648 0.381 7.87 22.28 12.33
1/17/2021 12:30:00 AM 5.34 41.612 0.383 7.87 19 12.33
1/17/2021 12:45:00 AM 5.32 41.576 0.386 7.87 18.85 12.33
1/17/2021 1:00:00 AM 5.3 41.54 0.389 7.87 18.87 12.33
1/17/2021 1:15:00 AM 5.28 41.504 0.391 7.87 19.91 12.33
1/17/2021 1:30:00 AM 5.26 41.468 0.394 7.87 19.12 12.33
1/17/2021 1:45:00 AM 5.24 41.432 0.396 7.87 18.2 12.34
1/17/2021 2:00:00 AM 5.22 41.396 0.398 7.87 17.1 12.33
1/17/2021 2:15:00 AM 5.2 41.36 0.4 7.87 18.31 12.33
1/17/2021 2:30:00 AM 5.18 41.324 0.401 7.87 16.96 12.34
1/17/2021 2:45:00 AM 5.16 41.288 0.403 7.87 16.47 12.35
1/17/2021 3:00:00 AM 5.13 41.234 0.404 7.87 17.12 12.36
1/17/2021 3:15:00 AM 5.11 41.198 0.405 7.88 17.44 12.36
1/17/2021 3:30:00 AM 5.09 41.162 0.406 7.88 16.37 12.36
1/17/2021 3:45:00 AM 5.07 41.126 0.408 7.88 16.38 12.36
1/17/2021 4:00:00 AM 5.05 41.09 0.409 7.88 16.04 12.36
1/17/2021 4:15:00 AM 5.03 41.054 0.41 7.88 16.26 12.37
1/17/2021 4:30:00 AM 5.02 41.036 0.411 7.88 32.35 12.38
1/17/2021 4:45:00 AM 5.01 41.018 0.413 7.88 17.1 12.38
1/17/2021 5:00:00 AM 4.99 40.982 0.414 7.88 15.84 12.38
1/17/2021 5:15:00 AM 4.98 40.964 0.415 7.88 15.37 12.39
1/17/2021 5:30:00 AM 4.95 40.91 0.416 7.88 15.05 12.39
1/17/2021 5:45:00 AM 4.93 40.874 0.416 7.88 14.55 12.41
1/17/2021 6:00:00 AM 4.91 40.838 0.417 7.88 14.93 12.41
1/17/2021 6:15:00 AM 4.9 40.82 0.418 7.88 14.67 12.42
1/17/2021 6:30:00 AM 4.88 40.784 0.418 7.88 14.44 12.43
1/17/2021 6:45:00 AM 4.86 40.748 0.418 7.88 14.38 12.44
1/17/2021 7:00:00 AM 4.84 40.712 0.419 7.88 13.88 12.44
1/17/2021 7:15:00 AM 4.83 40.694 0.419 7.88 13.43 12.45
1/17/2021 7:30:00 AM 4.81 40.658 0.42 7.89 13.42 12.46
1/17/2021 7:45:00 AM 4.8 40.64 0.421 7.89 13.61 12.46
1/17/2021 8:00:00 AM 4.79 40.622 0.421 7.89 13.61 12.47
1/17/2021 8:15:00 AM 4.78 40.604 0.422 7.89 12.9 12.49
1/17/2021 8:30:00 AM 4.78 40.604 0.422 7.89 12.99 12.49
1/17/2021 8:45:00 AM 4.77 40.586 0.423 7.89 12.45 12.52
1/17/2021 9:00:00 AM 4.78 40.604 0.422 7.89 12.76 12.53
1/17/2021 9:15:00 AM 4.77 40.586 0.422 7.89 12.41 12.53
1/17/2021 9:30:00 AM 4.77 40.586 0.421 7.89 11.96 12.55
1/17/2021 9:45:00 AM 4.78 40.604 0.421 7.89 12.16 12.57
1/17/2021 10:00:00 AM 4.79 40.622 0.42 7.9 11.74 12.6
1/17/2021 10:15:00 AM 4.8 40.64 0.419 7.9 11.53 12.59
1/17/2021 10:30:00 AM 4.82 40.676 0.419 7.9 11.48 12.61
1/17/2021 10:45:00 AM 4.84 40.712 0.419 7.9 10.68 12.62
1/17/2021 11:00:00 AM 4.84 40.712 0.419 7.9 10.88 12.61
1/17/2021 11:15:00 AM 4.92 40.856 0.42 7.91 10.7 12.64
1/17/2021 11:30:00 AM 4.95 40.91 0.42 7.91 10.75 12.63
1/17/2021 11:45:00 AM 4.96 40.928 0.421 7.91 10.98 12.63
1/17/2021 12:00:00 PM 4.97 40.946 0.422 7.91 10.65 12.62
1/17/2021 12:15:00 PM 4.99 40.982 0.422 7.92 10.46 12.63
1/17/2021 12:30:00 PM 5.03 41.054 0.422 7.92 10.32 12.65
1/17/2021 12:45:00 PM 5.06 41.108 0.422 7.92 10.4 12.64
1/17/2021 1:00:00 PM 5.14 41.252 0.422 7.93 9.91 12.66
1/17/2021 1:15:00 PM 5.2 41.36 0.423 7.93 9.7 12.65
1/17/2021 1:30:00 PM 5.21 41.378 0.422 7.93 9.94 12.63
1/17/2021 1:45:00 PM 5.24 41.432 0.422 7.94 9.86 12.65
1/17/2021 2:00:00 PM 5.3 41.54 0.422 7.94 9.6 12.66
1/17/2021 2:15:00 PM 5.32 41.576 0.422 7.95 9.63 12.66
1/17/2021 2:30:00 PM 5.36 41.648 0.422 7.95 9.62 12.66
1/17/2021 2:45:00 PM 5.39 41.702 0.422 7.95 9.59 12.68
1/17/2021 3:00:00 PM 5.42 41.756 0.422 7.95 9.69 12.68
1/17/2021 3:15:00 PM 5.46 41.828 0.423 7.95 9.34 12.66
1/17/2021 3:30:00 PM 5.49 41.882 0.423 7.96 9.15 12.66
1/17/2021 3:45:00 PM 5.51 41.918 0.423 7.96 9.17 12.65
1/17/2021 4:00:00 PM 5.54 41.972 0.423 7.96 9.04 12.65
1/17/2021 4:15:00 PM 5.56 42.008 0.423 7.97 9.05 12.64
1/17/2021 4:30:00 PM 5.59 42.062 0.424 7.97 9.01 12.62
1/17/2021 4:45:00 PM 5.62 42.116 0.424 7.97 8.72 12.62
1/17/2021 5:00:00 PM 5.65 42.17 0.424 7.97 8.54 12.62
1/17/2021 5:15:00 PM 5.67 42.206 0.424 7.97 8.67 12.62
1/17/2021 5:30:00 PM 5.69 42.242 0.424 7.97 8.69 12.61
1/17/2021 5:45:00 PM 5.7 42.26 0.424 7.98 8.74 12.6
1/17/2021 6:00:00 PM 5.72 42.296 0.425 7.98 8.61 12.6
1/17/2021 6:15:00 PM 5.73 42.314 0.425 7.98 8.65 12.6
1/17/2021 6:30:00 PM 5.74 42.332 0.425 7.98 8.38 12.6
1/17/2021 6:45:00 PM 5.76 42.368 0.426 7.98 8.54 12.59
1/17/2021 7:00:00 PM 5.76 42.368 0.426 7.98 8.63 12.58
1/17/2021 7:15:00 PM 5.76 42.368 0.426 7.98 8.55 12.58
1/17/2021 7:30:00 PM 5.77 42.386 0.426 7.98 8.36 12.56
1/17/2021 7:45:00 PM 5.77 42.386 0.426 7.98 8.55 12.56
1/17/2021 8:00:00 PM 5.77 42.386 0.427 7.98 8.48 12.56
1/17/2021 8:15:00 PM 5.77 42.386 0.427 7.98 8.32 12.54
1/17/2021 8:30:00 PM 5.77 42.386 0.427 7.98 8.39 12.52
1/17/2021 8:45:00 PM 5.77 42.386 0.427 7.98 8.11 12.52
1/17/2021 9:00:00 PM 5.76 42.368 0.428 7.98 8.09 12.5
1/17/2021 9:15:00 PM 5.75 42.35 0.428 7.97 8.24 12.49
1/17/2021 9:30:00 PM 5.74 42.332 0.429 7.97 8.53 12.48
1/17/2021 9:45:00 PM 5.73 42.314 0.429 7.97 8.3 12.46
1/17/2021 10:00:00 PM 5.72 42.296 0.429 7.97 8.21 12.45
1/17/2021 10:15:00 PM 5.72 42.296 0.43 7.96 8.13 12.44
1/17/2021 10:30:00 PM 5.71 42.278 0.43 7.96 8.12 12.43
1/17/2021 10:45:00 PM 5.7 42.26 0.43 7.96 8.13 12.42
1/17/2021 11:00:00 PM 5.69 42.242 0.429 7.95 8.22 12.41
1/17/2021 11:15:00 PM 5.68 42.224 0.429 7.95 8.02 12.4
1/17/2021 11:30:00 PM 5.67 42.206 0.429 7.95 8.09 12.39
1/17/2021 11:45:00 PM 5.66 42.188 0.429 7.94 7.92 12.38
1/18/2021 12:00:00 AM 5.64 42.152 0.429 7.94 8.05 12.37
1/18/2021 12:15:00 AM 5.63 42.134 0.429 7.94 8.18 12.37
1/18/2021 12:30:00 AM 5.62 42.116 0.429 7.94 7.9 12.36
1/18/2021 12:45:00 AM 5.61 42.098 0.43 7.94 8.1 12.35
1/18/2021 1:00:00 AM 5.6 42.08 0.43 7.94 7.9 12.35
1/18/2021 1:15:00 AM 5.59 42.062 0.43 7.93 8.18 12.35
1/18/2021 1:30:00 AM 5.59 42.062 0.431 7.93 7.97 12.34
1/18/2021 1:45:00 AM 5.58 42.044 0.431 7.93 7.88 12.34
1/18/2021 2:00:00 AM 5.57 42.026 0.432 7.93 7.99 12.34
1/18/2021 2:15:00 AM 5.56 42.008 0.433 7.93 8.13 12.34
1/18/2021 2:30:00 AM 5.55 41.99 0.433 7.93 7.92 12.34
1/18/2021 2:45:00 AM 5.55 41.99 0.434 7.93 8.02 12.33
1/18/2021 3:00:00 AM 5.54 41.972 0.434 7.93 8 12.33
1/18/2021 3:15:00 AM 5.53 41.954 0.435 7.93 7.98 12.33
1/18/2021 3:30:00 AM 5.51 41.918 0.435 7.93 7.97 12.34
1/18/2021 3:45:00 AM 5.5 41.9 0.436 7.93 8.1 12.34
1/18/2021 4:00:00 AM 5.49 41.882 0.436 7.93 8.07 12.34
1/18/2021 4:15:00 AM 5.47 41.846 0.436 7.93 8.02 12.35
1/18/2021 4:30:00 AM 5.46 41.828 0.436 7.93 7.63 12.34
1/18/2021 4:45:00 AM 5.44 41.792 0.437 7.93 7.67 12.35
1/18/2021 5:00:00 AM 5.42 41.756 0.437 7.93 7.7 12.34
1/18/2021 5:15:00 AM 5.4 41.72 0.437 7.93 7.58 12.35
1/18/2021 5:30:00 AM 5.39 41.702 0.438 7.93 7.59 12.35
1/18/2021 5:45:00 AM 5.39 41.702 0.439 7.93 7.71 12.36
1/18/2021 6:00:00 AM 5.38 41.684 0.44 7.93 7.51 12.35
1/18/2021 6:15:00 AM 5.37 41.666 0.441 7.93 7.48 12.35
1/18/2021 6:30:00 AM 5.36 41.648 0.443 7.93 7.34 12.36
1/18/2021 6:45:00 AM 5.35 41.63 0.444 7.93 7.26 12.36
1/18/2021 7:00:00 AM 5.35 41.63 0.445 7.93 7.25 12.36
1/18/2021 7:15:00 AM 5.33 41.594 0.447 7.93 7.5 12.36
1/18/2021 7:30:00 AM 5.32 41.576 0.448 7.93 7.43 12.36
1/18/2021 7:45:00 AM 5.32 41.576 0.449 7.93 7.15 12.38
1/18/2021 8:00:00 AM 5.32 41.576 0.45 7.93 7.26 12.39
1/18/2021 8:15:00 AM 5.31 41.558 0.451 7.93 7.18 12.42
1/18/2021 8:30:00 AM 5.32 41.576 0.452 7.94 7.32 12.44
1/18/2021 8:45:00 AM 5.32 41.576 0.453 7.94 7.35 12.45
1/18/2021 9:00:00 AM 5.31 41.558 0.453 7.94 7.22 12.46
1/18/2021 9:15:00 AM 5.32 41.576 0.454 7.94 7.33 12.5
1/18/2021 9:30:00 AM 5.32 41.576 0.455 7.94 7.03 12.51
1/18/2021 9:45:00 AM 5.3 41.54 0.455 7.95 7.11 12.5
1/18/2021 10:00:00 AM 5.33 41.594 0.456 7.95 6.88 12.54
1/18/2021 10:15:00 AM 5.35 41.63 0.456 7.95 6.96 12.56
1/18/2021 10:30:00 AM 5.33 41.594 0.457 7.95 6.84 12.53
1/18/2021 10:45:00 AM 5.31 41.558 0.457 7.96 6.83 12.54
1/18/2021 11:00:00 AM 5.33 41.594 0.458 7.96 6.88 12.58
1/18/2021 11:15:00 AM 5.34 41.612 0.458 7.96 6.6 12.59
1/18/2021 11:30:00 AM 5.36 41.648 0.458 7.97 6.59 12.6
1/18/2021 11:45:00 AM 5.39 41.702 0.458 7.97 6.6 12.6
1/18/2021 12:00:00 PM 5.44 41.792 0.458 7.97 6.66 12.61
1/18/2021 12:15:00 PM 5.45 41.81 0.458 7.97 6.55 12.6
1/18/2021 12:30:00 PM 5.48 41.864 0.459 7.98 6.55 12.61
1/18/2021 12:45:00 PM 5.51 41.918 0.459 7.98 6.62 12.61
1/18/2021 1:00:00 PM 5.55 41.99 0.458 7.98 6.71 12.63
1/18/2021 1:15:00 PM 5.59 42.062 0.459 7.99 6.53 12.64
1/18/2021 1:30:00 PM 5.6 42.08 0.459 7.99 6.31 12.6
1/18/2021 1:45:00 PM 5.63 42.134 0.459 7.99 6.39 12.63
1/18/2021 2:00:00 PM 5.65 42.17 0.459 7.99 6.65 12.65
1/18/2021 2:15:00 PM 5.66 42.188 0.459 8 6.44 12.64
1/18/2021 2:30:00 PM 5.68 42.224 0.459 8 6.49 12.64
1/18/2021 2:45:00 PM 5.7 42.26 0.459 8 6.38 12.64
1/18/2021 3:00:00 PM 5.72 42.296 0.46 8.01 6.45 12.64
1/18/2021 3:15:00 PM 5.74 42.332 0.46 8.01 6.45 12.68
1/18/2021 3:30:00 PM 5.75 42.35 0.46 8.02 6.37 12.65
1/18/2021 3:45:00 PM 5.76 42.368 0.46 8.02 6.37 12.66
1/18/2021 4:00:00 PM 5.78 42.404 0.46 8.02 6.3 12.67
1/18/2021 4:15:00 PM 5.8 42.44 0.46 8.02 6.4 12.66
1/18/2021 4:30:00 PM 5.81 42.458 0.46 8.03 6.46 12.66
1/18/2021 4:45:00 PM 5.83 42.494 0.46 8.03 6.26 12.67
1/18/2021 5:00:00 PM 5.84 42.512 0.459 8.03 6.44 12.66
1/18/2021 5:15:00 PM 5.84 42.512 0.459 8.03 6.33 12.66
1/18/2021 5:30:00 PM 5.84 42.512 0.458 8.03 6.44 12.66
1/18/2021 5:45:00 PM 5.85 42.53 0.458 8.03 6.36 12.66
1/18/2021 6:00:00 PM 5.85 42.53 0.458 8.03 6.32 12.67
1/18/2021 6:15:00 PM 5.86 42.548 0.459 8.04 6.37 12.66
1/18/2021 6:30:00 PM 5.86 42.548 0.459 8.04 6.47 12.65
1/18/2021 6:45:00 PM 5.85 42.53 0.459 8.04 6.49 12.66
1/18/2021 7:00:00 PM 5.84 42.512 0.459 8.04 6.33 12.65
1/18/2021 7:15:00 PM 5.82 42.476 0.46 8.04 6.57 12.65
1/18/2021 7:30:00 PM 5.81 42.458 0.46 8.04 6.37 12.65
1/18/2021 7:45:00 PM 5.79 42.422 0.461 8.04 6.37 12.64
1/18/2021 8:00:00 PM 5.77 42.386 0.461 8.04 6.38 12.64
1/18/2021 8:15:00 PM 5.75 42.35 0.461 8.03 6.55 12.63
1/18/2021 8:30:00 PM 5.73 42.314 0.461 8.03 6.57 12.63
1/18/2021 8:45:00 PM 5.7 42.26 0.461 8.03 6.65 12.62
1/18/2021 9:00:00 PM 5.69 42.242 0.461 8.03 6.57 12.62
1/18/2021 9:15:00 PM 5.67 42.206 0.461 8.03 6.51 12.61
1/18/2021 9:30:00 PM 5.65 42.17 0.461 8.03 6.67 12.6
1/18/2021 9:45:00 PM 5.63 42.134 0.461 8.02 6.66 12.59
1/18/2021 10:00:00 PM 5.6 42.08 0.46 8.02 6.62 12.59
1/18/2021 10:15:00 PM 5.58 42.044 0.46 8.01 6.68 12.59
1/18/2021 10:30:00 PM 5.54 41.972 0.459 8.01 6.66 12.58
1/18/2021 10:45:00 PM 5.51 41.918 0.459 8.01 6.72 12.59
1/18/2021 11:00:00 PM 5.48 41.864 0.459 8.01 6.89 12.58
1/18/2021 11:15:00 PM 5.45 41.81 0.459 8 6.66 12.58
1/18/2021 11:30:00 PM 5.41 41.738 0.459 8 6.77 12.57
1/18/2021 11:45:00 PM 5.37 41.666 0.459 8 6.75 12.58
1/19/2021 12:00:00 AM 5.34 41.612 0.459 7.99 6.7 12.57
1/19/2021 12:15:00 AM 5.3 41.54 0.459 7.99 6.85 12.58
1/19/2021 12:30:00 AM 5.27 41.486 0.459 7.99 6.65 12.58
1/19/2021 12:45:00 AM 5.24 41.432 0.459 7.99 6.79 12.58
1/19/2021 1:00:00 AM 5.2 41.36 0.459 7.98 6.67 12.58
1/19/2021 1:15:00 AM 5.17 41.306 0.459 7.98 6.7 12.58
1/19/2021 1:30:00 AM 5.13 41.234 0.458 7.98 6.79 12.59
1/19/2021 1:45:00 AM 5.1 41.18 0.458 7.98 6.8 12.59
1/19/2021 2:00:00 AM 5.06 41.108 0.458 7.98 6.84 12.6
1/19/2021 2:15:00 AM 5.04 41.072 0.458 7.98 6.82 12.6
1/19/2021 2:30:00 AM 5.01 41.018 0.458 7.98 7 12.61
1/19/2021 2:45:00 AM 4.98 40.964 0.458 7.98 6.94 12.62
1/19/2021 3:00:00 AM 4.95 40.91 0.458 7.98 6.98 12.63
1/19/2021 3:15:00 AM 4.92 40.856 0.458 7.97 6.9 12.63
1/19/2021 3:30:00 AM 4.9 40.82 0.458 7.97 6.99 12.64
1/19/2021 3:45:00 AM 4.88 40.784 0.458 7.97 6.87 12.65
1/19/2021 4:00:00 AM 4.87 40.766 0.458 7.97 6.91 12.65
1/19/2021 4:15:00 AM 4.86 40.748 0.458 7.97 7.11 12.65
1/19/2021 4:30:00 AM 4.83 40.694 0.458 7.97 7.07 12.66
1/19/2021 4:45:00 AM 4.81 40.658 0.449 7.97 7.34 12.67
1/19/2021 5:00:00 AM 4.8 40.64 0.459 7.97 7.06 12.67
1/19/2021 5:15:00 AM 4.78 40.604 0.459 7.97 6.97 12.68
1/19/2021 5:30:00 AM 4.76 40.568 0.459 7.97 6.44 12.68
1/19/2021 5:45:00 AM 4.75 40.55 0.459 7.97 6.36 12.69
1/19/2021 6:00:00 AM 4.72 40.496 0.46 7.96 11.15 12.69
1/19/2021 6:15:00 AM 4.69 40.442 0.46 7.97 8.52 12.7
1/19/2021 6:30:00 AM 4.68 40.424 0.457 7.96 6.51 12.71
1/19/2021 6:45:00 AM 4.66 40.388 0.46 7.96 47.6 12.71
1/19/2021 7:00:00 AM 4.63 40.334 0.46 7.96 5.01 12.72
1/19/2021 7:15:00 AM 4.61 40.298 0.46 7.96 4.58 12.72
1/19/2021 7:30:00 AM 4.59 40.262 0.461 7.96 4.63 12.74
1/19/2021 7:45:00 AM 4.57 40.226 0.461 7.96 4.71 12.75
1/19/2021 8:00:00 AM 4.56 40.208 0.462 7.97 4.63 12.77
1/19/2021 8:15:00 AM 4.56 40.208 0.463 7.97 4.64 12.79
1/19/2021 8:30:00 AM 4.56 40.208 0.465 7.97 4.71 12.81
1/19/2021 8:45:00 AM 4.56 40.208 0.466 7.97 4.64 12.82
1/19/2021 9:00:00 AM 4.57 40.226 0.467 7.97 4.56 12.85
1/19/2021 9:15:00 AM 4.59 40.262 0.467 7.98 4.67 12.88
1/19/2021 9:30:00 AM 4.61 40.298 0.468 7.98 4.47 12.89
1/19/2021 9:45:00 AM 4.61 40.298 0.469 7.98 4.38 12.9
1/19/2021 10:00:00 AM 4.62 40.316 0.47 7.98 4.32 12.9
1/19/2021 10:15:00 AM 4.63 40.334 0.47 7.98 4.35 12.9
1/19/2021 10:30:00 AM 4.66 40.388 0.471 7.99 4.25 12.94
1/19/2021 10:45:00 AM 4.68 40.424 0.472 7.99 4.28 12.94
1/19/2021 11:00:00 AM 4.71 40.478 0.473 7.99 4.31 12.95
1/19/2021 11:15:00 AM 4.71 40.478 0.473 7.99 4.17 12.92
1/19/2021 11:30:00 AM 4.72 40.496 0.474 7.99 4.05 12.95
1/19/2021 11:45:00 AM 4.73 40.514 0.475 7.99 4.18 12.95
1/19/2021 12:00:00 PM 4.75 40.55 0.476 7.99 4.05 12.96
1/19/2021 12:15:00 PM 4.75 40.55 0.477 7.99 4.11 12.94
1/19/2021 12:30:00 PM 4.8 40.64 0.477 8 3.99 12.97
1/19/2021 12:45:00 PM 4.88 40.784 0.478 8 4.03 13
1/19/2021 1:00:00 PM 4.9 40.82 0.478 8 4.01 12.97
1/19/2021 1:15:00 PM 4.88 40.784 0.478 8 3.99 12.95
1/19/2021 1:30:00 PM 4.94 40.892 0.478 8.01 4 12.98
1/19/2021 1:45:00 PM 4.96 40.928 0.478 8.01 3.95 12.96
1/19/2021 2:00:00 PM 4.99 40.982 0.478 8.01 3.95 12.99
1/19/2021 2:15:00 PM 5.04 41.072 0.478 8.01 4.18 12.99
1/19/2021 2:30:00 PM 5.06 41.108 0.478 8.01 4.21 12.97
1/19/2021 2:45:00 PM 5.1 41.18 0.478 8.02 4.05 12.99
1/19/2021 3:00:00 PM 5.13 41.234 0.477 8.02 4.08 13
1/19/2021 3:15:00 PM 5.17 41.306 0.477 8.02 3.87 13
1/19/2021 3:30:00 PM 5.2 41.36 0.477 8.03 3.9 13
1/19/2021 3:45:00 PM 5.23 41.414 0.476 8.03 3.98 12.99
1/19/2021 4:00:00 PM 5.25 41.45 0.476 8.03 4.08 12.98
1/19/2021 4:15:00 PM 5.27 41.486 0.476 8.03 4.01 12.99
1/19/2021 4:30:00 PM 5.29 41.522 0.476 8.04 3.99 12.98
1/19/2021 4:45:00 PM 5.3 41.54 0.475 8.04 3.92 12.97
1/19/2021 5:00:00 PM 5.31 41.558 0.475 8.04 3.81 12.96
1/19/2021 5:15:00 PM 5.31 41.558 0.475 8.04 3.82 12.96
1/19/2021 5:30:00 PM 5.31 41.558 0.475 8.04 3.91 12.96
1/19/2021 5:45:00 PM 5.3 41.54 0.475 8.04 4.06 12.96
1/19/2021 6:00:00 PM 5.3 41.54 0.475 8.04 3.93 12.97
1/19/2021 6:15:00 PM 5.3 41.54 0.475 8.04 4 12.95
1/19/2021 6:30:00 PM 5.31 41.558 0.474 8.05 4.06 12.96
1/19/2021 6:45:00 PM 5.31 41.558 0.474 8.05 4.09 12.96
1/19/2021 7:00:00 PM 5.32 41.576 0.474 8.05 4.03 12.95
1/19/2021 7:15:00 PM 5.32 41.576 0.473 8.05 4.09 12.94
1/19/2021 7:30:00 PM 5.32 41.576 0.473 8.05 4.16 12.93
1/19/2021 7:45:00 PM 5.32 41.576 0.473 8.05 4.24 12.92
1/19/2021 8:00:00 PM 5.32 41.576 0.473 8.05 4.18 12.91
1/19/2021 8:15:00 PM 5.32 41.576 0.472 8.04 4.1 12.91
1/19/2021 8:30:00 PM 5.31 41.558 0.472 8.04 4.37 12.9
1/19/2021 8:45:00 PM 5.31 41.558 0.472 8.04 4.27 12.89
1/19/2021 9:00:00 PM 5.3 41.54 0.472 8.04 4.23 12.87
1/19/2021 9:15:00 PM 5.28 41.504 0.472 8.04 6.09 12.87
1/19/2021 9:30:00 PM 5.27 41.486 0.472 8.04 4.45 12.85
1/19/2021 9:45:00 PM 5.26 41.468 0.471 8.03 4.27 12.84
1/19/2021 10:00:00 PM 5.24 41.432 0.471 8.03 4.63 12.83
1/19/2021 10:15:00 PM 5.21 41.378 0.471 8.03 4.69 12.81
1/19/2021 10:30:00 PM 5.2 41.36 0.471 8.03 4.39 12.81
1/19/2021 10:45:00 PM 5.18 41.324 0.471 8.02 4.56 12.8
1/19/2021 11:00:00 PM 5.16 41.288 0.471 8.02 4.52 12.78
1/19/2021 11:15:00 PM 5.15 41.27 0.471 8.02 6.47 12.77
1/19/2021 11:30:00 PM 5.13 41.234 0.47 8.02 5.41 12.76
1/19/2021 11:45:00 PM 5.11 41.198 0.47 8.01 4.45 12.74
1/20/2021 12:00:00 AM 5.09 41.162 0.47 8.01 4.38 12.74
1/20/2021 12:15:00 AM 5.06 41.108 0.47 8 4.38 12.72
1/20/2021 12:30:00 AM 5.03 41.054 0.47 8 4.32 12.72
1/20/2021 12:45:00 AM 5.01 41.018 0.47 8 4.3 12.71
1/20/2021 1:00:00 AM 4.99 40.982 0.469 7.99 4.48 12.7
1/20/2021 1:15:00 AM 4.96 40.928 0.469 7.99 4.61 12.69
1/20/2021 1:30:00 AM 4.93 40.874 0.469 7.99 4.78 12.7
1/20/2021 1:45:00 AM 4.9 40.82 0.468 7.98 4.92 12.7
1/20/2021 2:00:00 AM 4.87 40.766 0.468 7.98 6.62 12.69
1/20/2021 2:15:00 AM 4.84 40.712 0.468 7.98 4.68 12.7
1/20/2021 2:30:00 AM 4.82 40.676 0.467 7.98 4.71 12.71
1/20/2021 2:45:00 AM 4.8 40.64 0.467 7.98 4.86 12.7
1/20/2021 3:00:00 AM 4.77 40.586 0.466 7.98 4.79 12.7
1/20/2021 3:15:00 AM 4.75 40.55 0.466 7.98 5.06 12.7
1/20/2021 3:30:00 AM 4.72 40.496 0.465 7.97 4.92 12.7
1/20/2021 3:45:00 AM 4.7 40.46 0.465 7.98 5.16 12.7
1/20/2021 4:00:00 AM 4.68 40.424 0.465 7.97 5.1 12.7
1/20/2021 4:15:00 AM 4.66 40.388 0.465 7.97 5.02 12.7
1/20/2021 4:30:00 AM 4.64 40.352 0.465 7.97 5.01 12.71
1/20/2021 4:45:00 AM 4.63 40.334 0.465 7.97 4.94 12.7
1/20/2021 5:00:00 AM 4.61 40.298 0.466 7.97 5.06 12.71
1/20/2021 5:15:00 AM 4.6 40.28 0.466 7.97 4.92 12.7
1/20/2021 5:30:00 AM 4.58 40.244 0.466 7.97 5.02 12.71
1/20/2021 5:45:00 AM 4.56 40.208 0.467 7.97 4.95 12.7
1/20/2021 6:00:00 AM 4.55 40.19 0.467 7.97 4.94 12.72
1/20/2021 6:15:00 AM 4.54 40.172 0.468 7.97 4.79 12.71
1/20/2021 6:30:00 AM 4.52 40.136 0.468 7.97 5.03 12.72
1/20/2021 6:45:00 AM 4.5 40.1 0.468 7.97 4.81 12.72
1/20/2021 7:00:00 AM 4.48 40.064 0.468 7.97 4.84 12.73
1/20/2021 7:15:00 AM 4.46 40.028 0.468 7.97 4.77 12.73
1/20/2021 7:30:00 AM 4.46 40.028 0.468 7.97 4.81 12.74
1/20/2021 7:45:00 AM 4.45 40.01 0.468 7.97 4.95 12.75
1/20/2021 8:00:00 AM 4.44 39.992 0.468 7.97 5.06 12.77
1/20/2021 8:15:00 AM 4.43 39.974 0.469 7.97 5.26 12.78
1/20/2021 8:30:00 AM 4.43 39.974 0.469 7.98 5.06 12.8
1/20/2021 8:45:00 AM 4.43 39.974 0.469 7.98 5.09 12.82
1/20/2021 9:00:00 AM 4.43 39.974 0.47 7.98 5.06 12.84
1/20/2021 9:15:00 AM 4.45 40.01 0.471 7.98 4.94 12.87
1/20/2021 9:30:00 AM 4.47 40.046 0.472 7.98 5.06 12.89
1/20/2021 9:45:00 AM 4.5 40.1 0.473 7.99 4.9 12.91
1/20/2021 10:00:00 AM 4.5 40.1 0.474 7.99 4.75 12.9
1/20/2021 10:15:00 AM 4.54 40.172 0.475 8 4.73 12.94
1/20/2021 10:30:00 AM 4.53 40.154 0.477 8 4.6 12.93
1/20/2021 10:45:00 AM 4.54 40.172 0.478 8 4.65 12.92
1/20/2021 11:00:00 AM 4.57 40.226 0.479 8 5.03 12.94
1/20/2021 11:15:00 AM 4.6 40.28 0.48 8.01 4.49 12.95
1/20/2021 11:30:00 AM 4.61 40.298 0.481 8.01 4.17 12.96
1/20/2021 11:45:00 AM 4.64 40.352 0.481 8.01 4.08 12.96
1/20/2021 12:00:00 PM 4.68 40.424 0.482 8.01 4.18 12.97
1/20/2021 12:15:00 PM 4.73 40.514 0.483 8.01 4.08 12.97
1/20/2021 12:30:00 PM 4.75 40.55 0.483 8.02 4.13 12.97
1/20/2021 12:45:00 PM 4.75 40.55 0.484 8.02 4.09 12.95
1/20/2021 1:00:00 PM 4.75 40.55 0.484 8.02 3.99 12.96
1/20/2021 1:15:00 PM 4.78 40.604 0.484 8.03 3.93 12.98
1/20/2021 1:30:00 PM 4.79 40.622 0.484 8.03 4.03 12.99
1/20/2021 1:45:00 PM 4.82 40.676 0.484 8.03 4.02 13.01
1/20/2021 2:00:00 PM 4.84 40.712 0.485 8.04 4.12 13.01
1/20/2021 2:15:00 PM 4.86 40.748 0.485 8.04 4.09 13.01
1/20/2021 2:30:00 PM 4.87 40.766 0.485 8.04 4.01 13.02
1/20/2021 2:45:00 PM 4.89 40.802 0.484 8.05 3.98 13.03
1/20/2021 3:00:00 PM 4.91 40.838 0.484 8.05 3.93 13.02
1/20/2021 3:15:00 PM 4.94 40.892 0.484 8.05 3.86 13.03
1/20/2021 3:30:00 PM 4.95 40.91 0.484 8.06 3.84 13.03
1/20/2021 3:45:00 PM 4.96 40.928 0.484 8.06 3.97 13.04
1/20/2021 4:00:00 PM 4.95 40.91 0.484 8.06 3.96 13.04
1/20/2021 4:15:00 PM 4.95 40.91 0.484 8.07 3.71 13.03
1/20/2021 4:30:00 PM 4.93 40.874 0.484 8.07 3.7 13.05
1/20/2021 4:45:00 PM 4.93 40.874 0.484 8.07 3.83 13.05
1/20/2021 5:00:00 PM 4.91 40.838 0.484 8.07 3.78 13.05
1/20/2021 5:15:00 PM 4.89 40.802 0.484 8.07 3.78 13.05
1/20/2021 5:30:00 PM 4.88 40.784 0.484 8.08 3.69 13.06
1/20/2021 5:45:00 PM 4.86 40.748 0.484 8.08 3.89 13.07
1/20/2021 6:00:00 PM 4.84 40.712 0.484 8.08 3.77 13.07
1/20/2021 6:15:00 PM 4.83 40.694 0.484 8.08 3.76 13.07
1/20/2021 6:30:00 PM 4.82 40.676 0.484 8.08 3.99 13.07
1/20/2021 6:45:00 PM 4.82 40.676 0.484 8.09 3.88 13.08
1/20/2021 7:00:00 PM 4.82 40.676 0.483 8.09 4.03 13.08
1/20/2021 7:15:00 PM 4.79 40.622 0.483 8.09 4.02 13.08
1/20/2021 7:30:00 PM 4.79 40.622 0.483 8.09 3.97 13.08
1/20/2021 7:45:00 PM 4.78 40.604 0.482 8.09 4.32 13.08
1/20/2021 8:00:00 PM 4.77 40.586 0.482 8.09 4.46 13.07
1/20/2021 8:15:00 PM 4.75 40.55 0.482 8.09 4.29 13.07
1/20/2021 8:30:00 PM 4.73 40.514 0.481 8.09 4.14 13.07
1/20/2021 8:45:00 PM 4.7 40.46 0.481 8.09 4.25 13.06
1/20/2021 9:00:00 PM 4.67 40.406 0.481 8.09 4.22 13.07
1/20/2021 9:15:00 PM 4.64 40.352 0.481 8.08 4.23 13.07
1/20/2021 9:30:00 PM 4.6 40.28 0.482 8.08 4.16 13.07
1/20/2021 9:45:00 PM 4.56 40.208 0.482 8.08 4.28 13.07
1/20/2021 10:00:00 PM 4.52 40.136 0.482 8.08 4.23 13.06
1/20/2021 10:15:00 PM 4.48 40.064 0.483 8.08 4.39 13.06
1/20/2021 10:30:00 PM 4.43 39.974 0.483 8.07 4.31 13.06
1/20/2021 10:45:00 PM 4.39 39.902 0.483 8.07 4.25 13.06
1/20/2021 11:00:00 PM 4.35 39.83 0.484 8.07 4.27 13.06
1/20/2021 11:15:00 PM 4.31 39.758 0.484 8.06 4.29 13.05
1/20/2021 11:30:00 PM 4.27 39.686 0.484 8.06 4.35 13.05
1/20/2021 11:45:00 PM 4.24 39.632 0.484 8.05 4.29 13.05
1/21/2021 12:00:00 AM 4.2 39.56 0.484 8.05 4.28 13.04
1/21/2021 12:15:00 AM 4.16 39.488 0.484 8.05 4.46 13.04
1/21/2021 12:30:00 AM 4.12 39.416 0.484 8.04 4.83 13.04
1/21/2021 12:45:00 AM 4.08 39.344 0.483 8.04 4.44 13.03
1/21/2021 1:00:00 AM 4.04 39.272 0.483 8.04 4.62 13.03
1/21/2021 1:15:00 AM 4.01 39.218 0.482 8.03 4.83 13.03
1/21/2021 1:30:00 AM 3.96 39.128 0.482 8.03 4.54 13.02
1/21/2021 1:45:00 AM 3.93 39.074 0.482 8.03 4.45 13.03
1/21/2021 2:00:00 AM 3.89 39.002 0.481 8.02 4.45 13.03
1/21/2021 2:15:00 AM 3.85 38.93 0.481 8.02 4.33 13.03
1/21/2021 2:30:00 AM 3.81 38.858 0.481 8.02 4.36 13.02
1/21/2021 2:45:00 AM 3.77 38.786 0.48 8.02 4.31 13.03
1/21/2021 3:00:00 AM 3.74 38.732 0.48 8.02 4.36 13.03
1/21/2021 3:15:00 AM 3.7 38.66 0.479 8.01 4.44 13.03
1/21/2021 3:30:00 AM 3.66 38.588 0.479 8.01 4.49 13.04
1/21/2021 3:45:00 AM 3.62 38.516 0.478 8.01 4.52 13.05
1/21/2021 4:00:00 AM 3.58 38.444 0.478 8.01 4.39 13.06
1/21/2021 4:15:00 AM 3.55 38.39 0.477 8.01 4.4 13.07
1/21/2021 4:30:00 AM 3.5 38.3 0.477 8.01 4.47 13.07
1/21/2021 4:45:00 AM 3.45 38.21 0.476 8 4.36 13.08
1/21/2021 5:00:00 AM 3.4 38.12 0.476 8 4.34 13.11
1/21/2021 5:15:00 AM 3.36 38.048 0.476 8 4.37 13.11
1/21/2021 5:30:00 AM 3.33 37.994 0.475 8 4.5 13.12
1/21/2021 5:45:00 AM 3.3 37.94 0.475 8 4.49 13.12
1/21/2021 6:00:00 AM 3.28 37.904 0.475 8 4.53 13.13
1/21/2021 6:15:00 AM 3.24 37.832 0.475 8 4.52 13.14
1/21/2021 6:30:00 AM 3.22 37.796 0.475 8 4.4 13.14
1/21/2021 6:45:00 AM 3.19 37.742 0.475 8 4.43 13.15
1/21/2021 7:00:00 AM 3.16 37.688 0.475 8 4.26 13.16
1/21/2021 7:15:00 AM 3.13 37.634 0.475 8 4.36 13.16
1/21/2021 7:30:00 AM 3.11 37.598 0.475 8 4.33 13.17
1/21/2021 7:45:00 AM 3.07 37.526 0.475 8 4.26 13.19
1/21/2021 8:00:00 AM 3.05 37.49 0.474 8 4.26 13.22
1/21/2021 8:15:00 AM 3.03 37.454 0.474 8 4.17 13.24
1/21/2021 8:30:00 AM 3.02 37.436 0.474 8 4.19 13.27
1/21/2021 8:45:00 AM 3 37.4 0.474 8.01 4.1 13.31
1/21/2021 9:00:00 AM 2.99 37.382 0.474 8.01 3.94 13.34
1/21/2021 9:15:00 AM 2.99 37.382 0.474 8.01 3.97 13.35
1/21/2021 9:30:00 AM 2.99 37.382 0.474 8.01 3.86 13.38
1/21/2021 9:45:00 AM 3 37.4 0.474 8.01 3.83 13.39
1/21/2021 10:00:00 AM 3.01 37.418 0.475 8.01 3.8 13.4
1/21/2021 10:15:00 AM 3.02 37.436 0.475 8.01 3.76 13.41
1/21/2021 10:30:00 AM 3.04 37.472 0.476 8.02 3.66 13.42
1/21/2021 10:45:00 AM 3.06 37.508 0.477 8.02 3.68 13.42
1/21/2021 11:00:00 AM 3.07 37.526 0.478 8.02 3.66 13.42
1/21/2021 11:15:00 AM 3.1 37.58 0.478 8.02 3.57 13.43
1/21/2021 11:30:00 AM 3.13 37.634 0.479 8.02 3.61 13.43
1/21/2021 11:45:00 AM 3.16 37.688 0.48 8.02 3.69 13.43
1/21/2021 12:00:00 PM 3.2 37.76 0.481 8.02 3.7 13.42
1/21/2021 12:15:00 PM 3.23 37.814 0.481 8.02 3.62 13.41
1/21/2021 12:30:00 PM 3.28 37.904 0.482 8.02 3.59 13.42
1/21/2021 12:45:00 PM 3.32 37.976 0.483 8.02 3.67 13.41
1/21/2021 1:00:00 PM 3.38 38.084 0.483 8.02 3.57 13.4
1/21/2021 1:15:00 PM 3.43 38.174 0.484 8.03 3.56 13.39
1/21/2021 1:30:00 PM 3.49 38.282 0.485 8.03 3.56 13.39
1/21/2021 1:45:00 PM 3.54 38.372 0.486 8.03 3.57 13.38
1/21/2021 2:00:00 PM 3.61 38.498 0.486 8.03 3.55 13.37
1/21/2021 2:15:00 PM 3.67 38.606 0.487 8.04 3.51 13.35
1/21/2021 2:30:00 PM 3.74 38.732 0.488 8.04 3.54 13.34
1/21/2021 2:45:00 PM 3.81 38.858 0.489 8.04 3.52 13.32
1/21/2021 3:00:00 PM 3.87 38.966 0.489 8.04 3.46 13.31
1/21/2021 3:15:00 PM 3.93 39.074 0.49 8.04 3.41 13.31
1/21/2021 3:30:00 PM 3.98 39.164 0.491 8.05 3.47 13.29
1/21/2021 3:45:00 PM 4.02 39.236 0.491 8.05 3.36 13.28
1/21/2021 4:00:00 PM 4.06 39.308 0.492 8.05 3.43 13.27
1/21/2021 4:15:00 PM 4.09 39.362 0.493 8.05 3.38 13.26
1/21/2021 4:30:00 PM 4.12 39.416 0.493 8.05 3.45 13.25
1/21/2021 4:45:00 PM 4.15 39.47 0.493 8.05 3.43 13.24
1/21/2021 5:00:00 PM 4.18 39.524 0.493 8.05 3.42 13.23
1/21/2021 5:15:00 PM 4.21 39.578 0.493 8.06 3.51 13.21
1/21/2021 5:30:00 PM 4.23 39.614 0.493 8.05 3.53 13.2
1/21/2021 5:45:00 PM 4.25 39.65 0.493 8.06 3.57 13.19
1/21/2021 6:00:00 PM 4.28 39.704 0.493 8.06 3.64 13.18
1/21/2021 6:15:00 PM 4.31 39.758 0.493 8.06 3.68 13.17
1/21/2021 6:30:00 PM 4.35 39.83 0.493 8.06 3.8 13.16
1/21/2021 6:45:00 PM 4.38 39.884 0.493 8.06 3.9 13.15
1/21/2021 7:00:00 PM 4.43 39.974 0.495 8.06 4.01 13.13
1/21/2021 7:15:00 PM 4.47 40.046 0.495 8.06 4.08 13.12
1/21/2021 7:30:00 PM 4.51 40.118 0.495 8.06 4 13.1
1/21/2021 7:45:00 PM 4.53 40.154 0.495 8.06 4.21 13.09
1/21/2021 8:00:00 PM 4.56 40.208 0.495 8.06 4.33 13.07
1/21/2021 8:15:00 PM 4.59 40.262 0.495 8.06 4.18 13.06
1/21/2021 8:30:00 PM 4.61 40.298 0.495 8.06 4.27 13.04
1/21/2021 8:45:00 PM 4.64 40.352 0.495 8.06 4.37 13.02
1/21/2021 9:00:00 PM 4.65 40.37 0.495 8.06 4.48 13.01
1/21/2021 9:15:00 PM 4.66 40.388 0.494 8.06 4.31 12.99
1/21/2021 9:30:00 PM 4.66 40.388 0.494 8.06 4.43 12.98
1/21/2021 9:45:00 PM 4.66 40.388 0.494 8.06 4.28 12.96
1/21/2021 10:00:00 PM 4.66 40.388 0.494 8.06 4.61 12.95
1/21/2021 10:15:00 PM 4.65 40.37 0.493 8.06 4.39 12.92
1/21/2021 10:30:00 PM 4.65 40.37 0.493 8.05 4.4 12.91
1/21/2021 10:45:00 PM 4.64 40.352 0.493 8.05 4.5 12.89
1/21/2021 11:00:00 PM 4.63 40.334 0.493 8.05 4.62 12.88
1/21/2021 11:15:00 PM 4.63 40.334 0.493 8.04 4.57 12.86
1/21/2021 11:30:00 PM 4.62 40.316 0.493 8.04 4.74 12.85
1/21/2021 11:45:00 PM 4.61 40.298 0.492 8.04 4.89 12.83
1/22/2021 12:00:00 AM 4.59 40.262 0.492 8.03 4.68 12.82
1/22/2021 12:15:00 AM 4.58 40.244 0.492 8.03 4.72 12.81
1/22/2021 12:30:00 AM 4.56 40.208 0.492 8.03 5 12.8
1/22/2021 12:45:00 AM 4.55 40.19 0.492 8.02 4.7 12.79
1/22/2021 1:00:00 AM 4.53 40.154 0.492 8.02 4.74 12.77
1/22/2021 1:15:00 AM 4.52 40.136 0.492 8.02 4.86 12.76
1/22/2021 1:30:00 AM 4.51 40.118 0.492 8.01 4.86 12.75
1/22/2021 1:45:00 AM 4.5 40.1 0.492 8.01 4.97 12.74
1/22/2021 2:00:00 AM 4.48 40.064 0.492 8 5.05 12.74
1/22/2021 2:15:00 AM 4.45 40.01 0.492 8 5.03 12.73
1/22/2021 2:30:00 AM 4.43 39.974 0.492 8 5.09 12.73
1/22/2021 2:45:00 AM 4.4 39.92 0.491 8 5.13 12.73
1/22/2021 3:00:00 AM 4.37 39.866 0.491 8 5.25 12.73
1/22/2021 3:15:00 AM 4.35 39.83 0.491 7.99 5.25 12.73
1/22/2021 3:30:00 AM 4.33 39.794 0.491 7.99 5.25 12.73
1/22/2021 3:45:00 AM 4.31 39.758 0.49 7.99 5.25 12.73
1/22/2021 4:00:00 AM 4.28 39.704 0.49 7.99 5.38 12.74
1/22/2021 4:15:00 AM 4.25 39.65 0.489 7.99 5.25 12.74
1/22/2021 4:30:00 AM 4.22 39.596 0.489 7.99 5.31 12.75
1/22/2021 4:45:00 AM 4.2 39.56 0.488 7.99 5.45 12.76
1/22/2021 5:00:00 AM 4.18 39.524 0.487 7.99 5.47 12.76
1/22/2021 5:15:00 AM 4.16 39.488 0.487 7.99 5.42 12.77
1/22/2021 5:30:00 AM 4.14 39.452 0.486 7.98 5.46 12.77
1/22/2021 5:45:00 AM 4.12 39.416 0.486 7.98 5.45 12.77
1/22/2021 6:00:00 AM 4.11 39.398 0.485 7.98 5.52 12.77
1/22/2021 6:15:00 AM 4.09 39.362 0.485 7.98 5.4 12.77
1/22/2021 6:30:00 AM 4.08 39.344 0.485 7.98 5.44 12.78
1/22/2021 6:45:00 AM 4.09 39.362 0.485 7.98 5.55 12.78
1/22/2021 7:00:00 AM 4.08 39.344 0.485 7.98 5.49 12.78
1/22/2021 7:15:00 AM 4.08 39.344 0.485 7.98 5.5 12.78
1/22/2021 7:30:00 AM 4.07 39.326 0.486 7.98 5.55 12.79
1/22/2021 7:45:00 AM 4.06 39.308 0.486 7.98 5.51 12.8
1/22/2021 8:00:00 AM 4.06 39.308 0.486 7.98 5.65 12.83
1/22/2021 8:15:00 AM 4.07 39.326 0.486 7.99 5.7 12.84
1/22/2021 8:30:00 AM 4.07 39.326 0.487 7.99 5.51 12.86
1/22/2021 8:45:00 AM 4.07 39.326 0.487 7.99 5.7 12.87
1/22/2021 9:00:00 AM 4.08 39.344 0.487 7.99 5.77 12.9
1/22/2021 9:15:00 AM 4.08 39.344 0.487 8 5.79 12.92
1/22/2021 9:30:00 AM 4.09 39.362 0.487 8 5.66 12.94
1/22/2021 9:45:00 AM 4.09 39.362 0.487 8 5.63 12.96
1/22/2021 10:00:00 AM 4.1 39.38 0.487 8 5.45 12.97
1/22/2021 10:15:00 AM 4.11 39.398 0.488 8.01 5.6 12.98
1/22/2021 10:30:00 AM 4.11 39.398 0.488 8.01 5.66 12.98
1/22/2021 10:45:00 AM 4.13 39.434 0.489 8.01 5.56 13.01
1/22/2021 11:00:00 AM 4.16 39.488 0.489 8.01 5.49 13.02
1/22/2021 11:15:00 AM 4.23 39.614 0.49 8.01 5.28 13.04
1/22/2021 11:30:00 AM 4.23 39.614 0.491 8.01 5.22 13.02
1/22/2021 11:45:00 AM 4.24 39.632 0.492 8.01 5.34 12.99
1/22/2021 12:00:00 PM 4.24 39.632 0.493 8.01 5.27 12.98
1/22/2021 12:15:00 PM 4.27 39.686 0.493 8.02 5.27 13.01
1/22/2021 12:30:00 PM 4.29 39.722 0.494 8.02 5.14 13.02
1/22/2021 12:45:00 PM 4.3 39.74 0.495 8.02 5.14 12.98
1/22/2021 1:00:00 PM 4.31 39.758 0.495 8.01 5.3 12.98
1/22/2021 1:15:00 PM 4.37 39.866 0.495 8.02 5.19 13.04
1/22/2021 1:30:00 PM 4.44 39.992 0.496 8.03 4.89 13.06
1/22/2021 1:45:00 PM 4.45 40.01 0.496 8.03 5.05 13.04
1/22/2021 2:00:00 PM 4.49 40.082 0.496 8.03 5.11 13.05
1/22/2021 2:15:00 PM 4.53 40.154 0.496 8.03 5.02 13.05
1/22/2021 2:30:00 PM 4.57 40.226 0.496 8.03 4.84 13.07
1/22/2021 2:45:00 PM 4.58 40.244 0.496 8.04 4.85 13.07
1/22/2021 3:00:00 PM 4.59 40.262 0.496 8.04 4.92 13.06
1/22/2021 3:15:00 PM 4.61 40.298 0.496 8.04 4.68 13.05
1/22/2021 3:30:00 PM 4.65 40.37 0.496 8.05 4.86 13.09
1/22/2021 3:45:00 PM 4.68 40.424 0.496 8.05 4.73 13.08
1/22/2021 4:00:00 PM 4.71 40.478 0.496 8.05 4.77 13.06
1/22/2021 4:15:00 PM 4.74 40.532 0.496 8.06 4.75 13.06
1/22/2021 4:30:00 PM 4.78 40.604 0.496 8.06 4.92 13.07
1/22/2021 4:45:00 PM 4.79 40.622 0.496 8.06 4.8 13.04
1/22/2021 5:00:00 PM 4.78 40.604 0.495 8.06 5.09 13.03
1/22/2021 5:15:00 PM 4.78 40.604 0.495 8.06 4.94 13.03
1/22/2021 5:30:00 PM 4.79 40.622 0.495 8.06 5 13.04
1/22/2021 5:45:00 PM 4.8 40.64 0.495 8.07 5.03 13.04
1/22/2021 6:00:00 PM 4.81 40.658 0.495 8.07 5.01 13.05
1/22/2021 6:15:00 PM 4.82 40.676 0.494 8.07 5.09 13.06
1/22/2021 6:30:00 PM 4.83 40.694 0.494 8.07 4.99 13.06
1/22/2021 6:45:00 PM 4.84 40.712 0.494 8.08 5.05 13.06
1/22/2021 7:00:00 PM 4.86 40.748 0.494 8.08 4.99 13.05
1/22/2021 7:15:00 PM 4.88 40.784 0.494 8.08 5.22 13.05
1/22/2021 7:30:00 PM 4.9 40.82 0.494 8.08 4.97 13.04
1/22/2021 7:45:00 PM 4.92 40.856 0.493 8.08 5.2 13.03
1/22/2021 8:00:00 PM 4.94 40.892 0.493 8.08 5.02 13.03
1/22/2021 8:15:00 PM 4.96 40.928 0.493 8.08 5.28 13.01
1/22/2021 8:30:00 PM 4.97 40.946 0.492 8.08 5.15 13.01
1/22/2021 8:45:00 PM 4.99 40.982 0.492 8.08 5.27 13
1/22/2021 9:00:00 PM 5 41 0.491 8.08 5.32 12.98
1/22/2021 9:15:00 PM 5.01 41.018 0.491 8.08 5.3 12.98
1/22/2021 9:30:00 PM 5.01 41.018 0.491 8.08 5.49 12.96
1/22/2021 9:45:00 PM 5.01 41.018 0.49 8.08 5.3 12.95
1/22/2021 10:00:00 PM 5.01 41.018 0.49 8.08 5.44 12.94
1/22/2021 10:15:00 PM 5 41 0.489 8.08 5.5 12.93
1/22/2021 10:30:00 PM 4.98 40.964 0.489 8.08 5.58 12.92
1/22/2021 10:45:00 PM 4.95 40.91 0.489 8.08 5.71 12.91
1/22/2021 11:00:00 PM 4.94 40.892 0.489 8.07 5.55 12.9
1/22/2021 11:15:00 PM 4.92 40.856 0.489 8.07 5.56 12.89
1/22/2021 11:30:00 PM 4.9 40.82 0.489 8.07 5.65 12.88
1/22/2021 11:45:00 PM 4.88 40.784 0.489 8.06 5.71 12.87
1/23/2021 12:00:00 AM 4.86 40.748 0.489 8.06 5.5 12.86
1/23/2021 12:15:00 AM 4.84 40.712 0.489 8.06 5.76 12.85
1/23/2021 12:30:00 AM 4.82 40.676 0.488 8.05 5.57 12.84
1/23/2021 12:45:00 AM 4.78 40.604 0.488 8.05 5.74 12.83
1/23/2021 1:00:00 AM 4.77 40.586 0.488 8.05 5.63 12.83
1/23/2021 1:15:00 AM 4.75 40.55 0.488 8.04 5.7 12.82
1/23/2021 1:30:00 AM 4.74 40.532 0.487 8.04 5.88 12.81
1/23/2021 1:45:00 AM 4.72 40.496 0.487 8.04 5.84 12.81
1/23/2021 2:00:00 AM 4.71 40.478 0.486 8.03 5.69 12.8
1/23/2021 2:15:00 AM 4.69 40.442 0.486 8.03 5.83 12.79
1/23/2021 2:30:00 AM 4.67 40.406 0.485 8.03 5.78 12.79
1/23/2021 2:45:00 AM 4.65 40.37 0.485 8.02 5.73 12.78
1/23/2021 3:00:00 AM 4.62 40.316 0.484 8.02 5.67 12.78
1/23/2021 3:15:00 AM 4.59 40.262 0.484 8.02 5.92 12.77
1/23/2021 3:30:00 AM 4.57 40.226 0.483 8.02 5.94 12.77
1/23/2021 3:45:00 AM 4.54 40.172 0.483 8.01 6.05 12.78
1/23/2021 4:00:00 AM 4.51 40.118 0.483 8.01 5.98 12.77
1/23/2021 4:15:00 AM 4.48 40.064 0.482 8.01 6.02 12.78
1/23/2021 4:30:00 AM 4.45 40.01 0.482 8.01 5.83 12.79
1/23/2021 4:45:00 AM 4.41 39.938 0.482 8.01 5.86 12.79
1/23/2021 5:00:00 AM 4.35 39.83 0.482 8.01 6.02 12.79
1/23/2021 5:15:00 AM 4.31 39.758 0.482 8.01 5.96 12.81
1/23/2021 5:30:00 AM 4.27 39.686 0.482 8.01 5.89 12.82
1/23/2021 5:45:00 AM 4.22 39.596 0.483 8.01 5.85 12.84
1/23/2021 6:00:00 AM 4.17 39.506 0.483 8.01 5.93 12.85
1/23/2021 6:15:00 AM 4.13 39.434 0.483 8.01 5.83 12.87
1/23/2021 6:30:00 AM 4.08 39.344 0.484 8.01 5.79 12.88
1/23/2021 6:45:00 AM 4.04 39.272 0.484 8.01 6.03 12.89
1/23/2021 7:00:00 AM 3.99 39.182 0.485 8.01 5.92 12.91
1/23/2021 7:15:00 AM 3.95 39.11 0.485 8.01 6.01 12.92
1/23/2021 7:30:00 AM 3.91 39.038 0.486 8.01 5.91 12.94
1/23/2021 7:45:00 AM 3.85 38.93 0.486 8.01 5.94 12.96
1/23/2021 8:00:00 AM 3.82 38.876 0.487 8.01 6.05 12.99
1/23/2021 8:15:00 AM 3.78 38.804 0.487 8.02 5.86 13.02
1/23/2021 8:30:00 AM 3.76 38.768 0.487 8.02 5.98 13.07
1/23/2021 8:45:00 AM 3.75 38.75 0.488 8.02 5.84 13.11
1/23/2021 9:00:00 AM 3.72 38.696 0.488 8.03 5.92 13.12
1/23/2021 9:15:00 AM 3.7 38.66 0.488 8.03 5.82 13.16
1/23/2021 9:30:00 AM 3.66 38.588 0.488 8.03 5.61 13.19
1/23/2021 9:45:00 AM 3.63 38.534 0.488 8.04 5.34 13.21
1/23/2021 10:00:00 AM 3.63 38.534 0.488 8.04 5.38 13.24
1/23/2021 10:15:00 AM 3.61 38.498 0.488 8.04 5.26 13.27
1/23/2021 10:30:00 AM 3.61 38.498 0.489 8.05 5.28 13.31
1/23/2021 10:45:00 AM 3.58 38.444 0.489 8.05 5.25 13.33
1/23/2021 11:00:00 AM 3.56 38.408 0.489 8.05 5.08 13.34
1/23/2021 11:15:00 AM 3.54 38.372 0.489 8.05 5.13 13.37
1/23/2021 11:30:00 AM 3.53 38.354 0.49 8.06 5.13 13.39
1/23/2021 11:45:00 AM 3.51 38.318 0.491 8.06 5.08 13.4
1/23/2021 12:00:00 PM 3.5 38.3 0.492 8.06 4.92 13.4
1/23/2021 12:15:00 PM 3.5 38.3 0.493 8.06 4.82 13.42
1/23/2021 12:30:00 PM 3.5 38.3 0.493 8.06 4.9 13.45
1/23/2021 12:45:00 PM 3.57 38.426 0.494 8.07 4.77 13.49
1/23/2021 1:00:00 PM 3.57 38.426 0.494 8.07 4.76 13.49
1/23/2021 1:15:00 PM 3.56 38.408 0.495 8.07 4.73 13.49
1/23/2021 1:30:00 PM 3.6 38.48 0.496 8.07 4.82 13.51
1/23/2021 1:45:00 PM 3.64 38.552 0.496 8.08 4.69 13.53
1/23/2021 2:00:00 PM 3.64 38.552 0.497 8.08 4.84 13.52
1/23/2021 2:15:00 PM 3.63 38.534 0.497 8.08 5.03 13.53
1/23/2021 2:30:00 PM 3.66 38.588 0.498 8.08 4.99 13.54
1/23/2021 2:45:00 PM 3.68 38.624 0.498 8.09 4.91 13.55
1/23/2021 3:00:00 PM 3.68 38.624 0.498 8.09 4.9 13.54
1/23/2021 3:15:00 PM 3.65 38.57 0.499 8.09 4.74 13.54
1/23/2021 3:30:00 PM 3.65 38.57 0.499 8.09 4.59 13.55
1/23/2021 3:45:00 PM 3.65 38.57 0.499 8.09 4.64 13.56
1/23/2021 4:00:00 PM 3.62 38.516 0.499 8.09 4.54 13.54
1/23/2021 4:15:00 PM 3.6 38.48 0.5 8.09 4.55 13.55
1/23/2021 4:30:00 PM 3.58 38.444 0.5 8.1 4.55 13.56
1/23/2021 4:45:00 PM 3.56 38.408 0.5 8.1 4.6 13.58
1/23/2021 5:00:00 PM 3.53 38.354 0.5 8.1 4.49 13.59
1/23/2021 5:15:00 PM 3.5 38.3 0.5 8.1 4.4 13.6
1/23/2021 5:30:00 PM 3.47 38.246 0.5 8.1 4.55 13.62
1/23/2021 5:45:00 PM 3.42 38.156 0.5 8.11 4.59 13.63
1/23/2021 6:00:00 PM 3.38 38.084 0.499 8.11 4.77 13.65
1/23/2021 6:15:00 PM 3.35 38.03 0.499 8.11 4.65 13.68
1/23/2021 6:30:00 PM 3.34 38.012 0.498 8.11 4.67 13.69
1/23/2021 6:45:00 PM 3.32 37.976 0.498 8.12 4.61 13.7
1/23/2021 7:00:00 PM 3.31 37.958 0.498 8.12 4.55 13.71
1/23/2021 7:15:00 PM 3.3 37.94 0.497 8.12 4.5 13.72
1/23/2021 7:30:00 PM 3.3 37.94 0.497 8.12 4.61 13.72
1/23/2021 7:45:00 PM 3.29 37.922 0.497 8.13 4.56 13.72
1/23/2021 8:00:00 PM 3.3 37.94 0.496 8.13 4.81 13.72
1/23/2021 8:15:00 PM 3.31 37.958 0.496 8.13 4.87 13.72
1/23/2021 8:30:00 PM 3.31 37.958 0.496 8.13 4.55 13.71
1/23/2021 8:45:00 PM 3.32 37.976 0.496 8.13 4.57 13.71
1/23/2021 9:00:00 PM 3.32 37.976 0.496 8.13 4.46 13.71
1/23/2021 9:15:00 PM 3.32 37.976 0.496 8.13 4.54 13.71
1/23/2021 9:30:00 PM 3.32 37.976 0.496 8.13 4.57 13.7
1/23/2021 9:45:00 PM 3.3 37.94 0.497 8.13 4.54 13.69
1/23/2021 10:00:00 PM 3.29 37.922 0.496 8.13 4.59 13.69
1/23/2021 10:15:00 PM 3.25 37.85 0.496 8.13 4.58 13.68
1/23/2021 10:30:00 PM 3.21 37.778 0.496 8.13 4.57 13.69
1/23/2021 10:45:00 PM 3.17 37.706 0.496 8.12 4.54 13.68
1/23/2021 11:00:00 PM 3.13 37.634 0.496 8.12 4.56 13.68
1/23/2021 11:15:00 PM 3.09 37.562 0.496 8.12 4.59 13.68
1/23/2021 11:30:00 PM 3.05 37.49 0.496 8.11 4.51 13.68
1/23/2021 11:45:00 PM 3.01 37.418 0.496 8.11 4.6 13.67
1/24/2021 12:00:00 AM 2.96 37.328 0.496 8.1 4.55 13.68
1/24/2021 12:15:00 AM 2.92 37.256 0.496 8.1 4.56 13.68
1/24/2021 12:30:00 AM 2.87 37.166 0.496 8.1 4.63 13.68
1/24/2021 12:45:00 AM 2.83 37.094 0.496 8.09 4.58 13.68
1/24/2021 1:00:00 AM 2.78 37.004 0.495 8.09 4.57 13.7
1/24/2021 1:15:00 AM 2.73 36.914 0.495 8.08 4.53 13.67
1/24/2021 1:30:00 AM 2.7 36.86 0.495 8.08 4.68 13.68
1/24/2021 1:45:00 AM 2.66 36.788 0.495 8.08 4.69 13.66
1/24/2021 2:00:00 AM 2.63 36.734 0.495 8.07 4.67 13.67
1/24/2021 2:15:00 AM 2.6 36.68 0.495 8.07 4.65 13.67
1/24/2021 2:30:00 AM 2.57 36.626 0.494 8.07 4.74 13.66
1/24/2021 2:45:00 AM 2.54 36.572 0.494 8.06 4.71 13.66
1/24/2021 3:00:00 AM 2.51 36.518 0.494 8.06 4.67 13.66
1/24/2021 3:15:00 AM 2.48 36.464 0.494 8.05 4.81 13.66
1/24/2021 3:30:00 AM 2.44 36.392 0.494 8.03 4.93 13.66
1/24/2021 3:45:00 AM 2.42 36.356 0.494 8.04 4.82 13.66
1/24/2021 4:00:00 AM 2.39 36.302 0.494 8.04 4.85 13.67
1/24/2021 4:15:00 AM 2.38 36.284 0.494 8.04 4.8 13.67
1/24/2021 4:30:00 AM 2.35 36.23 0.495 8.04 4.75 13.68
1/24/2021 4:45:00 AM 2.33 36.194 0.495 8.04 4.71 13.69
1/24/2021 5:00:00 AM 2.29 36.122 0.495 8.04 4.78 13.7
1/24/2021 5:15:00 AM 2.26 36.068 0.495 8.03 4.75 13.7
1/24/2021 5:30:00 AM 2.23 36.014 0.495 8.03 4.78 13.71
1/24/2021 5:45:00 AM 2.2 35.96 0.496 8.03 4.84 13.72
1/24/2021 6:00:00 AM 2.17 35.906 0.496 8.03 4.83 13.72
1/24/2021 6:15:00 AM 2.14 35.852 0.496 8.03 4.81 13.73
1/24/2021 6:30:00 AM 2.1 35.78 0.496 8.03 4.85 13.74
1/24/2021 6:45:00 AM 2.07 35.726 0.496 8.02 4.78 13.75
1/24/2021 7:00:00 AM 2.05 35.69 0.497 8.02 4.86 13.76
1/24/2021 7:15:00 AM 2.02 35.636 0.497 8.02 5.03 13.76
1/24/2021 7:30:00 AM 2.01 35.618 0.497 8.03 4.83 13.77
1/24/2021 7:45:00 AM 1.97 35.546 0.497 8.03 4.86 13.8
1/24/2021 8:00:00 AM 1.94 35.492 0.497 8.03 4.82 13.82
1/24/2021 8:15:00 AM 1.93 35.474 0.498 8.03 4.84 13.87
1/24/2021 8:30:00 AM 1.92 35.456 0.498 8.04 4.8 13.9
1/24/2021 8:45:00 AM 1.9 35.42 0.498 8.04 4.7 13.93
1/24/2021 9:00:00 AM 1.89 35.402 0.499 8.04 4.66 13.96
1/24/2021 9:15:00 AM 1.88 35.384 0.499 8.05 4.7 13.98
1/24/2021 9:30:00 AM 1.87 35.366 0.499 8.05 4.69 14.01
1/24/2021 9:45:00 AM 1.87 35.366 0.5 8.05 4.76 14.02
1/24/2021 10:00:00 AM 1.89 35.402 0.5 8.06 4.74 14.05
1/24/2021 10:15:00 AM 1.91 35.438 0.5 8.06 4.8 14.06
1/24/2021 10:30:00 AM 1.92 35.456 0.501 8.06 4.76 14.07
1/24/2021 10:45:00 AM 1.93 35.474 0.501 8.06 4.86 14.09
1/24/2021 11:00:00 AM 1.97 35.546 0.501 8.06 4.98 14.1
1/24/2021 11:15:00 AM 1.99 35.582 0.501 8.07 4.94 14.11
1/24/2021 11:30:00 AM 2.01 35.618 0.501 8.07 5.17 14.1
1/24/2021 11:45:00 AM 2.03 35.654 0.501 8.07 5.3 14.1
1/24/2021 12:00:00 PM 2.05 35.69 0.501 8.07 5.24 14.1
1/24/2021 12:15:00 PM 2.06 35.708 0.501 8.07 12.79 14.1
1/24/2021 12:30:00 PM 2.09 35.762 0.501 8.07 4.83 14.1
1/24/2021 12:45:00 PM 2.11 35.798 0.499 8.07 4.81 14.11
1/24/2021 1:00:00 PM 2.14 35.852 0.501 8.08 8.3 14.13
1/24/2021 1:15:00 PM 2.16 35.888 0.502 8.08 7.01 14.12
1/24/2021 1:30:00 PM 2.14 35.852 0.502 8.08 6.87 14.11
1/24/2021 1:45:00 PM 2.13 35.834 0.502 8.08 6.86 14.11
1/24/2021 2:00:00 PM 2.15 35.87 0.502 8.08 6.61 14.12
1/24/2021 2:15:00 PM 2.14 35.852 0.503 8.08 5.58 14.11
1/24/2021 2:30:00 PM 2.17 35.906 0.503 8.08 5.47 14.13
1/24/2021 2:45:00 PM 2.2 35.96 0.503 8.09 5.27 14.13
1/24/2021 3:00:00 PM 2.21 35.978 0.503 8.09 5.25 14.11
1/24/2021 3:15:00 PM 2.24 36.032 0.504 8.09 5.08 14.1
1/24/2021 3:30:00 PM 2.26 36.068 0.504 8.09 4.94 14.09
1/24/2021 3:45:00 PM 2.28 36.104 0.504 8.08 5.02 14.07
1/24/2021 4:00:00 PM 2.31 36.158 0.505 8.08 4.96 14.04
1/24/2021 4:15:00 PM 2.34 36.212 0.505 8.08 4.94 14.04
1/24/2021 4:30:00 PM 2.36 36.248 0.506 8.08 4.98 14.03
1/24/2021 4:45:00 PM 2.38 36.284 0.506 8.08 4.99 14.02
1/24/2021 5:00:00 PM 2.39 36.302 0.507 8.08 5.05 14
1/24/2021 5:15:00 PM 2.4 36.32 0.507 8.08 4.89 13.98
1/24/2021 5:30:00 PM 2.42 36.356 0.508 8.08 4.83 13.98
1/24/2021 5:45:00 PM 2.44 36.392 0.509 8.08 4.78 13.99
1/24/2021 6:00:00 PM 2.47 36.446 0.509 8.08 4.91 14
1/24/2021 6:15:00 PM 2.49 36.482 0.51 8.08 4.75 14.01
1/24/2021 6:30:00 PM 2.51 36.518 0.512 8.08 4.79 14.02
1/24/2021 6:45:00 PM 2.53 36.554 0.512 8.08 4.92 14.02
1/24/2021 7:00:00 PM 2.57 36.626 0.514 8.08 4.9 14.01
1/24/2021 7:15:00 PM 2.62 36.716 0.514 8.08 4.78 14
1/24/2021 7:30:00 PM 2.69 36.842 0.515 8.08 4.77 13.99
1/24/2021 7:45:00 PM 2.75 36.95 0.516 8.09 4.87 13.97
1/24/2021 8:00:00 PM 2.81 37.058 0.517 8.09 4.7 13.95
1/24/2021 8:15:00 PM 2.87 37.166 0.517 8.09 4.76 13.94
1/24/2021 8:30:00 PM 2.93 37.274 0.518 8.09 4.63 13.91
1/24/2021 8:45:00 PM 2.99 37.382 0.519 8.09 4.72 13.88
1/24/2021 9:00:00 PM 3.03 37.454 0.519 8.09 4.68 13.86
1/24/2021 9:15:00 PM 3.07 37.526 0.519 8.1 4.86 13.84
1/24/2021 9:30:00 PM 3.09 37.562 0.519 8.1 4.89 13.83
1/24/2021 9:45:00 PM 3.1 37.58 0.52 8.1 4.9 13.81
1/24/2021 10:00:00 PM 3.1 37.58 0.52 8.1 5.17 13.81
1/24/2021 10:15:00 PM 3.1 37.58 0.52 8.1 4.99 13.79
1/24/2021 10:30:00 PM 3.09 37.562 0.52 8.1 5.11 13.77
1/24/2021 10:45:00 PM 3.09 37.562 0.52 8.09 5.11 13.76
1/24/2021 11:00:00 PM 3.08 37.544 0.52 8.09 5.18 13.74
1/24/2021 11:15:00 PM 3.08 37.544 0.521 8.09 5.24 13.72
1/24/2021 11:30:00 PM 3.08 37.544 0.521 8.08 5.29 13.69
1/24/2021 11:45:00 PM 3.07 37.526 0.521 8.08 5.39 13.68
1/25/2021 12:00:00 AM 3.07 37.526 0.521 8.08 5.28 13.67
1/25/2021 12:15:00 AM 3.07 37.526 0.521 8.08 5.18 13.64
1/25/2021 12:30:00 AM 3.07 37.526 0.521 8.07 5.43 13.62
1/25/2021 12:45:00 AM 3.07 37.526 0.52 8.07 5.23 13.6
1/25/2021 1:00:00 AM 3.07 37.526 0.52 8.06 5.45 13.58
1/25/2021 1:15:00 AM 3.08 37.544 0.519 8.06 5.29 13.55
1/25/2021 1:30:00 AM 3.08 37.544 0.519 8.06 5.48 13.53
1/25/2021 1:45:00 AM 3.08 37.544 0.518 8.05 5.54 13.51
1/25/2021 2:00:00 AM 3.08 37.544 0.517 8.05 5.58 13.5
1/25/2021 2:15:00 AM 3.08 37.544 0.517 8.05 5.42 13.49
1/25/2021 2:30:00 AM 3.08 37.544 0.517 8.04 5.58 13.48
1/25/2021 2:45:00 AM 3.07 37.526 0.516 8.04 5.58 13.47
1/25/2021 3:00:00 AM 3.07 37.526 0.515 8.04 5.47 13.47
1/25/2021 3:15:00 AM 3.06 37.508 0.514 8.03 5.59 13.46
1/25/2021 3:30:00 AM 3.05 37.49 0.514 8.03 5.71 13.45
1/25/2021 3:45:00 AM 3.04 37.472 0.513 8.03 5.63 13.45
1/25/2021 4:00:00 AM 3.03 37.454 0.512 8.03 5.67 13.43
1/25/2021 4:15:00 AM 3.03 37.454 0.512 8.02 5.68 13.42
1/25/2021 4:30:00 AM 3.01 37.418 0.511 8.02 5.75 13.43
1/25/2021 4:45:00 AM 3 37.4 0.51 8.02 5.78 13.43
1/25/2021 5:00:00 AM 3 37.4 0.51 8.02 5.75 13.42
1/25/2021 5:15:00 AM 2.99 37.382 0.509 8.02 5.64 13.42
1/25/2021 5:30:00 AM 2.98 37.364 0.509 8.01 5.77 13.41
1/25/2021 5:45:00 AM 2.97 37.346 0.509 8.01 5.76 13.42
1/25/2021 6:00:00 AM 2.96 37.328 0.509 8.01 5.78 13.41
1/25/2021 6:15:00 AM 2.96 37.328 0.509 8.01 5.83 13.41
1/25/2021 6:30:00 AM 2.95 37.31 0.509 8.01 5.89 13.41
1/25/2021 6:45:00 AM 2.94 37.292 0.509 8.01 5.88 13.41
1/25/2021 7:00:00 AM 2.94 37.292 0.509 8.01 5.97 13.4
1/25/2021 7:15:00 AM 2.94 37.292 0.509 8.01 5.97 13.41
1/25/2021 7:30:00 AM 2.93 37.274 0.51 8.01 5.79 13.4
1/25/2021 7:45:00 AM 2.93 37.274 0.51 8.01 5.95 13.4
1/25/2021 8:00:00 AM 2.93 37.274 0.51 8.01 5.93 13.43
1/25/2021 8:15:00 AM 2.93 37.274 0.511 8.01 5.9 13.42
1/25/2021 8:30:00 AM 2.94 37.292 0.511 8.01 6.02 13.43
1/25/2021 8:45:00 AM 2.94 37.292 0.512 8.01 6.26 13.44
1/25/2021 9:00:00 AM 2.95 37.31 0.512 8.01 6.16 13.46
1/25/2021 9:15:00 AM 2.96 37.328 0.513 8.01 6.42 13.46
1/25/2021 9:30:00 AM 2.97 37.346 0.513 8.01 6.76 13.47
1/25/2021 9:45:00 AM 2.98 37.364 0.513 8.02 6.17 13.5
1/25/2021 10:00:00 AM 3.01 37.418 0.513 8.02 6.17 13.52
1/25/2021 10:15:00 AM 3.04 37.472 0.513 8.02 5.86 13.54
1/25/2021 10:30:00 AM 3.06 37.508 0.513 8.02 6.43 13.53
1/25/2021 10:45:00 AM 3.08 37.544 0.513 8.03 5.79 13.55
1/25/2021 11:00:00 AM 3.12 37.616 0.513 8.03 5.83 13.57
1/25/2021 11:15:00 AM 3.13 37.634 0.513 8.03 5.57 13.54
1/25/2021 11:30:00 AM 3.15 37.67 0.513 8.03 5.54 13.54
1/25/2021 11:45:00 AM 3.2 37.76 0.513 8.04 5.68 13.56
1/25/2021 12:00:00 PM 3.21 37.778 0.513 8.03 5.64 13.53
1/25/2021 12:15:00 PM 3.24 37.832 0.514 8.03 5.5 13.53
1/25/2021 12:30:00 PM 3.27 37.886 0.513 8.03 5.49 13.52
1/25/2021 12:45:00 PM 3.29 37.922 0.514 8.04 5.48 13.5
1/25/2021 1:00:00 PM 3.32 37.976 0.513 8.04 5.61 13.53
1/25/2021 1:15:00 PM 3.34 38.012 0.513 8.04 5.47 13.52
1/25/2021 1:30:00 PM 3.37 38.066 0.513 8.04 5.56 13.51
1/25/2021 1:45:00 PM 3.39 38.102 0.513 8.04 5.4 13.49
1/25/2021 2:00:00 PM 3.4 38.12 0.512 8.04 5.62 13.48
1/25/2021 2:15:00 PM 3.42 38.156 0.511 8.04 5.7 13.48
1/25/2021 2:30:00 PM 3.43 38.174 0.511 8.04 5.56 13.46
1/25/2021 2:45:00 PM 3.45 38.21 0.51 8.04 5.67 13.47
1/25/2021 3:00:00 PM 3.47 38.246 0.509 8.04 5.6 13.46
1/25/2021 3:15:00 PM 3.48 38.264 0.508 8.04 5.57 13.48
1/25/2021 3:30:00 PM 3.5 38.3 0.507 8.04 5.85 13.48
1/25/2021 3:45:00 PM 3.52 38.336 0.506 8.04 5.76 13.47
1/25/2021 4:00:00 PM 3.54 38.372 0.505 8.04 5.79 13.47
1/25/2021 4:15:00 PM 3.55 38.39 0.504 8.04 5.83 13.46
1/25/2021 4:30:00 PM 3.56 38.408 0.504 8.04 5.81 13.45
1/25/2021 4:45:00 PM 3.58 38.444 0.503 8.04 5.87 13.45
1/25/2021 5:00:00 PM 3.59 38.462 0.503 8.04 5.81 13.45
1/25/2021 5:15:00 PM 3.61 38.498 0.503 8.05 5.83 13.45
1/25/2021 5:30:00 PM 3.63 38.534 0.503 8.05 5.88 13.45
1/25/2021 5:45:00 PM 3.66 38.588 0.503 8.05 5.83 13.45
1/25/2021 6:00:00 PM 3.68 38.624 0.503 8.05 5.85 13.44
1/25/2021 6:15:00 PM 3.7 38.66 0.503 8.06 5.86 13.45
1/25/2021 6:30:00 PM 3.72 38.696 0.504 8.06 5.92 13.45
1/25/2021 6:45:00 PM 3.74 38.732 0.504 8.06 5.89 13.45
1/25/2021 7:00:00 PM 3.77 38.786 0.504 8.06 5.95 13.45
1/25/2021 7:15:00 PM 3.79 38.822 0.504 8.06 5.96 13.45
1/25/2021 7:30:00 PM 3.81 38.858 0.504 8.07 5.99 13.45
1/25/2021 7:45:00 PM 3.83 38.894 0.504 8.07 6.04 13.45
1/25/2021 8:00:00 PM 3.84 38.912 0.504 8.07 5.96 13.44
1/25/2021 8:15:00 PM 3.85 38.93 0.504 8.07 6.15 13.44
1/25/2021 8:30:00 PM 3.86 38.948 0.505 8.07 6.15 13.44
1/25/2021 8:45:00 PM 3.88 38.984 0.505 8.07 6.26 13.44
1/25/2021 9:00:00 PM 3.88 38.984 0.505 8.07 6.1 13.43
1/25/2021 9:15:00 PM 3.88 38.984 0.505 8.07 6.37 13.42
1/25/2021 9:30:00 PM 3.89 39.002 0.505 8.07 6.12 13.42
1/25/2021 9:45:00 PM 3.89 39.002 0.505 8.07 6.31 13.41
1/25/2021 10:00:00 PM 3.89 39.002 0.505 8.07 6.36 13.39
1/25/2021 10:15:00 PM 3.89 39.002 0.505 8.07 6.35 13.39
1/25/2021 10:30:00 PM 3.9 39.02 0.505 8.07 6.23 13.37
1/25/2021 10:45:00 PM 3.89 39.002 0.505 8.07 6.31 13.36
1/25/2021 11:00:00 PM 3.89 39.002 0.505 8.07 6.34 13.34
1/25/2021 11:15:00 PM 3.89 39.002 0.505 8.06 6.52 13.33
1/25/2021 11:30:00 PM 3.89 39.002 0.505 8.06 6.49 13.31
1/25/2021 11:45:00 PM 3.89 39.002 0.505 8.06 6.5 13.29
1/26/2021 12:00:00 AM 3.89 39.002 0.505 8.05 6.46 13.27
1/26/2021 12:15:00 AM 3.89 39.002 0.505 8.05 6.72 13.25
1/26/2021 12:30:00 AM 3.89 39.002 0.505 8.04 6.57 13.23
1/26/2021 12:45:00 AM 3.89 39.002 0.505 8.04 6.67 13.21
1/26/2021 1:00:00 AM 3.89 39.002 0.504 8.04 6.69 13.2
1/26/2021 1:15:00 AM 3.89 39.002 0.504 8.03 6.74 13.16
1/26/2021 1:30:00 AM 3.88 38.984 0.504 8.03 8.03 13.14
1/26/2021 1:45:00 AM 3.88 38.984 0.504 8.03 6.93 13.14
1/26/2021 2:00:00 AM 3.88 38.984 0.504 8.02 7.17 13.12
1/26/2021 2:15:00 AM 3.88 38.984 0.504 8.02 7.47 13.11
1/26/2021 2:30:00 AM 3.87 38.966 0.503 8.02 7.14 13.09
1/26/2021 2:45:00 AM 3.87 38.966 0.503 8.01 7.05 13.09
1/26/2021 3:00:00 AM 3.86 38.948 0.502 8.01 7.12 13.08
1/26/2021 3:15:00 AM 3.85 38.93 0.502 8.01 6.92 13.07
1/26/2021 3:30:00 AM 3.85 38.93 0.502 8.01 7.04 13.05
1/26/2021 3:45:00 AM 3.85 38.93 0.502 8.01 7.03 13.05
1/26/2021 4:00:00 AM 3.84 38.912 0.501 8 6.83 13.04
1/26/2021 4:15:00 AM 3.84 38.912 0.501 8 6.93 13.03
1/26/2021 4:30:00 AM 3.83 38.894 0.501 8 7.23 13.03
1/26/2021 4:45:00 AM 3.83 38.894 0.5 8 7.08 13.01
1/26/2021 5:00:00 AM 3.83 38.894 0.5 8 7.3 13.01
1/26/2021 5:15:00 AM 3.82 38.876 0.501 8 7.24 13
1/26/2021 5:30:00 AM 3.82 38.876 0.5 8 7.14 12.99
1/26/2021 5:45:00 AM 3.81 38.858 0.499 8 7.04 12.99
1/26/2021 6:00:00 AM 3.81 38.858 0.5 7.99 7.19 12.99
1/26/2021 6:15:00 AM 3.8 38.84 0.5 7.99 7.08 12.99
1/26/2021 6:30:00 AM 3.79 38.822 0.499 7.99 6.93 12.99
1/26/2021 6:45:00 AM 3.79 38.822 0.499 7.99 7.05 12.99
1/26/2021 7:00:00 AM 3.78 38.804 0.499 7.99 7.2 12.99
1/26/2021 7:15:00 AM 3.78 38.804 0.498 7.99 6.79 12.99
1/26/2021 7:30:00 AM 3.77 38.786 0.497 7.99 7.12 12.99
1/26/2021 7:45:00 AM 3.76 38.768 0.497 7.99 7.15 12.99
1/26/2021 8:00:00 AM 3.76 38.768 0.497 7.99 7.13 12.99
1/26/2021 8:15:00 AM 3.75 38.75 0.496 7.99 7.14 12.99
1/26/2021 8:30:00 AM 3.75 38.75 0.496 7.99 7.11 13.02
1/26/2021 8:45:00 AM 3.75 38.75 0.495 7.99 6.98 13.02
1/26/2021 9:00:00 AM 3.74 38.732 0.495 7.99 7.19 13.01
1/26/2021 9:15:00 AM 3.74 38.732 0.495 7.99 7.04 13.03
1/26/2021 9:30:00 AM 3.75 38.75 0.495 8 7.03 13.06
1/26/2021 9:45:00 AM 3.75 38.75 0.496 8 6.95 13.05
1/26/2021 10:00:00 AM 3.75 38.75 0.496 8 6.64 13.08
1/26/2021 10:15:00 AM 3.74 38.732 0.496 8 6.59 13.05
1/26/2021 10:30:00 AM 3.75 38.75 0.496 8 6.53 13.07
1/26/2021 10:45:00 AM 3.76 38.768 0.496 8 6.21 13.07
1/26/2021 11:00:00 AM 3.77 38.786 0.497 8 6.4 13.08
1/26/2021 11:15:00 AM 3.77 38.786 0.497 8 6.23 13.07
1/26/2021 11:30:00 AM 3.78 38.804 0.496 8.01 6.08 13.09
1/26/2021 11:45:00 AM 3.79 38.822 0.496 8.01 6.19 13.11
1/26/2021 12:00:00 PM 3.8 38.84 0.496 8.01 6.26 13.09
1/26/2021 12:15:00 PM 3.81 38.858 0.496 8.01 6.3 13.1
1/26/2021 12:30:00 PM 3.82 38.876 0.495 8.01 6.08 13.11
1/26/2021 12:45:00 PM 3.83 38.894 0.495 8.01 5.96 13.1
1/26/2021 1:00:00 PM 3.83 38.894 0.495 8.01 5.83 13.08
1/26/2021 1:15:00 PM 3.84 38.912 0.495 8.01 6.07 13.08
1/26/2021 1:30:00 PM 3.85 38.93 0.496 8.01 5.93 13.09
1/26/2021 1:45:00 PM 3.86 38.948 0.496 8.01 5.63 13.09
1/26/2021 2:00:00 PM 3.87 38.966 0.497 8.02 5.75 13.09
1/26/2021 2:15:00 PM 3.88 38.984 0.497 8.02 5.72 13.08
1/26/2021 2:30:00 PM 3.89 39.002 0.498 8.02 5.73 13.07
1/26/2021 2:45:00 PM 3.9 39.02 0.499 8.02 5.69 13.09
1/26/2021 3:00:00 PM 3.91 39.038 0.499 8.02 5.7 13.1
1/26/2021 3:15:00 PM 3.92 39.056 0.5 8.02 5.74 13.07
1/26/2021 3:30:00 PM 3.92 39.056 0.501 8.02 5.67 13.07
1/26/2021 3:45:00 PM 3.93 39.074 0.502 8.02 5.59 13.08
1/26/2021 4:00:00 PM 3.94 39.092 0.503 8.02 5.47 13.09
1/26/2021 4:15:00 PM 3.94 39.092 0.504 8.02 5.64 13.09
1/26/2021 4:30:00 PM 3.95 39.11 0.505 8.02 5.47 13.08
1/26/2021 4:45:00 PM 3.96 39.128 0.507 8.02 5.6 13.08
1/26/2021 5:00:00 PM 3.96 39.128 0.507 8.02 5.45 13.08
1/26/2021 5:15:00 PM 3.97 39.146 0.508 8.02 5.42 13.07
1/26/2021 5:30:00 PM 3.98 39.164 0.509 8.02 5.33 13.08
1/26/2021 5:45:00 PM 3.99 39.182 0.51 8.02 5.4 13.08
1/26/2021 6:00:00 PM 4.01 39.218 0.511 8.03 5.43 13.09
1/26/2021 6:15:00 PM 4.02 39.236 0.511 8.03 5.28 13.09
1/26/2021 6:30:00 PM 4.03 39.254 0.511 8.03 5.24 13.1
1/26/2021 6:45:00 PM 4.04 39.272 0.512 8.03 5.33 13.1
1/26/2021 7:00:00 PM 4.05 39.29 0.512 8.03 5.38 13.1
1/26/2021 7:15:00 PM 4.06 39.308 0.512 8.03 5.27 13.1
1/26/2021 7:30:00 PM 4.07 39.326 0.512 8.03 5.35 13.12
1/26/2021 7:45:00 PM 4.08 39.344 0.511 8.04 5.24 13.12
1/26/2021 8:00:00 PM 4.09 39.362 0.512 8.04 5.31 13.11
1/26/2021 8:15:00 PM 4.1 39.38 0.511 8.04 5.19 13.12
1/26/2021 8:30:00 PM 4.11 39.398 0.511 8.04 5.34 13.11
1/26/2021 8:45:00 PM 4.12 39.416 0.511 8.04 5.41 13.11
1/26/2021 9:00:00 PM 4.13 39.434 0.51 8.04 5.63 13.11
1/26/2021 9:15:00 PM 4.14 39.452 0.509 8.04 5.86 13.1
1/26/2021 9:30:00 PM 4.15 39.47 0.509 8.04 6.03 13.1
1/26/2021 9:45:00 PM 4.15 39.47 0.509 8.04 5.9 13.08
1/26/2021 10:00:00 PM 4.16 39.488 0.508 8.04 5.7 13.07
1/26/2021 10:15:00 PM 4.17 39.506 0.508 8.04 5.66 13.07
1/26/2021 10:30:00 PM 4.18 39.524 0.508 8.04 5.59 13.05
1/26/2021 10:45:00 PM 4.18 39.524 0.508 8.04 5.66 13.05
1/26/2021 11:00:00 PM 4.19 39.542 0.507 8.03 5.64 13.04
1/26/2021 11:15:00 PM 4.2 39.56 0.506 8.03 5.9 13.03
1/26/2021 11:30:00 PM 4.2 39.56 0.505 8.03 5.73 13.02
1/26/2021 11:45:00 PM 4.2 39.56 0.505 8.03 5.86 13
1/27/2021 12:00:00 AM 4.2 39.56 0.504 8.03 5.93 12.99
1/27/2021 12:15:00 AM 4.21 39.578 0.503 8.02 5.93 12.98
1/27/2021 12:30:00 AM 4.21 39.578 0.502 8.02 5.62 12.97
1/27/2021 12:45:00 AM 4.21 39.578 0.502 8.02 5.59 12.96
1/27/2021 1:00:00 AM 4.21 39.578 0.501 8.02 5.55 12.95
1/27/2021 1:15:00 AM 4.21 39.578 0.5 8.01 5.51 12.93
1/27/2021 1:30:00 AM 4.21 39.578 0.5 8.01 5.67 12.92
1/27/2021 1:45:00 AM 4.21 39.578 0.499 8.01 5.63 12.91
1/27/2021 2:00:00 AM 4.22 39.596 0.499 8.01 5.49 12.9
1/27/2021 2:15:00 AM 4.22 39.596 0.499 8 5.49 12.89
1/27/2021 2:30:00 AM 4.22 39.596 0.499 8 5.36 12.88
1/27/2021 2:45:00 AM 4.21 39.578 0.499 8 5.35 12.88
1/27/2021 3:00:00 AM 4.22 39.596 0.499 8 5.23 12.87
1/27/2021 3:15:00 AM 4.22 39.596 0.499 7.99 5.1 12.86
1/27/2021 3:30:00 AM 4.23 39.614 0.498 7.99 5 12.85
1/27/2021 3:45:00 AM 4.22 39.596 0.498 7.99 5.07 12.84
1/27/2021 4:00:00 AM 4.22 39.596 0.498 7.99 4.98 12.85
1/27/2021 4:15:00 AM 4.22 39.596 0.498 7.99 5.06 12.84
1/27/2021 4:30:00 AM 4.22 39.596 0.497 7.99 5.04 12.83
1/27/2021 4:45:00 AM 4.22 39.596 0.497 7.99 4.75 12.82
1/27/2021 5:00:00 AM 4.22 39.596 0.496 7.99 4.59 12.82
1/27/2021 5:15:00 AM 4.22 39.596 0.496 7.99 4.46 12.83
1/27/2021 5:30:00 AM 4.22 39.596 0.495 7.99 4.47 12.82
1/27/2021 5:45:00 AM 4.22 39.596 0.495 7.99 4.36 12.82
1/27/2021 6:00:00 AM 4.22 39.596 0.494 7.99 4.58 12.82
1/27/2021 6:15:00 AM 4.22 39.596 0.494 7.98 4.65 12.81
1/27/2021 6:30:00 AM 4.22 39.596 0.493 7.98 4.76 12.81
1/27/2021 6:45:00 AM 4.22 39.596 0.493 7.98 4.45 12.82
1/27/2021 7:00:00 AM 4.22 39.596 0.492 7.98 4.51 12.81
1/27/2021 7:15:00 AM 4.22 39.596 0.492 7.98 4.53 12.81
1/27/2021 7:30:00 AM 4.22 39.596 0.491 7.98 4.5 12.82
1/27/2021 7:45:00 AM 4.22 39.596 0.491 7.98 4.55 12.83
1/27/2021 8:00:00 AM 4.22 39.596 0.49 7.98 4.37 12.83
1/27/2021 8:15:00 AM 4.23 39.614 0.49 7.98 4.45 12.85
1/27/2021 8:30:00 AM 4.23 39.614 0.49 7.98 4.5 12.87
1/27/2021 8:45:00 AM 4.23 39.614 0.49 7.99 4.41 12.87
1/27/2021 9:00:00 AM 4.24 39.632 0.49 7.99 4.48 12.9
1/27/2021 9:15:00 AM 4.26 39.668 0.49 8 4.29 12.97
1/27/2021 9:30:00 AM 4.27 39.686 0.49 8 4.27 12.98
1/27/2021 9:45:00 AM 4.3 39.74 0.49 8.01 4.26 13.01
1/27/2021 10:00:00 AM 4.33 39.794 0.49 8.01 4.15 13.04
1/27/2021 10:15:00 AM 4.35 39.83 0.49 8.01 4.19 13.06
1/27/2021 10:30:00 AM 4.35 39.83 0.49 8.01 4.29 13.03
1/27/2021 10:45:00 AM 4.39 39.902 0.491 8.02 4.21 13.06
1/27/2021 11:00:00 AM 4.42 39.956 0.491 8.02 4.12 13.06
1/27/2021 11:15:00 AM 4.42 39.956 0.491 8.02 4.23 13.05
1/27/2021 11:30:00 AM 4.45 40.01 0.492 8.02 4.35 13.09
1/27/2021 11:45:00 AM 4.47 40.046 0.492 8.03 4.4 13.08
1/27/2021 12:00:00 PM 4.5 40.1 0.493 8.03 4.39 13.07
1/27/2021 12:15:00 PM 4.52 40.136 0.493 8.03 4.36 13.06
1/27/2021 12:30:00 PM 4.54 40.172 0.494 8.03 4.41 13.09
1/27/2021 12:45:00 PM 4.58 40.244 0.494 8.03 4.34 13.1
1/27/2021 1:00:00 PM 4.6 40.28 0.495 8.03 4.19 13.09
1/27/2021 1:15:00 PM 4.61 40.298 0.495 8.03 4.25 13.12
1/27/2021 1:30:00 PM 4.66 40.388 0.496 8.04 4.39 13.13
1/27/2021 1:45:00 PM 4.71 40.478 0.497 8.04 4.23 13.13
1/27/2021 2:00:00 PM 4.76 40.568 0.497 8.04 4.31 13.13
1/27/2021 2:15:00 PM 4.77 40.586 0.498 8.04 4.19 13.09
1/27/2021 2:30:00 PM 4.8 40.64 0.498 8.05 4.37 13.12
1/27/2021 2:45:00 PM 4.82 40.676 0.499 8.05 4.25 13.12
1/27/2021 3:00:00 PM 4.83 40.694 0.499 8.05 4.41 13.14
1/27/2021 3:15:00 PM 4.85 40.73 0.499 8.06 4.26 13.15
1/27/2021 3:30:00 PM 4.88 40.784 0.5 8.06 4.29 13.16
1/27/2021 3:45:00 PM 4.89 40.802 0.5 8.06 4.29 13.16
1/27/2021 4:00:00 PM 4.89 40.802 0.501 8.06 4.53 13.1
1/27/2021 4:15:00 PM 4.91 40.838 0.501 8.06 4.39 13.09
1/27/2021 4:30:00 PM 4.93 40.874 0.502 8.06 4.39 13.1
1/27/2021 4:45:00 PM 4.95 40.91 0.502 8.07 4.44 13.1
1/27/2021 5:00:00 PM 4.97 40.946 0.503 8.07 4.31 13.07
1/27/2021 5:15:00 PM 4.99 40.982 0.503 8.07 4.44 13.07
1/27/2021 5:30:00 PM 5.01 41.018 0.504 8.07 4.39 13.08
1/27/2021 5:45:00 PM 5.01 41.018 0.505 8.08 4.42 13.09
1/27/2021 6:00:00 PM 5 41 0.505 8.08 4.44 13.1
1/27/2021 6:15:00 PM 4.98 40.964 0.506 8.08 4.59 13.12
1/27/2021 6:30:00 PM 4.97 40.946 0.506 8.09 4.59 13.14
1/27/2021 6:45:00 PM 4.96 40.928 0.506 8.09 4.51 13.14
1/27/2021 7:00:00 PM 4.97 40.946 0.506 8.1 4.67 13.16
1/27/2021 7:15:00 PM 4.98 40.964 0.506 8.1 4.71 13.16
1/27/2021 7:30:00 PM 4.99 40.982 0.506 8.1 4.79 13.16
1/27/2021 7:45:00 PM 5 41 0.506 8.11 4.87 13.17
1/27/2021 8:00:00 PM 5.01 41.018 0.505 8.11 4.87 13.17
1/27/2021 8:15:00 PM 5.01 41.018 0.505 8.11 4.82 13.17
1/27/2021 8:30:00 PM 5.02 41.036 0.505 8.12 4.99 13.17
1/27/2021 8:45:00 PM 5.02 41.036 0.504 8.12 4.97 13.16
1/27/2021 9:00:00 PM 5.03 41.054 0.504 8.12 5.29 13.16
1/27/2021 9:15:00 PM 5.03 41.054 0.504 8.12 5.34 13.15
1/27/2021 9:30:00 PM 5.03 41.054 0.504 8.12 5.58 13.14
1/27/2021 9:45:00 PM 5.03 41.054 0.504 8.12 5.53 13.13
1/27/2021 10:00:00 PM 5.03 41.054 0.504 8.12 5.45 13.13
1/27/2021 10:15:00 PM 5.02 41.036 0.504 8.12 5.38 13.12
1/27/2021 10:30:00 PM 5 41 0.504 8.12 5.55 13.11
1/27/2021 10:45:00 PM 5 41 0.503 8.12 5.54 13.11
1/27/2021 11:00:00 PM 4.98 40.964 0.503 8.12 5.68 13.09
1/27/2021 11:15:00 PM 4.96 40.928 0.503 8.11 5.59 13.07
1/27/2021 11:30:00 PM 4.94 40.892 0.503 8.11 5.66 13.06
1/27/2021 11:45:00 PM 4.91 40.838 0.502 8.11 5.66 13.05
1/28/2021 12:00:00 AM 4.89 40.802 0.502 8.1 5.78 13.03
1/28/2021 12:15:00 AM 4.86 40.748 0.501 8.1 5.77 13.03
1/28/2021 12:30:00 AM 4.84 40.712 0.5 8.09 5.9 13.01
1/28/2021 12:45:00 AM 4.8 40.64 0.5 8.09 5.89 13
1/28/2021 1:00:00 AM 4.77 40.586 0.499 8.09 6.05 12.98
1/28/2021 1:15:00 AM 4.75 40.55 0.499 8.08 5.94 12.97
1/28/2021 1:30:00 AM 4.71 40.478 0.499 8.08 5.87 12.96
1/28/2021 1:45:00 AM 4.69 40.442 0.498 8.07 5.83 12.95
1/28/2021 2:00:00 AM 4.66 40.388 0.498 8.07 6.13 12.94
1/28/2021 2:15:00 AM 4.63 40.334 0.497 8.07 6.22 12.92
1/28/2021 2:30:00 AM 4.6 40.28 0.497 8.06 6.1 12.91
1/28/2021 2:45:00 AM 4.57 40.226 0.497 8.06 6.07 12.9
1/28/2021 3:00:00 AM 4.54 40.172 0.497 8.05 6.17 12.89
1/28/2021 3:15:00 AM 4.51 40.118 0.496 8.05 6.24 12.89
1/28/2021 3:30:00 AM 4.48 40.064 0.496 8.05 6.22 12.86
1/28/2021 3:45:00 AM 4.45 40.01 0.496 8.04 6.27 12.87
1/28/2021 4:00:00 AM 4.42 39.956 0.495 8.04 6.24 12.87
1/28/2021 4:15:00 AM 4.39 39.902 0.495 8.04 6.27 12.87
1/28/2021 4:30:00 AM 4.35 39.83 0.495 8.03 6.03 12.87
1/28/2021 4:45:00 AM 4.33 39.794 0.494 8.03 6.26 12.86
1/28/2021 5:00:00 AM 4.29 39.722 0.494 8.03 6.25 12.84
1/28/2021 5:15:00 AM 4.25 39.65 0.494 8.03 6.33 12.88
1/28/2021 5:30:00 AM 4.21 39.578 0.493 8.03 6.3 12.9
1/28/2021 5:45:00 AM 4.15 39.47 0.493 8.03 6.33 12.9
1/28/2021 6:00:00 AM 4.12 39.416 0.492 8.02 6.24 12.91
1/28/2021 6:15:00 AM 4.08 39.344 0.492 8.02 6.3 12.92
1/28/2021 6:30:00 AM 4.04 39.272 0.492 8.02 6.36 12.92
1/28/2021 6:45:00 AM 4 39.2 0.491 8.02 6.52 12.92
1/28/2021 7:00:00 AM 3.96 39.128 0.49 8.02 6.28 12.91
1/28/2021 7:15:00 AM 3.92 39.056 0.49 8.02 6.38 12.95
1/28/2021 7:30:00 AM 3.87 38.966 0.489 8.02 6.16 12.96
1/28/2021 7:45:00 AM 3.84 38.912 0.489 8.02 6.12 13
1/28/2021 8:00:00 AM 3.79 38.822 0.488 8.02 6.31 13.03
1/28/2021 8:15:00 AM 3.75 38.75 0.488 8.02 6.12 13.06
1/28/2021 8:30:00 AM 3.71 38.678 0.487 8.03 6.11 13.06
1/28/2021 8:45:00 AM 3.67 38.606 0.487 8.03 6.17 13.11
1/28/2021 9:00:00 AM 3.63 38.534 0.486 8.03 6.22 13.17
1/28/2021 9:15:00 AM 3.62 38.516 0.486 8.04 6.2 13.24
1/28/2021 9:30:00 AM 3.6 38.48 0.485 8.04 6.12 13.27
1/28/2021 9:45:00 AM 3.6 38.48 0.485 8.05 6.14 13.32
1/28/2021 10:00:00 AM 3.61 38.498 0.485 8.05 5.97 13.36
1/28/2021 10:15:00 AM 3.61 38.498 0.485 8.06 5.87 13.38
1/28/2021 10:30:00 AM 3.6 38.48 0.485 8.06 5.72 13.39
1/28/2021 10:45:00 AM 3.6 38.48 0.485 8.06 5.56 13.41
1/28/2021 11:00:00 AM 3.59 38.462 0.485 8.06 5.77 13.43
1/28/2021 11:15:00 AM 3.58 38.444 0.485 8.07 5.73 13.45
1/28/2021 11:30:00 AM 3.58 38.444 0.485 8.07 5.54 13.47
1/28/2021 11:45:00 AM 3.58 38.444 0.486 8.07 5.51 13.47
1/28/2021 12:00:00 PM 3.57 38.426 0.486 8.08 5.56 13.49
1/28/2021 12:15:00 PM 3.56 38.408 0.486 8.08 5.51 13.49
1/28/2021 12:30:00 PM 3.56 38.408 0.486 8.08 5.44 13.5
1/28/2021 12:45:00 PM 3.55 38.39 0.486 8.08 5.38 13.52
1/28/2021 1:00:00 PM 3.54 38.372 0.486 8.08 5.36 13.51
1/28/2021 1:15:00 PM 3.54 38.372 0.487 8.08 5.44 13.54
1/28/2021 1:30:00 PM 3.53 38.354 0.487 8.09 5.17 13.54
1/28/2021 1:45:00 PM 3.53 38.354 0.487 8.09 5.28 13.56
1/28/2021 2:00:00 PM 3.52 38.336 0.487 8.09 5.3 13.57
1/28/2021 2:15:00 PM 3.52 38.336 0.488 8.09 5.16 13.56
1/28/2021 2:30:00 PM 3.53 38.354 0.489 8.09 5.32 13.57
1/28/2021 2:45:00 PM 3.55 38.39 0.49 8.1 5.35 13.57
1/28/2021 3:00:00 PM 3.57 38.426 0.491 8.1 5.2 13.57
1/28/2021 3:15:00 PM 3.57 38.426 0.492 8.1 5.52 13.58
1/28/2021 3:30:00 PM 3.58 38.444 0.493 8.1 5.12 13.58
1/28/2021 3:45:00 PM 3.59 38.462 0.495 8.1 5.32 13.58
1/28/2021 4:00:00 PM 3.59 38.462 0.496 8.11 5.05 13.57
1/28/2021 4:15:00 PM 3.57 38.426 0.497 8.11 5.16 13.58
1/28/2021 4:30:00 PM 3.56 38.408 0.499 8.11 5.18 13.58
1/28/2021 4:45:00 PM 3.54 38.372 0.501 8.11 5.14 13.59
1/28/2021 5:00:00 PM 3.52 38.336 0.503 8.11 5.27 13.59
1/28/2021 5:15:00 PM 3.49 38.282 0.504 8.12 5.15 13.6
1/28/2021 5:30:00 PM 3.45 38.21 0.506 8.12 5.37 13.62
1/28/2021 5:45:00 PM 3.42 38.156 0.507 8.12 5.11 13.64
1/28/2021 6:00:00 PM 3.39 38.102 0.508 8.12 5.21 13.66
1/28/2021 6:15:00 PM 3.34 38.012 0.509 8.12 5.13 13.69
1/28/2021 6:30:00 PM 3.27 37.886 0.51 8.13 5.17 13.71
1/28/2021 6:45:00 PM 3.23 37.814 0.51 8.13 5.11 13.73
1/28/2021 7:00:00 PM 3.19 37.742 0.511 8.14 5.08 13.75
1/28/2021 7:15:00 PM 3.17 37.706 0.512 8.14 5.04 13.77
1/28/2021 7:30:00 PM 3.14 37.652 0.512 8.14 4.98 13.78
1/28/2021 7:45:00 PM 3.12 37.616 0.512 8.15 5.1 13.79
1/28/2021 8:00:00 PM 3.09 37.562 0.513 8.15 5.36 13.79
1/28/2021 8:15:00 PM 3.08 37.544 0.513 8.15 5.07 13.81
1/28/2021 8:30:00 PM 3.06 37.508 0.514 8.16 5.29 13.81
1/28/2021 8:45:00 PM 3.06 37.508 0.514 8.16 5.19 13.81
1/28/2021 9:00:00 PM 3.07 37.526 0.515 8.16 5.08 13.81
1/28/2021 9:15:00 PM 3.08 37.544 0.515 8.17 5.16 13.81
1/28/2021 9:30:00 PM 3.07 37.526 0.515 8.17 5.17 13.81
1/28/2021 9:45:00 PM 3.04 37.472 0.516 8.17 5.23 13.81
1/28/2021 10:00:00 PM 3 37.4 0.516 8.17 5.28 13.82
1/28/2021 10:15:00 PM 2.99 37.382 0.517 8.17 5.32 13.82
1/28/2021 10:30:00 PM 2.98 37.364 0.517 8.17 5.32 13.81
1/28/2021 10:45:00 PM 2.95 37.31 0.517 8.17 5.18 13.82
1/28/2021 11:00:00 PM 2.92 37.256 0.517 8.17 5.15 13.8
1/28/2021 11:15:00 PM 2.89 37.202 0.517 8.17 5.21 13.8
1/28/2021 11:30:00 PM 2.86 37.148 0.517 8.17 5.18 13.8
1/28/2021 11:45:00 PM 2.83 37.094 0.517 8.16 5.18 13.8
1/29/2021 12:00:00 AM 2.81 37.058 0.517 8.16 5.2 13.8
1/29/2021 12:15:00 AM 2.78 37.004 0.517 8.16 5.17 13.78
1/29/2021 12:30:00 AM 2.75 36.95 0.517 8.16 5.11 13.79
1/29/2021 12:45:00 AM 2.7 36.86 0.517 8.15 5.05 13.78
1/29/2021 1:00:00 AM 2.65 36.77 0.517 8.15 5.06 13.77
1/29/2021 1:15:00 AM 2.61 36.698 0.517 8.15 5.08 13.76
1/29/2021 1:30:00 AM 2.56 36.608 0.517 8.14 5.07 13.76
1/29/2021 1:45:00 AM 2.5 36.5 0.516 8.14 5.01 13.76
1/29/2021 2:00:00 AM 2.44 36.392 0.516 8.14 5.12 13.76
1/29/2021 2:15:00 AM 2.38 36.284 0.516 8.13 5.04 13.77
1/29/2021 2:30:00 AM 2.33 36.194 0.516 8.13 4.98 13.78
1/29/2021 2:45:00 AM 2.28 36.104 0.516 8.12 4.95 13.78
1/29/2021 3:00:00 AM 2.23 36.014 0.516 8.12 4.89 13.78
1/29/2021 3:15:00 AM 2.17 35.906 0.515 8.12 5.01 13.78
1/29/2021 3:30:00 AM 2.12 35.816 0.515 8.11 4.83 13.78
1/29/2021 3:45:00 AM 2.07 35.726 0.515 8.11 4.96 13.78
1/29/2021 4:00:00 AM 2.03 35.654 0.515 8.11 4.96 13.78
1/29/2021 4:15:00 AM 1.97 35.546 0.515 8.1 4.82 13.78
1/29/2021 4:30:00 AM 1.92 35.456 0.515 8.1 4.81 13.78
1/29/2021 4:45:00 AM 1.87 35.366 0.515 8.1 4.84 13.8
1/29/2021 5:00:00 AM 1.8 35.24 0.514 8.1 4.94 13.81
1/29/2021 5:15:00 AM 1.75 35.15 0.514 8.1 4.89 13.82
1/29/2021 5:30:00 AM 1.71 35.078 0.514 8.09 4.89 13.84
1/29/2021 5:45:00 AM 1.68 35.024 0.514 8.09 4.93 13.85
1/29/2021 6:00:00 AM 1.64 34.952 0.514 8.09 4.96 13.86
1/29/2021 6:15:00 AM 1.6 34.88 0.514 8.09 4.93 13.87
1/29/2021 6:30:00 AM 1.56 34.808 0.514 8.09 4.98 13.88
1/29/2021 6:45:00 AM 1.51 34.718 0.514 8.08 4.94 13.89
1/29/2021 7:00:00 AM 1.45 34.61 0.514 8.08 4.88 13.9
1/29/2021 7:15:00 AM 1.42 34.556 0.514 8.08 5.07 13.92
1/29/2021 7:30:00 AM 1.4 34.52 0.513 8.08 5.02 13.94
1/29/2021 7:45:00 AM 1.36 34.448 0.513 8.08 4.94 13.96
1/29/2021 8:00:00 AM 1.34 34.412 0.513 8.08 4.92 14.01
1/29/2021 8:15:00 AM 1.31 34.358 0.513 8.09 4.91 14.06
1/29/2021 8:30:00 AM 1.3 34.34 0.513 8.09 4.92 14.09
1/29/2021 8:45:00 AM 1.27 34.286 0.513 8.09 4.99 14.12
1/29/2021 9:00:00 AM 1.24 34.232 0.512 8.09 4.98 14.17
1/29/2021 9:15:00 AM 1.25 34.25 0.512 8.1 4.94 14.21
1/29/2021 9:30:00 AM 1.24 34.232 0.512 8.1 4.97 14.23
1/29/2021 9:45:00 AM 1.23 34.214 0.511 8.1 4.97 14.27
1/29/2021 10:00:00 AM 1.21 34.178 0.511 8.1 4.96 14.29
1/29/2021 10:15:00 AM 1.19 34.142 0.511 8.11 5.04 14.33
1/29/2021 10:30:00 AM 1.21 34.178 0.511 8.11 5.05 14.34
1/29/2021 10:45:00 AM 1.19 34.142 0.511 8.11 4.99 14.38
1/29/2021 11:00:00 AM 1.19 34.142 0.511 8.12 5.16 14.39
1/29/2021 11:15:00 AM 1.25 34.25 0.511 8.12 5.12 14.43
1/29/2021 11:30:00 AM 1.27 34.286 0.511 8.12 5.13 14.43
1/29/2021 11:45:00 AM 1.3 34.34 0.511 8.12 5.04 14.43
1/29/2021 12:00:00 PM 1.33 34.394 0.51 8.13 5 14.45
1/29/2021 12:15:00 PM 1.32 34.376 0.511 8.13 5.13 14.45
1/29/2021 12:30:00 PM 1.31 34.358 0.511 8.13 5.1 14.44
1/29/2021 12:45:00 PM 1.36 34.448 0.511 8.14 5.16 14.47
1/29/2021 1:00:00 PM 1.37 34.466 0.51 8.14 5.2 14.47
1/29/2021 1:15:00 PM 1.35 34.43 0.511 8.14 5.17 14.46
1/29/2021 1:30:00 PM 1.43 34.574 0.51 8.14 5.3 14.51
1/29/2021 1:45:00 PM 1.4 34.52 0.51 8.14 5.34 14.46
1/29/2021 2:00:00 PM 1.38 34.484 0.51 8.14 5.46 14.43
1/29/2021 2:15:00 PM 1.36 34.448 0.51 8.13 5.43 14.41
1/29/2021 2:30:00 PM 1.36 34.448 0.51 8.12 5.15 14.39
1/29/2021 2:45:00 PM 1.36 34.448 0.51 8.12 5.11 14.41
1/29/2021 3:00:00 PM 1.35 34.43 0.51 8.12 5.17 14.37
1/29/2021 3:15:00 PM 1.37 34.466 0.509 8.12 5.25 14.39
1/29/2021 3:30:00 PM 1.37 34.466 0.509 8.12 4.99 14.36
1/29/2021 3:45:00 PM 1.39 34.502 0.51 8.12 4.94 14.38
1/29/2021 4:00:00 PM 1.41 34.538 0.51 8.12 4.99 14.37
1/29/2021 4:15:00 PM 1.43 34.574 0.51 8.12 5.01 14.37
1/29/2021 4:30:00 PM 1.45 34.61 0.51 8.11 5 14.35
1/29/2021 4:45:00 PM 1.45 34.61 0.511 8.11 5.1 14.33
1/29/2021 5:00:00 PM 1.47 34.646 0.512 8.11 5.1 14.31
1/29/2021 5:15:00 PM 1.5 34.7 0.513 8.11 5.07 14.29
1/29/2021 5:30:00 PM 1.53 34.754 0.514 8.1 5.09 14.29
1/29/2021 5:45:00 PM 1.53 34.754 0.515 8.1 5.1 14.3
1/29/2021 6:00:00 PM 1.55 34.79 0.517 8.1 5.12 14.29
1/29/2021 6:15:00 PM 1.58 34.844 0.518 8.1 5.12 14.31
1/29/2021 6:30:00 PM 1.6 34.88 0.52 8.1 5.16 14.31
1/29/2021 6:45:00 PM 1.6 34.88 0.521 8.11 5.25 14.34
1/29/2021 7:00:00 PM 1.58 34.844 0.521 8.11 5.23 14.38
1/29/2021 7:15:00 PM 1.56 34.808 0.522 8.12 5.43 14.41
1/29/2021 7:30:00 PM 1.53 34.754 0.523 8.13 5.35 14.45
1/29/2021 7:45:00 PM 1.54 34.772 0.524 8.14 5.37 14.5
1/29/2021 8:00:00 PM 1.55 34.79 0.526 8.15 5.42 14.51
1/29/2021 8:15:00 PM 1.6 34.88 0.527 8.16 5.47 14.51
1/29/2021 8:30:00 PM 1.64 34.952 0.528 8.17 5.38 14.5
1/29/2021 8:45:00 PM 1.71 35.078 0.53 8.17 5.47 14.48
1/29/2021 9:00:00 PM 1.77 35.186 0.531 8.18 5.69 14.47
1/29/2021 9:15:00 PM 1.83 35.294 0.532 8.18 5.56 14.44
1/29/2021 9:30:00 PM 1.88 35.384 0.532 8.18 5.55 14.42
1/29/2021 9:45:00 PM 1.91 35.438 0.533 8.18 5.58 14.4
1/29/2021 10:00:00 PM 1.91 35.438 0.534 8.18 5.69 14.4
1/29/2021 10:15:00 PM 1.91 35.438 0.534 8.18 5.77 14.39
1/29/2021 10:30:00 PM 1.91 35.438 0.535 8.18 5.83 14.37
1/29/2021 10:45:00 PM 1.9 35.42 0.537 8.18 5.99 14.36
1/29/2021 11:00:00 PM 1.88 35.384 0.538 8.17 5.77 14.34
1/29/2021 11:15:00 PM 1.87 35.366 0.539 8.17 5.88 14.33
1/29/2021 11:30:00 PM 1.88 35.384 0.54 8.17 5.83 14.31
1/29/2021 11:45:00 PM 1.87 35.366 0.541 8.16 5.95 14.28
1/30/2021 12:00:00 AM 1.87 35.366 0.542 8.16 5.89 14.26
1/30/2021 12:15:00 AM 1.87 35.366 0.542 8.16 5.91 14.25
1/30/2021 12:30:00 AM 1.87 35.366 0.542 8.15 5.85 14.23
1/30/2021 12:45:00 AM 1.85 35.33 0.541 8.15 5.7 14.21
1/30/2021 1:00:00 AM 1.84 35.312 0.541 8.15 6.03 14.18
1/30/2021 1:15:00 AM 1.82 35.276 0.54 8.14 5.91 14.16
1/30/2021 1:30:00 AM 1.81 35.258 0.539 8.14 5.98 14.16
1/30/2021 1:45:00 AM 1.8 35.24 0.539 8.13 5.86 14.16
1/30/2021 2:00:00 AM 1.78 35.204 0.538 8.13 6.06 14.14
1/30/2021 2:15:00 AM 1.76 35.168 0.537 8.12 5.96 14.13
1/30/2021 2:30:00 AM 1.75 35.15 0.536 8.12 6.04 14.12
1/30/2021 2:45:00 AM 1.73 35.114 0.535 8.11 6.11 14.11
1/30/2021 3:00:00 AM 1.71 35.078 0.535 8.11 6.02 14.1
1/30/2021 3:15:00 AM 1.69 35.042 0.534 8.1 6.05 14.09
1/30/2021 3:30:00 AM 1.68 35.024 0.534 8.1 6.29 14.08
1/30/2021 3:45:00 AM 1.66 34.988 0.534 8.1 5.69 14.07
1/30/2021 4:00:00 AM 1.65 34.97 0.534 8.09 5.95 14.07
1/30/2021 4:15:00 AM 1.64 34.952 0.534 8.09 5.95 14.06
1/30/2021 4:30:00 AM 1.63 34.934 0.534 8.09 5.94 14.05
1/30/2021 4:45:00 AM 1.61 34.898 0.534 8.08 5.9 14.04
1/30/2021 5:00:00 AM 1.6 34.88 0.534 8.08 5.92 14.04
1/30/2021 5:15:00 AM 1.58 34.844 0.534 8.08 6.05 14.05
1/30/2021 5:30:00 AM 1.57 34.826 0.534 8.07 6.25 14.04
1/30/2021 5:45:00 AM 1.55 34.79 0.534 8.07 6.16 14.03
1/30/2021 6:00:00 AM 1.52 34.736 0.534 8.07 5.99 14.03
1/30/2021 6:15:00 AM 1.5 34.7 0.534 8.07 5.9 14.03
1/30/2021 6:30:00 AM 1.48 34.664 0.534 8.07 5.82 14.04
1/30/2021 6:45:00 AM 1.46 34.628 0.534 8.06 5.98 14.04
1/30/2021 7:00:00 AM 1.43 34.574 0.535 8.06 5.95 14.05
1/30/2021 7:15:00 AM 1.42 34.556 0.535 8.06 6.06 14.05
1/30/2021 7:30:00 AM 1.42 34.556 0.535 8.06 5.97 14.05
1/30/2021 7:45:00 AM 1.41 34.538 0.534 8.06 5.93 14.07
1/30/2021 8:00:00 AM 1.39 34.502 0.535 8.06 5.94 14.1
1/30/2021 8:15:00 AM 1.39 34.502 0.535 8.06 6.04 14.14
1/30/2021 8:30:00 AM 1.38 34.484 0.534 8.06 5.94 14.17
1/30/2021 8:45:00 AM 1.39 34.502 0.534 8.07 5.92 14.2
1/30/2021 9:00:00 AM 1.4 34.52 0.534 8.07 5.95 14.23
1/30/2021 9:15:00 AM 1.41 34.538 0.534 8.07 5.86 14.25
1/30/2021 9:30:00 AM 1.43 34.574 0.534 8.07 5.89 14.26
1/30/2021 9:45:00 AM 1.45 34.61 0.534 8.07 5.77 14.27
1/30/2021 10:00:00 AM 1.48 34.664 0.535 8.07 5.9 14.28
1/30/2021 10:15:00 AM 1.51 34.718 0.535 8.07 5.73 14.28
1/30/2021 10:30:00 AM 1.53 34.754 0.535 8.07 5.96 14.29
1/30/2021 10:45:00 AM 1.57 34.826 0.536 8.07 5.61 14.29
1/30/2021 11:00:00 AM 1.61 34.898 0.537 8.08 5.84 14.3
1/30/2021 11:15:00 AM 1.63 34.934 0.537 8.08 5.44 14.3
1/30/2021 11:30:00 AM 1.67 35.006 0.538 8.08 5.83 14.3
1/30/2021 11:45:00 AM 1.71 35.078 0.539 8.08 5.51 14.3
1/30/2021 12:00:00 PM 1.73 35.114 0.54 8.08 5.56 14.29
1/30/2021 12:15:00 PM 1.76 35.168 0.541 8.08 5.53 14.29
1/30/2021 12:30:00 PM 1.79 35.222 0.542 8.08 5.52 14.28
1/30/2021 12:45:00 PM 1.8 35.24 0.542 8.08 5.54 14.27
1/30/2021 1:00:00 PM 1.83 35.294 0.543 8.09 5.47 14.26
1/30/2021 1:15:00 PM 1.86 35.348 0.544 8.09 5.51 14.26
1/30/2021 1:30:00 PM 1.88 35.384 0.544 8.09 5.52 14.24
1/30/2021 1:45:00 PM 1.91 35.438 0.545 8.09 5.65 14.24
1/30/2021 2:00:00 PM 1.94 35.492 0.545 8.09 5.6 14.24
1/30/2021 2:15:00 PM 1.97 35.546 0.545 8.09 5.69 14.22
1/30/2021 2:30:00 PM 1.99 35.582 0.545 8.09 5.57 14.22
1/30/2021 2:45:00 PM 2.01 35.618 0.544 8.09 5.72 14.21
1/30/2021 3:00:00 PM 2.03 35.654 0.544 8.09 5.79 14.2
1/30/2021 3:15:00 PM 2.06 35.708 0.543 8.09 5.64 14.19
1/30/2021 3:30:00 PM 2.1 35.78 0.542 8.1 5.68 14.17
1/30/2021 3:45:00 PM 2.14 35.852 0.541 8.1 5.94 14.16
1/30/2021 4:00:00 PM 2.17 35.906 0.539 8.1 5.85 14.14
1/30/2021 4:15:00 PM 2.2 35.96 0.538 8.09 5.95 14.13
1/30/2021 4:30:00 PM 2.23 36.014 0.537 8.09 5.8 14.12
1/30/2021 4:45:00 PM 2.25 36.05 0.536 8.09 5.85 14.11
1/30/2021 5:00:00 PM 2.27 36.086 0.534 8.09 5.61 14.1
1/30/2021 5:15:00 PM 2.29 36.122 0.533 8.09 5.86 14.09
1/30/2021 5:30:00 PM 2.29 36.122 0.532 8.09 5.84 14.08
1/30/2021 5:45:00 PM 2.28 36.104 0.531 8.09 5.72 14.09
1/30/2021 6:00:00 PM 2.29 36.122 0.53 8.09 6 14.06
1/30/2021 6:15:00 PM 2.29 36.122 0.529 8.09 5.99 14.11
1/30/2021 6:30:00 PM 2.29 36.122 0.529 8.09 5.93 14.13
1/30/2021 6:45:00 PM 2.26 36.068 0.528 8.1 5.95 14.15
1/30/2021 7:00:00 PM 2.24 36.032 0.528 8.1 5.98 14.17
1/30/2021 7:15:00 PM 2.21 35.978 0.528 8.1 6.3 14.19
1/30/2021 7:30:00 PM 2.2 35.96 0.527 8.1 6.27 14.21
1/30/2021 7:45:00 PM 2.19 35.942 0.527 8.1 6.47 14.22
1/30/2021 8:00:00 PM 2.2 35.96 0.527 8.1 6.26 14.23
1/30/2021 8:15:00 PM 2.22 35.996 0.527 8.11 6.25 14.23
1/30/2021 8:30:00 PM 2.25 36.05 0.526 8.11 6.27 14.24
1/30/2021 8:45:00 PM 2.28 36.104 0.526 8.11 6.4 14.23
1/30/2021 9:00:00 PM 2.31 36.158 0.526 8.11 6.29 14.21
1/30/2021 9:15:00 PM 2.35 36.23 0.526 8.11 6.29 14.21
1/30/2021 9:30:00 PM 2.4 36.32 0.525 8.12 6.46 14.19
1/30/2021 9:45:00 PM 2.44 36.392 0.525 8.12 6.45 14.17
1/30/2021 10:00:00 PM 2.48 36.464 0.525 8.12 6.61 14.16
1/30/2021 10:15:00 PM 2.52 36.536 0.524 8.12 6.61 14.15
1/30/2021 10:30:00 PM 2.56 36.608 0.524 8.12 6.5 14.13
1/30/2021 10:45:00 PM 2.6 36.68 0.524 8.12 6.55 14.11
1/30/2021 11:00:00 PM 2.63 36.734 0.524 8.12 6.46 14.09
1/30/2021 11:15:00 PM 2.66 36.788 0.523 8.12 6.57 14.07
1/30/2021 11:30:00 PM 2.67 36.806 0.523 8.12 6.7 14.06
1/30/2021 11:45:00 PM 2.68 36.824 0.523 8.12 6.73 14.06
1/31/2021 12:00:00 AM 2.69 36.842 0.523 8.12 6.89 14.03
1/31/2021 12:15:00 AM 2.69 36.842 0.522 8.12 6.88 14.01
1/31/2021 12:30:00 AM 2.68 36.824 0.522 8.11 6.89 13.99
1/31/2021 12:45:00 AM 2.68 36.824 0.522 8.11 7.09 13.97
1/31/2021 1:00:00 AM 2.67 36.806 0.522 8.11 7.09 13.97
1/31/2021 1:15:00 AM 2.65 36.77 0.522 8.11 7.2 13.94
1/31/2021 1:30:00 AM 2.63 36.734 0.522 8.11 6.98 13.93
1/31/2021 1:45:00 AM 2.62 36.716 0.522 8.1 6.96 13.92
1/31/2021 2:00:00 AM 2.59 36.662 0.522 8.1 7 13.91
1/31/2021 2:15:00 AM 2.57 36.626 0.522 8.1 7.22 13.89
1/31/2021 2:30:00 AM 2.55 36.59 0.522 8.09 7.01 13.88
1/31/2021 2:45:00 AM 2.52 36.536 0.522 8.09 7.18 13.86
1/31/2021 3:00:00 AM 2.5 36.5 0.523 8.09 7.17 13.84
1/31/2021 3:15:00 AM 2.47 36.446 0.523 8.08 7.09 13.83
1/31/2021 3:30:00 AM 2.45 36.41 0.523 8.08 7.25 13.82
1/31/2021 3:45:00 AM 2.43 36.374 0.523 8.08 7.15 13.8
1/31/2021 4:00:00 AM 2.41 36.338 0.523 8.07 7.28 13.8
1/31/2021 4:15:00 AM 2.39 36.302 0.523 8.07 7.26 13.78
1/31/2021 4:30:00 AM 2.37 36.266 0.523 8.07 7.68 13.78
1/31/2021 4:45:00 AM 2.35 36.23 0.523 8.06 7.21 13.76
1/31/2021 5:00:00 AM 2.33 36.194 0.523 8.06 7.57 13.76
1/31/2021 5:15:00 AM 2.31 36.158 0.523 8.06 7.34 13.76
1/31/2021 5:30:00 AM 2.29 36.122 0.523 8.06 7.49 13.75
1/31/2021 5:45:00 AM 2.27 36.086 0.523 8.05 7.25 13.74
1/31/2021 6:00:00 AM 2.25 36.05 0.523 8.05 7.37 13.74
1/31/2021 6:15:00 AM 2.23 36.014 0.523 8.05 7.45 13.73
1/31/2021 6:30:00 AM 2.21 35.978 0.523 8.05 7.45 13.73
1/31/2021 6:45:00 AM 2.2 35.96 0.522 8.04 7.72 13.73
1/31/2021 7:00:00 AM 2.18 35.924 0.522 8.04 7.65 13.72
1/31/2021 7:15:00 AM 2.16 35.888 0.522 8.04 7.38 13.72
1/31/2021 7:30:00 AM 2.14 35.852 0.522 8.04 7.43 13.72
1/31/2021 7:45:00 AM 2.13 35.834 0.521 8.04 7.54 13.73
1/31/2021 8:00:00 AM 2.12 35.816 0.521 8.04 7.57 13.75
1/31/2021 8:15:00 AM 2.11 35.798 0.521 8.04 7.39 13.76
1/31/2021 8:30:00 AM 2.1 35.78 0.521 8.04 7.49 13.78
1/31/2021 8:45:00 AM 2.1 35.78 0.521 8.04 7.44 13.79
1/31/2021 9:00:00 AM 2.09 35.762 0.52 8.04 7.54 13.81
1/31/2021 9:15:00 AM 2.09 35.762 0.52 8.04 7.13 13.84
1/31/2021 9:30:00 AM 2.08 35.744 0.52 8.04 7.29 13.86
1/31/2021 9:45:00 AM 2.07 35.726 0.52 8.04 7.27 13.86
1/31/2021 10:00:00 AM 2.06 35.708 0.519 8.04 7.34 13.85
1/31/2021 10:15:00 AM 2.06 35.708 0.519 8.04 7.11 13.89
1/31/2021 10:30:00 AM 2.05 35.69 0.519 8.04 6.98 13.91
1/31/2021 10:45:00 AM 2.06 35.708 0.519 8.04 6.63 13.91
1/31/2021 11:00:00 AM 2.07 35.726 0.519 8.04 7.5 13.91
1/31/2021 11:15:00 AM 2.09 35.762 0.519 8.04 7.14 13.93
1/31/2021 11:30:00 AM 2.08 35.744 0.518 8.04 6.95 13.91
1/31/2021 11:45:00 AM 2.08 35.744 0.518 8.04 6.58 13.91
1/31/2021 12:00:00 PM 2.09 35.762 0.518 8.04 6.71 13.93
1/31/2021 12:15:00 PM 2.1 35.78 0.518 8.04 6.72 13.94
1/31/2021 12:30:00 PM 2.11 35.798 0.518 8.04 6.84 13.94
1/31/2021 12:45:00 PM 2.12 35.816 0.518 8.04 7.2 13.92
1/31/2021 1:00:00 PM 2.12 35.816 0.517 8.04 7.29 13.92
1/31/2021 1:15:00 PM 2.12 35.816 0.517 8.04 7.52 13.94
1/31/2021 1:30:00 PM 2.13 35.834 0.517 8.05 7.99 13.95
1/31/2021 1:45:00 PM 2.15 35.87 0.517 8.05 7.5 13.97
1/31/2021 2:00:00 PM 2.14 35.852 0.517 8.05 7.59 13.97
1/31/2021 2:15:00 PM 2.12 35.816 0.518 8.05 7.2 13.96
1/31/2021 2:30:00 PM 2.12 35.816 0.517 8.05 7.66 13.97
1/31/2021 2:45:00 PM 2.09 35.762 0.517 8.05 7.24 13.95
1/31/2021 3:00:00 PM 2.08 35.744 0.516 8.05 7.52 13.94
1/31/2021 3:15:00 PM 2.05 35.69 0.517 8.05 7.45 13.93
1/31/2021 3:30:00 PM 2.04 35.672 0.517 8.05 7.26 13.95
1/31/2021 3:45:00 PM 2.05 35.69 0.517 8.05 7.3 13.96
1/31/2021 4:00:00 PM 2.07 35.726 0.516 8.06 7.3 13.96
1/31/2021 4:15:00 PM 2.06 35.708 0.518 8.06 7.16 13.94
1/31/2021 4:30:00 PM 2.06 35.708 0.517 8.06 6.98 13.93
1/31/2021 4:45:00 PM 2.03 35.654 0.517 8.06 7.15 13.92
1/31/2021 5:00:00 PM 2.03 35.654 0.517 8.06 7.06 13.93
1/31/2021 5:15:00 PM 2.02 35.636 0.517 8.06 7.2 13.92
1/31/2021 5:30:00 PM 1.99 35.582 0.517 8.06 6.99 13.93
1/31/2021 5:45:00 PM 1.98 35.564 0.517 8.07 6.85 13.95
1/31/2021 6:00:00 PM 1.99 35.582 0.517 8.07 6.79 13.96
1/31/2021 6:15:00 PM 1.97 35.546 0.517 8.07 6.56 13.98
1/31/2021 6:30:00 PM 1.98 35.564 0.517 8.08 6.63 13.99
1/31/2021 6:45:00 PM 1.98 35.564 0.516 8.08 6.56 14
1/31/2021 7:00:00 PM 1.98 35.564 0.517 8.09 6.45 14.02
1/31/2021 7:15:00 PM 1.96 35.528 0.517 8.09 6.66 14.03
1/31/2021 7:30:00 PM 1.96 35.528 0.517 8.1 6.43 14.04
1/31/2021 7:45:00 PM 1.96 35.528 0.517 8.1 6.6 14.06
1/31/2021 8:00:00 PM 1.94 35.492 0.517 8.1 6.48 14.08
1/31/2021 8:15:00 PM 1.93 35.474 0.518 8.11 6.6 14.08
1/31/2021 8:30:00 PM 1.93 35.474 0.518 8.11 6.64 14.09
1/31/2021 8:45:00 PM 1.91 35.438 0.519 8.11 6.62 14.1
1/31/2021 9:00:00 PM 1.89 35.402 0.52 8.12 6.62 14.11
1/31/2021 9:15:00 PM 1.88 35.384 0.521 8.12 6.47 14.12
1/31/2021 9:30:00 PM 1.86 35.348 0.522 8.12 6.48 14.13
1/31/2021 9:45:00 PM 1.87 35.366 0.524 8.13 6.6 14.13
1/31/2021 10:00:00 PM 1.85 35.33 0.525 8.13 6.7 14.13
1/31/2021 10:15:00 PM 1.83 35.294 0.526 8.13 6.65 14.14
1/31/2021 10:30:00 PM 1.82 35.276 0.527 8.13 6.67 14.14
1/31/2021 10:45:00 PM 1.79 35.222 0.528 8.13 6.67 14.15
1/31/2021 11:00:00 PM 1.76 35.168 0.53 8.13 6.69 14.15
1/31/2021 11:15:00 PM 1.73 35.114 0.531 8.13 6.76 14.16
1/31/2021 11:30:00 PM 1.71 35.078 0.532 8.13 6.62 14.15
1/31/2021 11:45:00 PM 1.68 35.024 0.533 8.13 6.69 14.15
2/1/2021 12:00:00 AM 1.65 34.97 0.534 8.13 6.78 14.15
2/1/2021 12:15:00 AM 1.63 34.934 0.534 8.13 6.6 14.14
2/1/2021 12:30:00 AM 1.6 34.88 0.535 8.13 6.96 14.14
2/1/2021 12:45:00 AM 1.58 34.844 0.536 8.13 7.02 14.13
2/1/2021 1:00:00 AM 1.55 34.79 0.537 8.13 7.03 14.13
2/1/2021 1:15:00 AM 1.52 34.736 0.537 8.13 6.55 14.12
2/1/2021 1:30:00 AM 1.49 34.682 0.538 8.12 6.67 14.11
2/1/2021 1:45:00 AM 1.46 34.628 0.539 8.12 6.7 14.11
2/1/2021 2:00:00 AM 1.42 34.556 0.539 8.12 6.53 14.1
2/1/2021 2:15:00 AM 1.39 34.502 0.539 8.12 6.77 14.1
2/1/2021 2:30:00 AM 1.36 34.448 0.539 8.11 6.65 14.09
2/1/2021 2:45:00 AM 1.33 34.394 0.538 8.11 6.7 14.09
2/1/2021 3:00:00 AM 1.29 34.322 0.538 8.11 6.55 14.08
2/1/2021 3:15:00 AM 1.25 34.25 0.537 8.1 6.51 14.08
2/1/2021 3:30:00 AM 1.21 34.178 0.536 8.1 6.51 14.08
2/1/2021 3:45:00 AM 1.18 34.124 0.536 8.1 6.46 14.07
2/1/2021 4:00:00 AM 1.17 34.106 0.535 8.1 6.34 14.07
2/1/2021 4:15:00 AM 1.15 34.07 0.534 8.09 6.22 14.06
2/1/2021 4:30:00 AM 1.13 34.034 0.534 8.09 6.77 14.06
2/1/2021 4:45:00 AM 1.1 33.98 0.533 8.09 6.46 14.06
2/1/2021 5:00:00 AM 1.06 33.908 0.533 8.09 6.73 14.06
2/1/2021 5:15:00 AM 1.02 33.836 0.532 8.08 6.29 14.07
2/1/2021 5:30:00 AM 1 33.8 0.531 8.08 6.64 14.07
2/1/2021 5:45:00 AM 0.97 33.746 0.53 8.08 7.31 14.07
2/1/2021 6:00:00 AM 0.96 33.728 0.53 8.08 6.59 14.07
2/1/2021 6:15:00 AM 0.96 33.728 0.529 8.08 6.46 14.07
2/1/2021 6:30:00 AM 0.95 33.71 0.529 8.07 7.14 14.07
2/1/2021 6:45:00 AM 0.93 33.674 0.528 8.07 6.27 14.07
2/1/2021 7:00:00 AM 0.92 33.656 0.528 8.07 6.18 14.07
2/1/2021 7:15:00 AM 0.9 33.62 0.527 8.07 6.11 14.08
2/1/2021 7:30:00 AM 0.83 33.494 0.527 8.07 6.19 14.09
2/1/2021 7:45:00 AM 0.85 33.53 0.526 8.07 6.27 14.12
2/1/2021 8:00:00 AM 0.86 33.548 0.526 8.07 6.29 14.15
2/1/2021 8:15:00 AM 0.86 33.548 0.526 8.07 7.51 14.17
2/1/2021 8:30:00 AM 0.86 33.548 0.525 8.07 7.55 14.18
2/1/2021 8:45:00 AM 0.85 33.53 0.525 8.07 7.7 14.19
2/1/2021 9:00:00 AM 0.86 33.548 0.525 8.07 7.51 14.2
2/1/2021 9:15:00 AM 0.87 33.566 0.525 8.08 7.49 14.23
2/1/2021 9:30:00 AM 0.88 33.584 0.526 8.08 7.76 14.23
2/1/2021 9:45:00 AM 0.9 33.62 0.526 8.08 7.48 14.26
2/1/2021 10:00:00 AM 0.92 33.656 0.526 8.08 7.36 14.26
2/1/2021 10:15:00 AM 0.93 33.674 0.527 8.08 7.19 14.26
2/1/2021 10:30:00 AM 0.97 33.746 0.527 8.08 7.02 14.28
2/1/2021 10:45:00 AM 1 33.8 0.528 8.08 6.99 14.3
2/1/2021 11:00:00 AM 1.02 33.836 0.528 8.08 7.04 14.29
2/1/2021 11:15:00 AM 1.05 33.89 0.529 8.08 6.97 14.29
2/1/2021 11:30:00 AM 1.07 33.926 0.53 8.08 6.82 14.28
2/1/2021 11:45:00 AM 1.08 33.944 0.53 8.08 6.97 14.28
2/1/2021 12:00:00 PM 1.11 33.998 0.53 8.08 7.04 14.29
2/1/2021 12:15:00 PM 1.1 33.98 0.531 8.08 6.97 14.28
2/1/2021 12:30:00 PM 1.1 33.98 0.531 8.09 6.97 14.27
2/1/2021 12:45:00 PM 1.06 33.908 0.532 8.09 6.7 14.24
2/1/2021 1:00:00 PM 1.03 33.854 0.532 8.09 7.07 14.25
2/1/2021 1:15:00 PM 1.04 33.872 0.531 8.09 7.06 14.24
2/1/2021 1:30:00 PM 1 33.8 0.531 8.09 6.65 14.23
2/1/2021 1:45:00 PM 1 33.8 0.531 8.09 6.54 14.23
2/1/2021 2:00:00 PM 1.01 33.818 0.531 8.09 7.02 14.25
2/1/2021 2:15:00 PM 0.99 33.782 0.53 8.09 7.05 14.24
2/1/2021 2:30:00 PM 1.02 33.836 0.53 8.09 7.23 14.24
2/1/2021 2:45:00 PM 1.05 33.89 0.53 8.09 6.99 14.26
2/1/2021 3:00:00 PM 1.06 33.908 0.529 8.09 7.02 14.27
2/1/2021 3:15:00 PM 1.03 33.854 0.527 8.1 6.95 14.3
2/1/2021 3:30:00 PM 1.02 33.836 0.527 8.1 6.94 14.31
2/1/2021 3:45:00 PM 0.98 33.764 0.526 8.1 6.51 14.3
2/1/2021 4:00:00 PM 0.95 33.71 0.524 8.1 6.93 14.29
2/1/2021 4:15:00 PM 0.92 33.656 0.523 8.1 6.96 14.3
2/1/2021 4:30:00 PM 0.9 33.62 0.521 8.1 7.13 14.31
2/1/2021 4:45:00 PM 0.94 33.692 0.519 8.11 6.79 14.32
2/1/2021 5:00:00 PM 1.01 33.818 0.518 8.11 6.99 14.32
2/1/2021 5:15:00 PM 1.02 33.836 0.516 8.11 7.03 14.32
2/1/2021 5:30:00 PM 1.03 33.854 0.515 8.11 6.9 14.33
2/1/2021 5:45:00 PM 1.06 33.908 0.514 8.12 6.85 14.34
2/1/2021 6:00:00 PM 1.05 33.89 0.513 8.12 7.12 14.36
2/1/2021 6:15:00 PM 1.02 33.836 0.511 8.12 7.16 14.37
2/1/2021 6:30:00 PM 0.99 33.782 0.51 8.13 7.17 14.39
2/1/2021 6:45:00 PM 0.97 33.746 0.509 8.13 7.43 14.41
2/1/2021 7:00:00 PM 0.93 33.674 0.508 8.14 7.35 14.43
2/1/2021 7:15:00 PM 0.89 33.602 0.508 8.14 7.42 14.42
2/1/2021 7:30:00 PM 0.86 33.548 0.506 8.15 7.54 14.42
2/1/2021 7:45:00 PM 0.88 33.584 0.507 8.15 7.45 14.44
2/1/2021 8:00:00 PM 0.88 33.584 0.507 8.15 7.31 14.44
2/1/2021 8:15:00 PM 0.9 33.62 0.507 8.15 7.74 14.45
2/1/2021 8:30:00 PM 0.9 33.62 0.507 8.15 7.62 14.45
2/1/2021 8:45:00 PM 0.89 33.602 0.507 8.15 7.59 14.45
2/1/2021 9:00:00 PM 0.87 33.566 0.507 8.15 7.99 14.45
2/1/2021 9:15:00 PM 0.84 33.512 0.508 8.15 8.13 14.45
2/1/2021 9:30:00 PM 0.81 33.458 0.509 8.15 7.68 14.45
2/1/2021 9:45:00 PM 0.76 33.368 0.512 8.16 7.78 14.46
2/1/2021 10:00:00 PM 0.71 33.278 0.516 8.15 7.75 14.47
2/1/2021 10:15:00 PM 0.68 33.224 0.518 8.15 8.14 14.47
2/1/2021 10:30:00 PM 0.65 33.17 0.517 8.15 7.65 14.47
2/1/2021 10:45:00 PM 0.63 33.134 0.517 8.15 7.64 14.47
2/1/2021 11:00:00 PM 0.61 33.098 0.517 8.15 7.79 14.47
2/1/2021 11:15:00 PM 0.59 33.062 0.517 8.15 7.86 14.46
2/1/2021 11:30:00 PM 0.56 33.008 0.518 8.15 7.82 14.46
2/1/2021 11:45:00 PM 0.54 32.972 0.519 8.14 7.84 14.45
2/2/2021 12:00:00 AM 0.53 32.954 0.518 8.14 7.7 14.44
2/2/2021 12:15:00 AM 0.51 32.918 0.519 8.14 7.79 14.43
2/2/2021 12:30:00 AM 0.5 32.9 0.519 8.13 7.66 14.42
2/2/2021 12:45:00 AM 0.49 32.882 0.519 8.13 7.95 14.4
2/2/2021 1:00:00 AM 0.49 32.882 0.519 8.12 7.81 14.39
2/2/2021 1:15:00 AM 0.48 32.864 0.519 8.12 7.89 14.38
2/2/2021 1:30:00 AM 0.48 32.864 0.519 8.11 8.32 14.36
2/2/2021 1:45:00 AM 0.48 32.864 0.519 8.11 8.43 14.35
2/2/2021 2:00:00 AM 0.48 32.864 0.52 8.11 7.89 14.34
2/2/2021 2:15:00 AM 0.48 32.864 0.52 8.1 7.78 14.33
2/2/2021 2:30:00 AM 0.48 32.864 0.52 8.1 7.82 14.31
2/2/2021 2:45:00 AM 0.47 32.846 0.519 8.1 7.94 14.3
2/2/2021 3:00:00 AM 0.47 32.846 0.519 8.09 7.89 14.29
2/2/2021 3:15:00 AM 0.48 32.864 0.518 8.09 7.74 14.27
2/2/2021 3:30:00 AM 0.48 32.864 0.518 8.08 7.81 14.25
2/2/2021 3:45:00 AM 0.49 32.882 0.517 8.08 7.79 14.24
2/2/2021 4:00:00 AM 0.49 32.882 0.517 8.07 7.93 14.22
2/2/2021 4:15:00 AM 0.51 32.918 0.518 8.07 7.86 14.2
2/2/2021 4:30:00 AM 0.51 32.918 0.518 8.07 8 14.18
2/2/2021 4:45:00 AM 0.52 32.936 0.518 8.06 7.87 14.16
2/2/2021 5:00:00 AM 0.53 32.954 0.519 8.06 7.83 14.15
2/2/2021 5:15:00 AM 0.55 32.99 0.518 8.06 7.81 14.15
2/2/2021 5:30:00 AM 0.57 33.026 0.517 8.05 7.9 14.12
2/2/2021 5:45:00 AM 0.59 33.062 0.515 8.05 7.98 14.1
2/2/2021 6:00:00 AM 0.6 33.08 0.514 8.05 7.95 14.09
2/2/2021 6:15:00 AM 0.61 33.098 0.513 8.05 7.88 14.08
2/2/2021 6:30:00 AM 0.63 33.134 0.512 8.05 7.84 14.06
2/2/2021 6:45:00 AM 0.65 33.17 0.512 8.04 7.87 14.05
2/2/2021 7:00:00 AM 0.67 33.206 0.512 8.04 7.82 14.04
2/2/2021 7:15:00 AM 0.7 33.26 0.512 8.04 7.85 14.02
2/2/2021 7:30:00 AM 0.71 33.278 0.512 8.04 8.01 14.02
2/2/2021 7:45:00 AM 0.75 33.35 0.512 8.04 7.87 14.02
2/2/2021 8:00:00 AM 0.78 33.404 0.512 8.04 8.02 14.05
2/2/2021 8:15:00 AM 0.81 33.458 0.512 8.04 8.06 14.07
2/2/2021 8:30:00 AM 0.85 33.53 0.511 8.04 8.19 14.08
2/2/2021 8:45:00 AM 0.89 33.602 0.511 8.04 8.11 14.09
2/2/2021 9:00:00 AM 0.93 33.674 0.511 8.05 7.91 14.1
2/2/2021 9:15:00 AM 0.96 33.728 0.511 8.05 8 14.1
2/2/2021 9:30:00 AM 1 33.8 0.511 8.05 8.04 14.09
2/2/2021 9:45:00 AM 1.03 33.854 0.511 8.05 7.89 14.07
2/2/2021 10:00:00 AM 1.07 33.926 0.511 8.05 7.82 14.08
2/2/2021 10:15:00 AM 1.13 34.034 0.511 8.05 7.87 14.07
2/2/2021 10:30:00 AM 1.17 34.106 0.512 8.05 7.86 14.06
2/2/2021 10:45:00 AM 1.22 34.196 0.512 8.05 7.93 14.06
2/2/2021 11:00:00 AM 1.27 34.286 0.512 8.05 7.78 14.05
2/2/2021 11:15:00 AM 1.35 34.43 0.511 8.06 7.89 14.06
2/2/2021 11:30:00 AM 1.41 34.538 0.511 8.06 7.88 14.06
2/2/2021 11:45:00 AM 1.46 34.628 0.511 8.06 8.26 14.03
2/2/2021 12:00:00 PM 1.5 34.7 0.511 8.06 7.77 14
2/2/2021 12:15:00 PM 1.54 34.772 0.511 8.06 8.01 13.99
2/2/2021 12:30:00 PM 1.61 34.898 0.513 8.06 7.91 14
2/2/2021 12:45:00 PM 1.67 35.006 0.513 8.06 7.67 14
2/2/2021 1:00:00 PM 1.71 35.078 0.512 8.06 7.7 13.97
2/2/2021 1:15:00 PM 1.76 35.168 0.51 8.06 7.87 13.93
2/2/2021 1:30:00 PM 1.81 35.258 0.509 8.06 7.69 13.94
2/2/2021 1:45:00 PM 1.87 35.366 0.508 8.07 7.56 13.95
2/2/2021 2:00:00 PM 1.9 35.42 0.507 8.07 7.79 13.93
2/2/2021 2:15:00 PM 1.93 35.474 0.506 8.07 7.79 13.94
2/2/2021 2:30:00 PM 1.97 35.546 0.505 8.07 7.64 13.94
2/2/2021 2:45:00 PM 2.01 35.618 0.505 8.08 7.94 13.96
2/2/2021 3:00:00 PM 2.04 35.672 0.504 8.08 7.62 13.97
2/2/2021 3:15:00 PM 2.07 35.726 0.504 8.08 7.99 13.97
2/2/2021 3:30:00 PM 2.1 35.78 0.504 8.09 8 13.97
2/2/2021 3:45:00 PM 2.13 35.834 0.503 8.09 7.76 13.96
2/2/2021 4:00:00 PM 2.17 35.906 0.503 8.09 7.93 13.97
2/2/2021 4:15:00 PM 2.2 35.96 0.503 8.1 7.76 13.98
2/2/2021 4:30:00 PM 2.23 36.014 0.504 8.1 7.9 13.97
2/2/2021 4:45:00 PM 2.26 36.068 0.504 8.11 8.31 13.96
2/2/2021 5:00:00 PM 2.29 36.122 0.505 8.11 7.8 13.96
2/2/2021 5:15:00 PM 2.33 36.194 0.505 8.11 8.04 13.95
2/2/2021 5:30:00 PM 2.36 36.248 0.506 8.12 8.06 13.95
2/2/2021 5:45:00 PM 2.4 36.32 0.507 8.12 8.02 13.95
2/2/2021 6:00:00 PM 2.43 36.374 0.508 8.13 8.08 13.95
2/2/2021 6:15:00 PM 2.47 36.446 0.509 8.13 7.95 13.94
2/2/2021 6:30:00 PM 2.51 36.518 0.51 8.14 7.95 13.93
2/2/2021 6:45:00 PM 2.54 36.572 0.511 8.14 8.17 13.94
2/2/2021 7:00:00 PM 2.57 36.626 0.512 8.14 8.24 13.95
2/2/2021 7:15:00 PM 2.59 36.662 0.512 8.15 8.17 13.94
2/2/2021 7:30:00 PM 2.61 36.698 0.513 8.15 8.3 13.95
2/2/2021 7:45:00 PM 2.62 36.716 0.513 8.15 8.38 13.94
2/2/2021 8:00:00 PM 2.63 36.734 0.514 8.16 8.35 13.94
2/2/2021 8:15:00 PM 2.64 36.752 0.514 8.16 8.41 13.93
2/2/2021 8:30:00 PM 2.64 36.752 0.515 8.16 8.41 13.93
2/2/2021 8:45:00 PM 2.64 36.752 0.515 8.16 8.78 13.92
2/2/2021 9:00:00 PM 2.64 36.752 0.516 8.16 8.82 13.9
2/2/2021 9:15:00 PM 2.63 36.734 0.516 8.16 8.83 13.89
2/2/2021 9:30:00 PM 2.62 36.716 0.517 8.16 8.65 13.87
2/2/2021 9:45:00 PM 2.6 36.68 0.517 8.16 8.88 13.87
2/2/2021 10:00:00 PM 2.58 36.644 0.517 8.16 9.08 13.85
2/2/2021 10:15:00 PM 2.55 36.59 0.517 8.15 8.74 13.83
2/2/2021 10:30:00 PM 2.52 36.536 0.518 8.15 9.03 13.82
2/2/2021 10:45:00 PM 2.49 36.482 0.518 8.15 9.1 13.81
2/2/2021 11:00:00 PM 2.45 36.41 0.518 8.14 8.86 13.81
2/2/2021 11:15:00 PM 2.41 36.338 0.518 8.14 9.82 13.79
2/2/2021 11:30:00 PM 2.37 36.266 0.518 8.14 9.23 13.78
2/2/2021 11:45:00 PM 2.33 36.194 0.518 8.13 9.58 13.77
2/3/2021 12:00:00 AM 2.28 36.104 0.518 8.13 9.31 13.77
2/3/2021 12:15:00 AM 2.23 36.014 0.518 8.12 9.38 13.76
2/3/2021 12:30:00 AM 2.18 35.924 0.518 8.12 9.44 13.75
2/3/2021 12:45:00 AM 2.13 35.834 0.517 8.11 9.59 13.76
2/3/2021 1:00:00 AM 2.08 35.744 0.517 8.11 9.26 13.75
2/3/2021 1:15:00 AM 2.03 35.654 0.517 8.1 9.09 13.75
2/3/2021 1:30:00 AM 1.99 35.582 0.516 8.1 9.44 13.74
2/3/2021 1:45:00 AM 1.94 35.492 0.515 8.09 9.8 13.72
2/3/2021 2:00:00 AM 1.89 35.402 0.515 8.09 10.06 13.72
2/3/2021 2:15:00 AM 1.86 35.348 0.514 8.08 9.63 13.74
2/3/2021 2:30:00 AM 1.82 35.276 0.513 8.08 9.5 13.74
2/3/2021 2:45:00 AM 1.79 35.222 0.513 8.07 9.73 13.75
2/3/2021 3:00:00 AM 1.75 35.15 0.513 8.07 9.93 13.74
2/3/2021 3:15:00 AM 1.72 35.096 0.511 8.07 9.5 13.75
2/3/2021 3:30:00 AM 1.69 35.042 0.512 8.06 9.48 13.75
2/3/2021 3:45:00 AM 1.65 34.97 0.51 8.06 9.57 13.76
2/3/2021 4:00:00 AM 1.63 34.934 0.509 8.06 9.46 13.75
2/3/2021 4:15:00 AM 1.6 34.88 0.508 8.06 9.55 13.75
2/3/2021 4:30:00 AM 1.57 34.826 0.507 8.05 9.66 13.76
2/3/2021 4:45:00 AM 1.54 34.772 0.506 8.05 9.57 13.75
2/3/2021 5:00:00 AM 1.52 34.736 0.505 8.05 9.41 13.75
2/3/2021 5:15:00 AM 1.49 34.682 0.504 8.05 9.64 13.75
2/3/2021 5:30:00 AM 1.47 34.646 0.502 8.05 9.52 13.75
2/3/2021 5:45:00 AM 1.46 34.628 0.501 8.04 9.34 13.75
2/3/2021 6:00:00 AM 1.45 34.61 0.5 8.04 9.28 13.76
2/3/2021 6:15:00 AM 1.43 34.574 0.498 8.04 9.15 13.77
2/3/2021 6:30:00 AM 1.42 34.556 0.496 8.04 9.1 13.74
2/3/2021 6:45:00 AM 1.41 34.538 0.495 8.03 9.13 13.75
2/3/2021 7:00:00 AM 1.41 34.538 0.493 8.03 9.05 13.76
2/3/2021 7:15:00 AM 1.4 34.52 0.492 8.03 8.98 13.74
2/3/2021 7:30:00 AM 1.41 34.538 0.49 8.03 8.67 13.75
2/3/2021 7:45:00 AM 1.41 34.538 0.489 8.03 8.91 13.77
2/3/2021 8:00:00 AM 1.42 34.556 0.487 8.03 8.77 13.8
2/3/2021 8:15:00 AM 1.44 34.592 0.486 8.04 8.54 13.84
2/3/2021 8:30:00 AM 1.45 34.61 0.485 8.04 8.72 13.83
2/3/2021 8:45:00 AM 1.46 34.628 0.484 8.03 8.62 13.85
2/3/2021 9:00:00 AM 1.48 34.664 0.483 8.04 8.49 13.85
2/3/2021 9:15:00 AM 1.51 34.718 0.482 8.04 8.64 13.9
2/3/2021 9:30:00 AM 1.55 34.79 0.482 8.04 8.41 13.91
2/3/2021 9:45:00 AM 1.61 34.898 0.481 8.05 8.28 13.93
2/3/2021 10:00:00 AM 1.66 34.988 0.48 8.05 8.34 13.95
2/3/2021 10:15:00 AM 1.75 35.15 0.48 8.05 8.19 13.96
2/3/2021 10:30:00 AM 1.8 35.24 0.479 8.05 8.13 13.94
2/3/2021 10:45:00 AM 1.8 35.24 0.479 8.05 8.34 13.91
2/3/2021 11:00:00 AM 1.83 35.294 0.479 8.05 8.19 13.91
2/3/2021 11:15:00 AM 1.87 35.366 0.479 8.05 8.02 13.88
2/3/2021 11:30:00 AM 1.91 35.438 0.48 8.05 8.13 13.9
2/3/2021 11:45:00 AM 1.96 35.528 0.48 8.05 8.08 13.9
2/3/2021 12:00:00 PM 2 35.6 0.481 8.05 8.15 13.89
2/3/2021 12:15:00 PM 2.03 35.654 0.483 8.06 8.32 13.88
2/3/2021 12:30:00 PM 2.08 35.744 0.484 8.06 8.24 13.88
2/3/2021 12:45:00 PM 2.12 35.816 0.487 8.06 8.04 13.86
2/3/2021 1:00:00 PM 2.15 35.87 0.489 8.06 8.03 13.84
2/3/2021 1:15:00 PM 2.18 35.924 0.492 8.06 7.95 13.85
2/3/2021 1:30:00 PM 2.22 35.996 0.494 8.06 8.02 13.86
2/3/2021 1:45:00 PM 2.26 36.068 0.497 8.06 7.96 13.88
2/3/2021 2:00:00 PM 2.31 36.158 0.501 8.06 8.08 13.88
2/3/2021 2:15:00 PM 2.36 36.248 0.503 8.07 7.99 13.88
2/3/2021 2:30:00 PM 2.4 36.32 0.507 8.07 8.04 13.9
2/3/2021 2:45:00 PM 2.43 36.374 0.51 8.07 8.14 13.86
2/3/2021 3:00:00 PM 2.47 36.446 0.513 8.07 8.37 13.89
2/3/2021 3:15:00 PM 2.5 36.5 0.516 8.07 8.22 13.84
2/3/2021 3:30:00 PM 2.52 36.536 0.519 8.07 8.16 13.85
2/3/2021 3:45:00 PM 2.56 36.608 0.522 8.07 8.16 13.82
2/3/2021 4:00:00 PM 2.59 36.662 0.524 8.07 8.09 13.83
2/3/2021 4:15:00 PM 2.61 36.698 0.526 8.08 8.21 13.83
2/3/2021 4:30:00 PM 2.66 36.788 0.528 8.08 8.06 13.83
2/3/2021 4:45:00 PM 2.69 36.842 0.53 8.08 8.16 13.86
2/3/2021 5:00:00 PM 2.72 36.896 0.532 8.09 8.06 13.84
2/3/2021 5:15:00 PM 2.73 36.914 0.532 8.09 8.2 13.81
2/3/2021 5:30:00 PM 2.76 36.968 0.533 8.09 8.32 13.8
2/3/2021 5:45:00 PM 2.78 37.004 0.534 8.09 8.86 13.81
2/3/2021 6:00:00 PM 2.81 37.058 0.535 8.09 8.44 13.82
2/3/2021 6:15:00 PM 2.83 37.094 0.535 8.1 8.56 13.83
2/3/2021 6:30:00 PM 2.86 37.148 0.536 8.1 8.57 13.83
2/3/2021 6:45:00 PM 2.88 37.184 0.536 8.11 8.6 13.86
2/3/2021 7:00:00 PM 2.91 37.238 0.537 8.11 8.56 13.86
2/3/2021 7:15:00 PM 2.94 37.292 0.537 8.12 9.17 13.86
2/3/2021 7:30:00 PM 2.96 37.328 0.537 8.13 8.98 13.86
2/3/2021 7:45:00 PM 2.98 37.364 0.537 8.13 8.73 13.87
2/3/2021 8:00:00 PM 3 37.4 0.537 8.13 9.15 13.87
2/3/2021 8:15:00 PM 3.02 37.436 0.537 8.14 8.93 13.87
2/3/2021 8:30:00 PM 3.03 37.454 0.537 8.14 9.21 13.87
2/3/2021 8:45:00 PM 3.04 37.472 0.536 8.14 8.99 13.87
2/3/2021 9:00:00 PM 3.06 37.508 0.537 8.14 8.94 13.88
2/3/2021 9:15:00 PM 3.08 37.544 0.537 8.15 9.47 13.86
2/3/2021 9:30:00 PM 3.1 37.58 0.537 8.15 9.12 13.86
2/3/2021 9:45:00 PM 3.11 37.598 0.536 8.15 8.96 13.84
2/3/2021 10:00:00 PM 3.12 37.616 0.536 8.15 9.18 13.84
2/3/2021 10:15:00 PM 3.12 37.616 0.536 8.15 9.31 13.82
2/3/2021 10:30:00 PM 3.11 37.598 0.536 8.15 9.63 13.82
2/3/2021 10:45:00 PM 3.1 37.58 0.536 8.15 9.43 13.81
2/3/2021 11:00:00 PM 3.09 37.562 0.536 8.14 9.78 13.79
2/3/2021 11:15:00 PM 3.08 37.544 0.536 8.14 9.3 13.78
2/3/2021 11:30:00 PM 3.07 37.526 0.536 8.14 9.51 13.77
2/3/2021 11:45:00 PM 3.05 37.49 0.536 8.14 9.78 13.75
2/4/2021 12:00:00 AM 3.03 37.454 0.536 8.13 10.12 13.73
2/4/2021 12:15:00 AM 3.01 37.418 0.536 8.13 9.89 13.72
2/4/2021 12:30:00 AM 2.97 37.346 0.536 8.12 10.31 13.7
2/4/2021 12:45:00 AM 2.96 37.328 0.535 8.12 9.69 13.69
2/4/2021 1:00:00 AM 2.92 37.256 0.535 8.12 9.22 13.67
2/4/2021 1:15:00 AM 2.9 37.22 0.535 8.11 9.74 13.65
2/4/2021 1:30:00 AM 2.86 37.148 0.535 8.1 9.73 13.64
2/4/2021 1:45:00 AM 2.83 37.094 0.534 8.1 9.79 13.62
2/4/2021 2:00:00 AM 2.79 37.022 0.534 8.09 9.77 13.61
2/4/2021 2:15:00 AM 2.75 36.95 0.534 8.09 9.66 13.6
2/4/2021 2:30:00 AM 2.71 36.878 0.533 8.08 9.39 13.58
2/4/2021 2:45:00 AM 2.67 36.806 0.533 8.08 9.43 13.57
2/4/2021 3:00:00 AM 2.64 36.752 0.533 8.07 9.14 13.56
2/4/2021 3:15:00 AM 2.6 36.68 0.533 8.07 9.53 13.54
2/4/2021 3:30:00 AM 2.57 36.626 0.532 8.06 9.45 13.53
2/4/2021 3:45:00 AM 2.53 36.554 0.533 8.06 9.44 13.52
2/4/2021 4:00:00 AM 2.5 36.5 0.533 8.05 9.75 13.53
2/4/2021 4:15:00 AM 2.47 36.446 0.533 8.05 9.72 13.52
2/4/2021 4:30:00 AM 2.43 36.374 0.533 8.04 9.59 13.52
2/4/2021 4:45:00 AM 2.4 36.32 0.533 8.04 9.38 13.53
2/4/2021 5:00:00 AM 2.37 36.266 0.534 8.04 9.51 13.53
2/4/2021 5:15:00 AM 2.34 36.212 0.534 8.03 9.15 13.52
2/4/2021 5:30:00 AM 2.31 36.158 0.534 8.03 9.25 13.52
2/4/2021 5:45:00 AM 2.29 36.122 0.535 8.02 9.08 13.51
2/4/2021 6:00:00 AM 2.26 36.068 0.535 8.02 8.91 13.52
2/4/2021 6:15:00 AM 2.23 36.014 0.536 8.02 8.92 13.51
2/4/2021 6:30:00 AM 2.21 35.978 0.536 8.02 8.61 13.52
2/4/2021 6:45:00 AM 2.18 35.924 0.537 8.02 8.94 13.52
2/4/2021 7:00:00 AM 2.16 35.888 0.537 8.01 8.51 13.53
2/4/2021 7:15:00 AM 2.14 35.852 0.537 8.01 9.33 13.52
2/4/2021 7:30:00 AM 2.1 35.78 0.538 8.01 9.01 13.54
2/4/2021 7:45:00 AM 2.07 35.726 0.539 8.01 8.62 13.57
2/4/2021 8:00:00 AM 2.05 35.69 0.539 8.02 8.47 13.6
2/4/2021 8:15:00 AM 2.05 35.69 0.539 8.02 8.6 13.64
2/4/2021 8:30:00 AM 2.03 35.654 0.54 8.02 8.75 13.69
2/4/2021 8:45:00 AM 2.03 35.654 0.54 8.02 8.59 13.72
2/4/2021 9:00:00 AM 2.02 35.636 0.541 8.03 8.57 13.76
2/4/2021 9:15:00 AM 2.02 35.636 0.541 8.03 8.66 13.78
2/4/2021 9:30:00 AM 2.03 35.654 0.542 8.03 8.57 13.81
2/4/2021 9:45:00 AM 2.05 35.69 0.542 8.03 8.28 13.84
2/4/2021 10:00:00 AM 2.07 35.726 0.543 8.04 8.22 13.85
2/4/2021 10:15:00 AM 2.09 35.762 0.543 8.04 8.43 13.87
2/4/2021 10:30:00 AM 2.11 35.798 0.544 8.04 8.26 13.88
2/4/2021 10:45:00 AM 2.14 35.852 0.544 8.04 8.14 13.89
2/4/2021 11:00:00 AM 2.18 35.924 0.544 8.04 8.31 13.89
2/4/2021 11:15:00 AM 2.2 35.96 0.545 8.05 8.42 13.91
2/4/2021 11:30:00 AM 2.23 36.014 0.544 8.05 8.53 13.91
2/4/2021 11:45:00 AM 2.26 36.068 0.545 8.05 8.4 13.92
2/4/2021 12:00:00 PM 2.28 36.104 0.546 8.05 8.46 13.93
2/4/2021 12:15:00 PM 2.31 36.158 0.546 8.05 8.37 13.93
2/4/2021 12:30:00 PM 2.33 36.194 0.547 8.05 8.14 13.93
2/4/2021 12:45:00 PM 2.35 36.23 0.547 8.06 8.22 13.92
2/4/2021 1:00:00 PM 2.37 36.266 0.547 8.06 8.22 13.91
2/4/2021 1:15:00 PM 2.39 36.302 0.548 8.06 8.16 13.91
2/4/2021 1:30:00 PM 2.42 36.356 0.548 8.06 8.4 13.9
2/4/2021 1:45:00 PM 2.45 36.41 0.549 8.06 8.22 13.9
2/4/2021 2:00:00 PM 2.46 36.428 0.549 8.06 8.47 13.9
2/4/2021 2:15:00 PM 2.49 36.482 0.55 8.06 8.02 13.9
2/4/2021 2:30:00 PM 2.51 36.518 0.551 8.06 8.16 13.89
2/4/2021 2:45:00 PM 2.54 36.572 0.551 8.07 8.48 13.88
2/4/2021 3:00:00 PM 2.55 36.59 0.552 8.07 8.7 13.86
2/4/2021 3:15:00 PM 2.57 36.626 0.553 8.06 8.45 13.85
2/4/2021 3:30:00 PM 2.6 36.68 0.554 8.06 8.12 13.84
2/4/2021 3:45:00 PM 2.65 36.77 0.555 8.06 8.22 13.84
2/4/2021 4:00:00 PM 2.69 36.842 0.556 8.06 8.02 13.81
2/4/2021 4:15:00 PM 2.73 36.914 0.557 8.06 8.15 13.79
2/4/2021 4:30:00 PM 2.77 36.986 0.558 8.06 8.12 13.77
2/4/2021 4:45:00 PM 2.81 37.058 0.56 8.06 8.13 13.76
2/4/2021 5:00:00 PM 2.84 37.112 0.561 8.06 7.78 13.75
2/4/2021 5:15:00 PM 2.86 37.148 0.562 8.06 8.01 13.74
2/4/2021 5:30:00 PM 2.88 37.184 0.564 8.06 7.87 13.73
2/4/2021 5:45:00 PM 2.9 37.22 0.566 8.06 7.96 13.75
2/4/2021 6:00:00 PM 2.94 37.292 0.569 8.06 7.92 13.76
2/4/2021 6:15:00 PM 2.95 37.31 0.571 8.07 7.73 13.79
2/4/2021 6:30:00 PM 2.94 37.292 0.574 8.07 7.77 13.81
2/4/2021 6:45:00 PM 2.93 37.274 0.576 8.07 7.86 13.84
2/4/2021 7:00:00 PM 2.92 37.256 0.579 8.08 7.81 13.87
2/4/2021 7:15:00 PM 2.92 37.256 0.581 8.08 7.82 13.89
2/4/2021 7:30:00 PM 2.94 37.292 0.583 8.08 7.75 13.91
2/4/2021 7:45:00 PM 2.97 37.346 0.586 8.09 8.05 13.9
2/4/2021 8:00:00 PM 3.01 37.418 0.588 8.09 7.92 13.88
2/4/2021 8:15:00 PM 3.05 37.49 0.59 8.09 8.09 13.88
2/4/2021 8:30:00 PM 3.11 37.598 0.592 8.1 7.83 13.87
2/4/2021 8:45:00 PM 3.18 37.724 0.594 8.1 8.05 13.85
2/4/2021 9:00:00 PM 3.24 37.832 0.596 8.11 7.79 13.84
2/4/2021 9:15:00 PM 3.31 37.958 0.598 8.11 7.86 13.84
2/4/2021 9:30:00 PM 3.37 38.066 0.6 8.11 8.01 13.81
2/4/2021 9:45:00 PM 3.41 38.138 0.601 8.12 8.14 13.8
2/4/2021 10:00:00 PM 3.46 38.228 0.603 8.12 8.35 13.78
2/4/2021 10:15:00 PM 3.49 38.282 0.604 8.12 8.56 13.76
2/4/2021 10:30:00 PM 3.52 38.336 0.605 8.12 8.41 13.73
2/4/2021 10:45:00 PM 3.54 38.372 0.607 8.12 8.3 13.7
2/4/2021 11:00:00 PM 3.54 38.372 0.608 8.12 8.29 13.69
2/4/2021 11:15:00 PM 3.55 38.39 0.609 8.12 8.48 13.67
2/4/2021 11:30:00 PM 3.55 38.39 0.609 8.12 8.33 13.64
2/4/2021 11:45:00 PM 3.54 38.372 0.61 8.11 8.59 13.62
2/5/2021 12:00:00 AM 3.54 38.372 0.611 8.11 9.07 13.59
2/5/2021 12:15:00 AM 3.53 38.354 0.611 8.11 8.81 13.58
2/5/2021 12:30:00 AM 3.51 38.318 0.612 8.1 8.28 13.55
2/5/2021 12:45:00 AM 3.49 38.282 0.612 8.1 8.42 13.52
2/5/2021 1:00:00 AM 3.47 38.246 0.613 8.09 8.43 13.49
2/5/2021 1:15:00 AM 3.44 38.192 0.613 8.09 8.28 13.47
2/5/2021 1:30:00 AM 3.42 38.156 0.614 8.08 8.52 13.44
2/5/2021 1:45:00 AM 3.4 38.12 0.614 8.08 8.66 13.42
2/5/2021 2:00:00 AM 3.37 38.066 0.615 8.07 8.55 13.4
2/5/2021 2:15:00 AM 3.36 38.048 0.616 8.07 8.35 13.38
2/5/2021 2:30:00 AM 3.34 38.012 0.616 8.06 8.41 13.35
2/5/2021 2:45:00 AM 3.32 37.976 0.617 8.06 8.22 13.34
2/5/2021 3:00:00 AM 3.3 37.94 0.618 8.05 8.26 13.31
2/5/2021 3:15:00 AM 3.28 37.904 0.619 8.05 8.34 13.29
2/5/2021 3:30:00 AM 3.26 37.868 0.619 8.04 8.31 13.28
2/5/2021 3:45:00 AM 3.24 37.832 0.62 8.04 8.46 13.26
2/5/2021 4:00:00 AM 3.23 37.814 0.621 8.03 8.33 13.24
2/5/2021 4:15:00 AM 3.21 37.778 0.622 8.03 8.48 13.23
2/5/2021 4:30:00 AM 3.18 37.724 0.622 8.03 8.72 13.21
2/5/2021 4:45:00 AM 3.17 37.706 0.623 8.02 8.61 13.21
2/5/2021 5:00:00 AM 3.14 37.652 0.623 8.02 8.62 13.2
2/5/2021 5:15:00 AM 3.12 37.616 0.624 8.02 8.44 13.2
2/5/2021 5:30:00 AM 3.11 37.598 0.625 8.01 8.39 13.2
2/5/2021 5:45:00 AM 3.05 37.49 0.625 8.01 8.55 13.19
2/5/2021 6:00:00 AM 3 37.4 0.625 8.01 8.7 13.2
2/5/2021 6:15:00 AM 2.92 37.256 0.625 8 8.56 13.2
2/5/2021 6:30:00 AM 2.93 37.274 0.626 8 9.6 13.2
2/5/2021 6:45:00 AM 2.95 37.31 0.627 8 8.31 13.19
2/5/2021 7:00:00 AM 2.94 37.292 0.628 8 8.45 13.19
2/5/2021 7:15:00 AM 2.93 37.274 0.628 7.99 8.31 13.18
2/5/2021 7:30:00 AM 2.91 37.238 0.628 7.99 8.07 13.2
2/5/2021 7:45:00 AM 2.89 37.202 0.629 7.99 8.69 13.21
2/5/2021 8:00:00 AM 2.88 37.184 0.629 7.99 7.73 13.22
2/5/2021 8:15:00 AM 2.89 37.202 0.629 8 7.99 13.28
2/5/2021 8:30:00 AM 2.88 37.184 0.629 8 7.71 13.32
2/5/2021 8:45:00 AM 2.86 37.148 0.629 8 7.88 13.3
2/5/2021 9:00:00 AM 2.9 37.22 0.629 8 7.64 13.38
2/5/2021 9:15:00 AM 2.93 37.274 0.628 8.01 7.74 13.41
2/5/2021 9:30:00 AM 2.97 37.346 0.627 8.01 7.64 13.43
2/5/2021 9:45:00 AM 3.01 37.418 0.627 8.01 8.22 13.44
2/5/2021 10:00:00 AM 3.05 37.49 0.626 8.01 7.53 13.44
2/5/2021 10:15:00 AM 3.1 37.58 0.625 8.01 7.54 13.45
2/5/2021 10:30:00 AM 3.15 37.67 0.624 8.02 7.71 13.44
2/5/2021 10:45:00 AM 3.19 37.742